Provisional Data: Little Muncy Creek near Moreland, PA


Please select a monitoring station.
Please select start date.
Please select start date.

Toggle Unit: C/F Toggle Unit: C/F
Sample Time Temperature (C) Temperature (F) Specific Conductivity (mS/cm) pH   Turbidity (NTU+) DO (mg/L)
12/4/2020 12:00:00 AM 4.1 39.38 0.127 7.21 2.01 12.39
12/4/2020 12:15:00 AM 4.09 39.362 0.127 7.21 2.04 12.39
12/4/2020 12:30:00 AM 4.08 39.344 0.127 7.19 2.02 12.39
12/4/2020 12:45:00 AM 4.05 39.29 0.127 7.2 2.01 12.39
12/4/2020 1:00:00 AM 4.02 39.236 0.127 7.19 1.97 12.39
12/4/2020 1:15:00 AM 4 39.2 0.127 7.2 2.06 12.4
12/4/2020 1:30:00 AM 3.99 39.182 0.127 7.2 1.99 12.4
12/4/2020 1:45:00 AM 3.97 39.146 0.127 7.19 1.95 12.4
12/4/2020 2:00:00 AM 3.96 39.128 0.127 7.18 1.99 12.41
12/4/2020 2:15:00 AM 3.94 39.092 0.127 7.18 2.04 12.41
12/4/2020 2:30:00 AM 3.93 39.074 0.127 7.19 2 12.42
12/4/2020 2:45:00 AM 3.91 39.038 0.128 7.18 2.09 12.42
12/4/2020 3:00:00 AM 3.89 39.002 0.128 7.18 2.11 12.43
12/4/2020 3:15:00 AM 3.88 38.984 0.128 7.19 2.05 12.43
12/4/2020 3:30:00 AM 3.87 38.966 0.128 7.18 2.01 12.44
12/4/2020 3:45:00 AM 3.86 38.948 0.128 7.18 1.97 12.44
12/4/2020 4:00:00 AM 3.85 38.93 0.128 7.18 1.99 12.44
12/4/2020 4:15:00 AM 3.84 38.912 0.128 7.18 2.08 12.45
12/4/2020 4:30:00 AM 3.83 38.894 0.128 7.19 2.06 12.45
12/4/2020 4:45:00 AM 3.82 38.876 0.128 7.19 1.96 12.45
12/4/2020 5:00:00 AM 3.81 38.858 0.128 7.18 1.97 12.45
12/4/2020 5:15:00 AM 3.81 38.858 0.128 7.18 2 12.46
12/4/2020 5:30:00 AM 3.8 38.84 0.128 7.19 2.24 12.46
12/4/2020 5:45:00 AM 3.79 38.822 0.128 7.19 2.03 12.46
12/4/2020 6:00:00 AM 3.79 38.822 0.128 7.19 1.95 12.46
12/4/2020 6:15:00 AM 3.78 38.804 0.128 7.19 2.04 12.47
12/4/2020 6:30:00 AM 3.78 38.804 0.128 7.18 2.04 12.47
12/4/2020 6:45:00 AM 3.77 38.786 0.128 7.19 1.96 12.47
12/4/2020 7:00:00 AM 3.76 38.768 0.128 7.18 2.02 12.47
12/4/2020 7:15:00 AM 3.74 38.732 0.128 7.19 1.92 12.48
12/4/2020 7:30:00 AM 3.73 38.714 0.128 7.2 1.91 12.51
12/4/2020 7:45:00 AM 3.72 38.696 0.128 7.19 1.95 12.56
12/4/2020 8:00:00 AM 3.7 38.66 0.128 7.21 1.93 12.62
12/4/2020 8:15:00 AM 3.69 38.642 0.128 7.23 1.99 12.73
12/4/2020 8:30:00 AM 3.68 38.624 0.128 7.25 1.95 12.82
12/4/2020 8:45:00 AM 3.68 38.624 0.128 7.26 1.93 12.92
12/4/2020 9:00:00 AM 3.7 38.66 0.128 7.3 1.89 13.02
12/4/2020 9:15:00 AM 3.7 38.66 0.127 7.32 1.86 13.1
12/4/2020 9:30:00 AM 3.74 38.732 0.127 7.35 1.89 13.18
12/4/2020 9:45:00 AM 3.79 38.822 0.127 7.38 1.91 13.27
12/4/2020 10:00:00 AM 3.84 38.912 0.127 7.42 1.88 13.33
12/4/2020 10:15:00 AM 3.91 39.038 0.127 7.46 1.88 13.41
12/4/2020 10:30:00 AM 3.93 39.074 0.127 7.48 1.89 13.45
12/4/2020 10:45:00 AM 4.05 39.29 0.127 7.53 1.91 13.51
12/4/2020 11:00:00 AM 4.19 39.542 0.127 7.57 1.91 13.56
12/4/2020 11:15:00 AM 4.32 39.776 0.126 7.61 1.95 13.59
12/4/2020 11:30:00 AM 4.44 39.992 0.126 7.65 1.99 13.62
12/4/2020 11:45:00 AM 4.55 40.19 0.126 7.69 1.99 13.63
12/4/2020 12:00:00 PM 4.68 40.424 0.126 7.71 2.03 13.62
12/4/2020 12:15:00 PM 4.75 40.55 0.126 7.73 1.92 13.63
12/4/2020 12:30:00 PM 4.83 40.694 0.126 7.77 1.92 13.65
12/4/2020 12:45:00 PM 4.91 40.838 0.126 7.78 1.9 13.64
12/4/2020 1:00:00 PM 4.98 40.964 0.126 7.81 1.93 13.63
12/4/2020 1:15:00 PM 5.04 41.072 0.126 7.82 1.9 13.62
12/4/2020 1:30:00 PM 5.07 41.126 0.126 7.82 1.91 13.6
12/4/2020 1:45:00 PM 5.11 41.198 0.126 7.82 1.93 13.56
12/4/2020 2:00:00 PM 5.15 41.27 0.126 7.84 1.86 13.55
12/4/2020 2:15:00 PM 5.12 41.216 0.126 7.83 1.93 13.53
12/4/2020 2:30:00 PM 5.08 41.144 0.126 7.81 1.94 13.48
12/4/2020 2:45:00 PM 5.08 41.144 0.126 7.81 1.87 13.45
12/4/2020 3:00:00 PM 5.07 41.126 0.126 7.78 1.88 13.39
12/4/2020 3:15:00 PM 5.05 41.09 0.126 7.73 1.86 13.28
12/4/2020 3:30:00 PM 5.05 41.09 0.126 7.69 1.91 13.19
12/4/2020 3:45:00 PM 5.07 41.126 0.126 7.68 1.87 13.16
12/4/2020 4:00:00 PM 5.09 41.162 0.126 7.65 2 13.06
12/4/2020 4:15:00 PM 5.1 41.18 0.126 7.61 1.93 12.94
12/4/2020 4:30:00 PM 5.12 41.216 0.126 7.56 1.95 12.81
12/4/2020 4:45:00 PM 5.13 41.234 0.126 7.51 1.97 12.69
12/4/2020 5:00:00 PM 5.14 41.252 0.126 7.48 2.04 12.59
12/4/2020 5:15:00 PM 5.15 41.27 0.126 7.45 2.08 12.51
12/4/2020 5:30:00 PM 5.16 41.288 0.126 7.42 2.14 12.44
12/4/2020 5:45:00 PM 5.16 41.288 0.126 7.4 1.96 12.37
12/4/2020 6:00:00 PM 5.17 41.306 0.126 7.38 1.99 12.31
12/4/2020 6:15:00 PM 5.17 41.306 0.126 7.36 1.99 12.26
12/4/2020 6:30:00 PM 5.18 41.324 0.126 7.35 2.02 12.22
12/4/2020 6:45:00 PM 5.18 41.324 0.126 7.34 1.94 12.19
12/4/2020 7:00:00 PM 5.19 41.342 0.127 7.33 1.98 12.15
12/4/2020 7:15:00 PM 5.19 41.342 0.127 7.32 1.96 12.13
12/4/2020 7:30:00 PM 5.2 41.36 0.127 7.3 1.98 12.1
12/4/2020 7:45:00 PM 5.2 41.36 0.127 7.3 1.98 12.08
12/4/2020 8:00:00 PM 5.21 41.378 0.127 7.3 1.98 12.06
12/4/2020 8:15:00 PM 5.21 41.378 0.127 7.29 2 12.04
12/4/2020 8:30:00 PM 5.22 41.396 0.127 7.29 2.02 12.02
12/4/2020 8:45:00 PM 5.23 41.414 0.127 7.27 2 12.01
12/4/2020 9:00:00 PM 5.24 41.432 0.127 7.27 2 12
12/4/2020 9:15:00 PM 5.24 41.432 0.127 7.26 2 11.98
12/4/2020 9:30:00 PM 5.25 41.45 0.127 7.26 1.98 11.97
12/4/2020 9:45:00 PM 5.26 41.468 0.127 7.25 1.91 11.96
12/4/2020 10:00:00 PM 5.26 41.468 0.127 7.25 1.92 11.95
12/4/2020 10:15:00 PM 5.27 41.486 0.127 7.25 2 11.94
12/4/2020 10:30:00 PM 5.28 41.504 0.127 7.24 1.97 11.93
12/4/2020 10:45:00 PM 5.28 41.504 0.127 7.24 2.02 11.92
12/4/2020 11:00:00 PM 5.29 41.522 0.127 7.23 2.05 11.92
12/4/2020 11:15:00 PM 5.3 41.54 0.127 7.22 1.94 11.91
12/4/2020 11:30:00 PM 5.3 41.54 0.127 7.22 1.96 11.9
12/4/2020 11:45:00 PM 5.31 41.558 0.127 7.22 1.89 11.9
12/5/2020 12:00:00 AM 5.31 41.558 0.127 7.22 2 11.89
12/5/2020 12:15:00 AM 5.32 41.576 0.127 7.22 1.95 11.88
12/5/2020 12:30:00 AM 5.32 41.576 0.127 7.21 1.99 11.87
12/5/2020 12:45:00 AM 5.33 41.594 0.127 7.21 2.02 11.87
12/5/2020 1:00:00 AM 5.33 41.594 0.127 7.2 2.02 11.86
12/5/2020 1:15:00 AM 5.33 41.594 0.127 7.2 2.01 11.86
12/5/2020 1:30:00 AM 5.33 41.594 0.127 7.2 2.05 11.85
12/5/2020 1:45:00 AM 5.34 41.612 0.127 7.2 1.95 11.85
12/5/2020 2:00:00 AM 5.33 41.594 0.127 7.2 1.97 11.85
12/5/2020 2:15:00 AM 5.32 41.576 0.127 7.2 2 11.84
12/5/2020 2:30:00 AM 5.31 41.558 0.127 7.2 1.99 11.84
12/5/2020 2:45:00 AM 5.3 41.54 0.127 7.19 1.98 11.84
12/5/2020 3:00:00 AM 5.3 41.54 0.127 7.19 1.94 11.84
12/5/2020 3:15:00 AM 5.28 41.504 0.127 7.18 1.93 11.84
12/5/2020 3:30:00 AM 5.27 41.486 0.127 7.18 2.15 11.84
12/5/2020 3:45:00 AM 5.25 41.45 0.127 7.18 2.09 11.84
12/5/2020 4:00:00 AM 5.23 41.414 0.127 7.18 2.02 11.84
12/5/2020 4:15:00 AM 5.22 41.396 0.127 7.18 2 11.84
12/5/2020 4:30:00 AM 5.2 41.36 0.127 7.17 2.03 11.85
12/5/2020 4:45:00 AM 5.19 41.342 0.127 7.18 1.96 11.85
12/5/2020 5:00:00 AM 5.17 41.306 0.127 7.18 1.97 11.86
12/5/2020 5:15:00 AM 5.16 41.288 0.127 7.19 1.99 11.86
12/5/2020 5:30:00 AM 5.15 41.27 0.127 7.18 1.98 11.87
12/5/2020 5:45:00 AM 5.14 41.252 0.127 7.18 2.07 11.87
12/5/2020 6:00:00 AM 5.13 41.234 0.127 7.17 2.04 11.87
12/5/2020 6:15:00 AM 5.12 41.216 0.127 7.18 2.17 11.88
12/5/2020 6:30:00 AM 5.12 41.216 0.127 7.18 1.96 11.88
12/5/2020 6:45:00 AM 5.11 41.198 0.127 7.18 2.05 11.88
12/5/2020 7:00:00 AM 5.11 41.198 0.127 7.19 1.98 11.89
12/5/2020 7:15:00 AM 5.11 41.198 0.127 7.18 1.93 11.9
12/5/2020 7:30:00 AM 5.11 41.198 0.127 7.19 2 11.91
12/5/2020 7:45:00 AM 5.11 41.198 0.127 7.19 1.93 11.93
12/5/2020 8:00:00 AM 5.1 41.18 0.127 7.21 1.92 11.95
12/5/2020 8:15:00 AM 5.1 41.18 0.127 7.21 1.89 12
12/5/2020 8:30:00 AM 5.11 41.198 0.127 7.22 1.97 12.06
12/5/2020 8:45:00 AM 5.11 41.198 0.127 7.24 1.92 12.17
12/5/2020 9:00:00 AM 5.13 41.234 0.127 7.28 1.89 12.32
12/5/2020 9:15:00 AM 5.14 41.252 0.127 7.32 1.93 12.41
12/5/2020 9:30:00 AM 5.15 41.27 0.127 7.32 1.9 12.43
12/5/2020 9:45:00 AM 5.16 41.288 0.127 7.35 1.91 12.54
12/5/2020 10:00:00 AM 5.18 41.324 0.127 7.39 1.89 12.67
12/5/2020 10:15:00 AM 5.21 41.378 0.127 7.44 1.91 12.77
12/5/2020 10:30:00 AM 5.21 41.378 0.127 7.45 2.05 12.83
12/5/2020 10:45:00 AM 5.23 41.414 0.127 7.49 1.96 12.91
12/5/2020 11:00:00 AM 5.26 41.468 0.126 7.53 2.03 12.97
12/5/2020 11:15:00 AM 5.25 41.45 0.126 7.51 2.01 12.9
12/5/2020 11:30:00 AM 5.23 41.414 0.126 7.49 1.93 12.84
12/5/2020 11:45:00 AM 5.24 41.432 0.126 7.51 1.9 12.88
12/5/2020 12:00:00 PM 5.25 41.45 0.126 7.54 1.96 12.95
12/5/2020 12:15:00 PM 5.29 41.522 0.126 7.6 1.93 13.06
12/5/2020 12:30:00 PM 5.34 41.612 0.126 7.65 1.91 13.12
12/5/2020 12:45:00 PM 5.34 41.612 0.126 7.64 1.95 13.08
12/5/2020 1:00:00 PM 5.32 41.576 0.126 7.63 1.93 13.03
12/5/2020 1:15:00 PM 5.34 41.612 0.126 7.65 1.91 13.08
12/5/2020 1:30:00 PM 5.34 41.612 0.126 7.67 1.93 13.08
12/5/2020 1:45:00 PM 5.34 41.612 0.126 7.66 2.01 13.05
12/5/2020 2:00:00 PM 5.36 41.648 0.126 7.7 2.04 13.13
12/5/2020 2:15:00 PM 5.4 41.72 0.125 7.76 2 13.18
12/5/2020 2:30:00 PM 5.38 41.684 0.126 7.73 1.96 13.12
12/5/2020 2:45:00 PM 5.36 41.648 0.125 7.72 1.92 13.1
12/5/2020 3:00:00 PM 5.35 41.63 0.125 7.69 2 13.02
12/5/2020 3:15:00 PM 5.34 41.612 0.125 7.65 1.92 12.94
12/5/2020 3:30:00 PM 5.31 41.558 0.126 7.6 1.93 12.84
12/5/2020 3:45:00 PM 5.29 41.522 0.126 7.58 1.98 12.78
12/5/2020 4:00:00 PM 5.27 41.486 0.126 7.54 2.01 12.69
12/5/2020 4:15:00 PM 5.25 41.45 0.126 7.5 2.02 12.6
12/5/2020 4:30:00 PM 5.24 41.432 0.126 7.47 2.03 12.5
12/5/2020 4:45:00 PM 5.21 41.378 0.126 7.44 2.06 12.43
12/5/2020 5:00:00 PM 5.2 41.36 0.126 7.4 2.07 12.36
12/5/2020 5:15:00 PM 5.18 41.324 0.126 7.39 2.07 12.31
12/5/2020 5:30:00 PM 5.16 41.288 0.126 7.36 2.02 12.26
12/5/2020 5:45:00 PM 5.14 41.252 0.126 7.35 2.05 12.22
12/5/2020 6:00:00 PM 5.12 41.216 0.126 7.33 2.03 12.19
12/5/2020 6:15:00 PM 5.1 41.18 0.126 7.33 2.04 12.17
12/5/2020 6:30:00 PM 5.07 41.126 0.126 7.31 1.99 12.14
12/5/2020 6:45:00 PM 5.04 41.072 0.126 7.3 1.97 12.12
12/5/2020 7:00:00 PM 5.02 41.036 0.126 7.29 1.98 12.11
12/5/2020 7:15:00 PM 4.99 40.982 0.126 7.29 2.08 12.1
12/5/2020 7:30:00 PM 4.97 40.946 0.126 7.28 2.15 12.09
12/5/2020 7:45:00 PM 4.94 40.892 0.126 7.27 2.02 12.08
12/5/2020 8:00:00 PM 4.92 40.856 0.126 7.27 1.91 12.08
12/5/2020 8:15:00 PM 4.91 40.838 0.126 7.26 1.98 12.07
12/5/2020 8:30:00 PM 4.89 40.802 0.126 7.26 2.01 12.07
12/5/2020 8:45:00 PM 4.86 40.748 0.126 7.26 1.97 12.06
12/5/2020 9:00:00 PM 4.84 40.712 0.126 7.25 1.94 12.07
12/5/2020 9:15:00 PM 4.82 40.676 0.126 7.25 1.95 12.06
12/5/2020 9:30:00 PM 4.79 40.622 0.126 7.24 2.03 12.06
12/5/2020 9:45:00 PM 4.77 40.586 0.126 7.23 2.03 12.06
12/5/2020 10:00:00 PM 4.75 40.55 0.126 7.23 1.98 12.06
12/5/2020 10:15:00 PM 4.73 40.514 0.126 7.24 2.03 12.07
12/5/2020 10:30:00 PM 4.72 40.496 0.126 7.23 2.11 12.07
12/5/2020 10:45:00 PM 4.7 40.46 0.126 7.23 1.97 12.07
12/5/2020 11:00:00 PM 4.68 40.424 0.126 7.22 1.96 12.07
12/5/2020 11:15:00 PM 4.67 40.406 0.126 7.22 1.99 12.08
12/5/2020 11:30:00 PM 4.64 40.352 0.126 7.21 2.01 12.08
12/5/2020 11:45:00 PM 4.63 40.334 0.126 7.22 2.03 12.09
12/6/2020 12:00:00 AM 4.62 40.316 0.126 7.22 1.98 12.09
12/6/2020 12:15:00 AM 4.6 40.28 0.126 7.22 1.99 12.1
12/6/2020 12:30:00 AM 4.58 40.244 0.126 7.21 2 12.1
12/6/2020 12:45:00 AM 4.56 40.208 0.126 7.21 1.98 12.11
12/6/2020 1:00:00 AM 4.54 40.172 0.126 7.21 2.01 12.11
12/6/2020 1:15:00 AM 4.52 40.136 0.126 7.21 1.98 12.12
12/6/2020 1:30:00 AM 4.49 40.082 0.126 7.21 1.96 12.13
12/6/2020 1:45:00 AM 4.46 40.028 0.126 7.21 1.96 12.13
12/6/2020 2:00:00 AM 4.45 40.01 0.126 7.2 1.92 12.14
12/6/2020 2:15:00 AM 4.42 39.956 0.126 7.21 1.92 12.14
12/6/2020 2:30:00 AM 4.41 39.938 0.126 7.2 1.96 12.15
12/6/2020 2:45:00 AM 4.39 39.902 0.126 7.21 1.93 12.16
12/6/2020 3:00:00 AM 4.37 39.866 0.126 7.21 1.92 12.16
12/6/2020 3:15:00 AM 4.35 39.83 0.126 7.2 1.95 12.17
12/6/2020 3:30:00 AM 4.33 39.794 0.126 7.2 1.93 12.17
12/6/2020 3:45:00 AM 4.31 39.758 0.126 7.2 1.98 12.18
12/6/2020 4:00:00 AM 4.28 39.704 0.127 7.2 1.97 12.19
12/6/2020 4:15:00 AM 4.26 39.668 0.127 7.2 2.04 12.19
12/6/2020 4:30:00 AM 4.23 39.614 0.127 7.19 1.93 12.2
12/6/2020 4:45:00 AM 4.19 39.542 0.127 7.19 2 12.21
12/6/2020 5:00:00 AM 4.13 39.434 0.127 7.18 2.01 12.22
12/6/2020 5:15:00 AM 4.08 39.344 0.127 7.19 2.08 12.23
12/6/2020 5:30:00 AM 4.04 39.272 0.127 7.2 1.93 12.25
12/6/2020 5:45:00 AM 4 39.2 0.127 7.19 2 12.26
12/6/2020 6:00:00 AM 3.97 39.146 0.127 7.19 2.02 12.28
12/6/2020 6:15:00 AM 3.95 39.11 0.127 7.19 2.12 12.29
12/6/2020 6:30:00 AM 3.9 39.02 0.127 7.19 2 12.31
12/6/2020 6:45:00 AM 3.86 38.948 0.127 7.19 1.99 12.32
12/6/2020 7:00:00 AM 3.81 38.858 0.127 7.18 1.95 12.34
12/6/2020 7:15:00 AM 3.78 38.804 0.127 7.19 2.01 12.37
12/6/2020 7:30:00 AM 3.75 38.75 0.127 7.2 2.05 12.41
12/6/2020 7:45:00 AM 3.71 38.678 0.127 7.2 1.91 12.49
12/6/2020 8:00:00 AM 3.67 38.606 0.127 7.22 1.93 12.59
12/6/2020 8:15:00 AM 3.66 38.588 0.127 7.26 1.94 12.72
12/6/2020 8:30:00 AM 3.66 38.588 0.127 7.3 1.93 12.87
12/6/2020 8:45:00 AM 3.63 38.534 0.127 7.32 1.94 12.96
12/6/2020 9:00:00 AM 3.58 38.444 0.127 7.33 1.98 13.02
12/6/2020 9:15:00 AM 3.57 38.426 0.127 7.37 1.94 13.15
12/6/2020 9:30:00 AM 3.59 38.462 0.127 7.41 1.9 13.26
12/6/2020 9:45:00 AM 3.59 38.462 0.127 7.44 1.94 13.34
12/6/2020 10:00:00 AM 3.6 38.48 0.126 7.48 1.93 13.43
12/6/2020 10:15:00 AM 3.6 38.48 0.126 7.52 1.92 13.53
12/6/2020 10:30:00 AM 3.6 38.48 0.126 7.53 1.92 13.58
12/6/2020 10:45:00 AM 3.69 38.642 0.126 7.6 1.9 13.68
12/6/2020 11:00:00 AM 3.78 38.804 0.126 7.65 1.91 13.77
12/6/2020 11:15:00 AM 3.85 38.93 0.126 7.69 1.91 13.83
12/6/2020 11:30:00 AM 3.92 39.056 0.126 7.73 1.92 13.86
12/6/2020 11:45:00 AM 4.02 39.236 0.126 7.78 1.87 13.9
12/6/2020 12:00:00 PM 4.11 39.398 0.125 7.82 1.92 13.9
12/6/2020 12:15:00 PM 4.26 39.668 0.125 7.87 1.91 13.92
12/6/2020 12:30:00 PM 4.33 39.794 0.125 7.88 1.97 13.91
12/6/2020 12:45:00 PM 4.35 39.83 0.125 7.88 1.96 13.89
12/6/2020 1:00:00 PM 4.39 39.902 0.125 7.9 1.96 13.89
12/6/2020 1:15:00 PM 4.42 39.956 0.125 7.92 1.91 13.88
12/6/2020 1:30:00 PM 4.43 39.974 0.125 7.93 1.94 13.87
12/6/2020 1:45:00 PM 4.43 39.974 0.125 7.94 1.9 13.86
12/6/2020 2:00:00 PM 4.4 39.92 0.125 7.92 1.91 13.84
12/6/2020 2:15:00 PM 4.37 39.866 0.125 7.92 1.92 13.82
12/6/2020 2:30:00 PM 4.3 39.74 0.125 7.91 1.96 13.77
12/6/2020 2:45:00 PM 4.24 39.632 0.125 7.88 1.87 13.74
12/6/2020 3:00:00 PM 4.18 39.524 0.125 7.86 1.93 13.7
12/6/2020 3:15:00 PM 4.11 39.398 0.125 7.83 1.88 13.65
12/6/2020 3:30:00 PM 4.06 39.308 0.125 7.79 1.91 13.59
12/6/2020 3:45:00 PM 3.99 39.182 0.125 7.74 1.95 13.52
12/6/2020 4:00:00 PM 3.93 39.074 0.125 7.69 1.86 13.44
12/6/2020 4:15:00 PM 3.88 38.984 0.125 7.63 1.92 13.34
12/6/2020 4:30:00 PM 3.83 38.894 0.125 7.58 1.86 13.23
12/6/2020 4:45:00 PM 3.78 38.804 0.125 7.54 1.91 13.12
12/6/2020 5:00:00 PM 3.75 38.75 0.125 7.49 1.97 13.02
12/6/2020 5:15:00 PM 3.72 38.696 0.125 7.46 2 12.95
12/6/2020 5:30:00 PM 3.68 38.624 0.126 7.43 1.95 12.89
12/6/2020 5:45:00 PM 3.65 38.57 0.126 7.41 1.95 12.85
12/6/2020 6:00:00 PM 3.61 38.498 0.126 7.39 1.93 12.8
12/6/2020 6:15:00 PM 3.57 38.426 0.126 7.37 1.93 12.77
12/6/2020 6:30:00 PM 3.52 38.336 0.126 7.35 1.92 12.74
12/6/2020 6:45:00 PM 3.47 38.246 0.126 7.34 2.05 12.72
12/6/2020 7:00:00 PM 3.43 38.174 0.126 7.33 1.99 12.69
12/6/2020 7:15:00 PM 3.39 38.102 0.126 7.31 1.97 12.67
12/6/2020 7:30:00 PM 3.34 38.012 0.126 7.31 1.97 12.66
12/6/2020 7:45:00 PM 3.3 37.94 0.126 7.3 2.11 12.65
12/6/2020 8:00:00 PM 3.25 37.85 0.126 7.28 2.08 12.66
12/6/2020 8:15:00 PM 3.21 37.778 0.126 7.28 2 12.65
12/6/2020 8:30:00 PM 3.17 37.706 0.126 7.27 1.95 12.66
12/6/2020 8:45:00 PM 3.14 37.652 0.126 7.27 1.97 12.66
12/6/2020 9:00:00 PM 3.11 37.598 0.126 7.26 2.15 12.67
12/6/2020 9:15:00 PM 3.09 37.562 0.126 7.25 2.01 12.66
12/6/2020 9:30:00 PM 3.08 37.544 0.126 7.26 1.92 12.66
12/6/2020 9:45:00 PM 3.04 37.472 0.126 7.25 1.97 12.67
12/6/2020 10:00:00 PM 2.99 37.382 0.126 7.24 2.01 12.67
12/6/2020 10:15:00 PM 2.94 37.292 0.126 7.24 2.07 12.68
12/6/2020 10:30:00 PM 2.9 37.22 0.126 7.24 2.17 12.68
12/6/2020 10:45:00 PM 2.87 37.166 0.126 7.23 1.99 12.69
12/6/2020 11:00:00 PM 2.83 37.094 0.126 7.23 1.97 12.7
12/6/2020 11:15:00 PM 2.81 37.058 0.126 7.22 2.86 12.7
12/6/2020 11:30:00 PM 2.79 37.022 0.126 7.22 2.04 12.71
12/6/2020 11:45:00 PM 2.75 36.95 0.126 7.22 2 12.72
12/7/2020 12:00:00 AM 2.7 36.86 0.126 7.22 1.88 12.73
12/7/2020 12:15:00 AM 2.67 36.806 0.126 7.21 1.92 12.74
12/7/2020 12:30:00 AM 2.63 36.734 0.126 7.22 1.97 12.75
12/7/2020 12:45:00 AM 2.58 36.644 0.126 7.2 1.92 12.76
12/7/2020 1:00:00 AM 2.54 36.572 0.126 7.2 1.87 12.78
12/7/2020 1:15:00 AM 2.51 36.518 0.126 7.2 1.92 12.79
12/7/2020 1:30:00 AM 2.48 36.464 0.126 7.21 1.91 12.8
12/7/2020 1:45:00 AM 2.47 36.446 0.126 7.21 1.93 12.81
12/7/2020 2:00:00 AM 2.45 36.41 0.126 7.2 1.88 12.82
12/7/2020 2:15:00 AM 2.42 36.356 0.126 7.21 1.88 12.83
12/7/2020 2:30:00 AM 2.39 36.302 0.126 7.21 1.87 12.84
12/7/2020 2:45:00 AM 2.36 36.248 0.126 7.21 1.94 12.85
12/7/2020 3:00:00 AM 2.32 36.176 0.126 7.2 1.92 12.86
12/7/2020 3:15:00 AM 2.3 36.14 0.126 7.2 1.9 12.87
12/7/2020 3:30:00 AM 2.29 36.122 0.126 7.2 1.9 12.88
12/7/2020 3:45:00 AM 2.27 36.086 0.126 7.21 1.95 12.89
12/7/2020 4:00:00 AM 2.25 36.05 0.127 7.2 1.91 12.89
12/7/2020 4:15:00 AM 2.24 36.032 0.127 7.2 2.01 12.9
12/7/2020 4:30:00 AM 2.23 36.014 0.127 7.2 1.88 12.91
12/7/2020 4:45:00 AM 2.22 35.996 0.127 7.2 1.92 12.91
12/7/2020 5:00:00 AM 2.21 35.978 0.127 7.2 1.96 12.92
12/7/2020 5:15:00 AM 2.19 35.942 0.127 7.2 1.94 12.92
12/7/2020 5:30:00 AM 2.15 35.87 0.127 7.2 1.97 12.93
12/7/2020 5:45:00 AM 2.11 35.798 0.127 7.2 1.95 12.93
12/7/2020 6:00:00 AM 2.07 35.726 0.127 7.19 1.89 12.94
12/7/2020 6:15:00 AM 2.03 35.654 0.127 7.18 1.88 12.95
12/7/2020 6:30:00 AM 1.99 35.582 0.127 7.19 1.91 12.96
12/7/2020 6:45:00 AM 1.95 35.51 0.127 7.19 1.94 12.97
12/7/2020 7:00:00 AM 1.92 35.456 0.127 7.19 1.92 12.98
12/7/2020 7:15:00 AM 1.87 35.366 0.127 7.19 1.9 13.01
12/7/2020 7:30:00 AM 1.83 35.294 0.127 7.19 1.87 13.05
12/7/2020 7:45:00 AM 1.79 35.222 0.127 7.2 1.97 13.13
12/7/2020 8:00:00 AM 1.76 35.168 0.127 7.22 1.96 13.25
12/7/2020 8:15:00 AM 1.75 35.15 0.127 7.24 1.9 13.37
12/7/2020 8:30:00 AM 1.74 35.132 0.127 7.28 1.85 13.51
12/7/2020 8:45:00 AM 1.77 35.186 0.127 7.32 1.94 13.66
12/7/2020 9:00:00 AM 1.78 35.204 0.127 7.34 1.92 13.76
12/7/2020 9:15:00 AM 1.79 35.222 0.127 7.37 1.96 13.86
12/7/2020 9:30:00 AM 1.79 35.222 0.127 7.4 1.93 13.94
12/7/2020 9:45:00 AM 1.86 35.348 0.127 7.46 1.9 14.07
12/7/2020 10:00:00 AM 1.92 35.456 0.127 7.49 1.86 14.14
12/7/2020 10:15:00 AM 2 35.6 0.126 7.54 1.88 14.23
12/7/2020 10:30:00 AM 2.03 35.654 0.126 7.57 1.91 14.29
12/7/2020 10:45:00 AM 2.08 35.744 0.126 7.61 1.91 14.35
12/7/2020 11:00:00 AM 2.14 35.852 0.126 7.65 1.88 14.39
12/7/2020 11:15:00 AM 2.2 35.96 0.126 7.69 1.88 14.43
12/7/2020 11:30:00 AM 2.24 36.032 0.126 7.72 1.84 14.45
12/7/2020 11:45:00 AM 2.29 36.122 0.126 7.75 1.86 14.47
12/7/2020 12:00:00 PM 2.34 36.212 0.126 7.78 1.87 14.48
12/7/2020 12:15:00 PM 2.4 36.32 0.125 7.83 1.87 14.51
12/7/2020 12:30:00 PM 2.44 36.392 0.125 7.84 1.86 14.5
12/7/2020 12:45:00 PM 2.48 36.464 0.125 7.87 1.89 14.51
12/7/2020 1:00:00 PM 2.54 36.572 0.125 7.89 1.97 14.51
12/7/2020 1:15:00 PM 2.74 36.932 0.125 7.96 1.9 14.52
12/7/2020 1:30:00 PM 2.86 37.148 0.125 7.97 1.97 14.49
12/7/2020 1:45:00 PM 2.87 37.166 0.125 7.96 1.86 14.46
12/7/2020 2:00:00 PM 2.88 37.184 0.125 7.97 1.9 14.45
12/7/2020 2:15:00 PM 2.92 37.256 0.125 7.98 1.88 14.42
12/7/2020 2:30:00 PM 2.92 37.256 0.125 7.97 1.83 14.37
12/7/2020 2:45:00 PM 2.91 37.238 0.125 7.96 1.83 14.34
12/7/2020 3:00:00 PM 2.88 37.184 0.125 7.94 1.89 14.29
12/7/2020 3:15:00 PM 2.84 37.112 0.125 7.91 1.87 14.23
12/7/2020 3:30:00 PM 2.78 37.004 0.125 7.88 1.82 14.17
12/7/2020 3:45:00 PM 2.72 36.896 0.125 7.82 1.86 14.09
12/7/2020 4:00:00 PM 2.67 36.806 0.125 7.76 1.87 14
12/7/2020 4:15:00 PM 2.61 36.698 0.125 7.7 1.86 13.88
12/7/2020 4:30:00 PM 2.56 36.608 0.125 7.64 1.86 13.75
12/7/2020 4:45:00 PM 2.53 36.554 0.125 7.59 1.82 13.62
12/7/2020 5:00:00 PM 2.5 36.5 0.125 7.54 1.9 13.51
12/7/2020 5:15:00 PM 2.47 36.446 0.126 7.5 1.93 13.42
12/7/2020 5:30:00 PM 2.45 36.41 0.126 7.47 1.9 13.35
12/7/2020 5:45:00 PM 2.42 36.356 0.126 7.43 1.87 13.3
12/7/2020 6:00:00 PM 2.39 36.302 0.126 7.41 1.95 13.25
12/7/2020 6:15:00 PM 2.35 36.23 0.126 7.39 1.84 13.21
12/7/2020 6:30:00 PM 2.31 36.158 0.126 7.38 1.93 13.18
12/7/2020 6:45:00 PM 2.28 36.104 0.126 7.36 1.86 13.15
12/7/2020 7:00:00 PM 2.23 36.014 0.126 7.35 1.92 13.13
12/7/2020 7:15:00 PM 2.18 35.924 0.126 7.33 2.02 13.12
12/7/2020 7:30:00 PM 2.13 35.834 0.126 7.31 2.07 13.1
12/7/2020 7:45:00 PM 2.08 35.744 0.126 7.3 2.03 13.09
12/7/2020 8:00:00 PM 2.04 35.672 0.126 7.29 1.99 13.09
12/7/2020 8:15:00 PM 2.01 35.618 0.126 7.29 2 13.09
12/7/2020 8:30:00 PM 1.98 35.564 0.126 7.28 1.96 13.09
12/7/2020 8:45:00 PM 1.95 35.51 0.126 7.27 1.88 13.09
12/7/2020 9:00:00 PM 1.91 35.438 0.127 7.27 1.91 13.09
12/7/2020 9:15:00 PM 1.88 35.384 0.127 7.26 1.94 13.1
12/7/2020 9:30:00 PM 1.86 35.348 0.127 7.25 1.91 13.1
12/7/2020 9:45:00 PM 1.84 35.312 0.127 7.25 1.87 13.1
12/7/2020 10:00:00 PM 1.83 35.294 0.127 7.25 1.86 13.1
12/7/2020 10:15:00 PM 1.81 35.258 0.127 7.24 1.88 13.1
12/7/2020 10:30:00 PM 1.8 35.24 0.127 7.25 1.91 13.1
12/7/2020 10:45:00 PM 1.78 35.204 0.127 7.24 1.9 13.11
12/7/2020 11:00:00 PM 1.77 35.186 0.127 7.24 1.88 13.1
12/7/2020 11:15:00 PM 1.75 35.15 0.127 7.24 1.92 13.11
12/7/2020 11:30:00 PM 1.74 35.132 0.127 7.24 1.89 13.11
12/7/2020 11:45:00 PM 1.75 35.15 0.127 7.23 1.85 13.11
12/8/2020 12:00:00 AM 1.75 35.15 0.127 7.24 1.89 13.11
12/8/2020 12:15:00 AM 1.76 35.168 0.127 7.24 1.93 13.1
12/8/2020 12:30:00 AM 1.76 35.168 0.127 7.23 1.88 13.1
12/8/2020 12:45:00 AM 1.75 35.15 0.127 7.23 1.84 13.1
12/8/2020 1:00:00 AM 1.75 35.15 0.127 7.23 2.02 13.1
12/8/2020 1:15:00 AM 1.75 35.15 0.126 7.22 2 13.1
12/8/2020 1:30:00 AM 1.75 35.15 0.126 7.23 1.94 13.1
12/8/2020 1:45:00 AM 1.75 35.15 0.126 7.22 1.87 13.1
12/8/2020 2:00:00 AM 1.74 35.132 0.126 7.23 1.9 13.1
12/8/2020 2:15:00 AM 1.74 35.132 0.126 7.23 1.9 13.11
12/8/2020 2:30:00 AM 1.73 35.114 0.126 7.22 1.88 13.11
12/8/2020 2:45:00 AM 1.73 35.114 0.126 7.22 1.87 13.11
12/8/2020 3:00:00 AM 1.72 35.096 0.126 7.22 1.86 13.1
12/8/2020 3:15:00 AM 1.73 35.114 0.126 7.22 1.9 13.11
12/8/2020 3:30:00 AM 1.72 35.096 0.126 7.22 1.92 13.1
12/8/2020 3:45:00 AM 1.72 35.096 0.126 7.22 1.94 13.11
12/8/2020 4:00:00 AM 1.7 35.06 0.126 7.21 1.84 13.11
12/8/2020 4:15:00 AM 1.68 35.024 0.126 7.21 1.89 13.11
12/8/2020 4:30:00 AM 1.66 34.988 0.126 7.21 1.88 13.11
12/8/2020 4:45:00 AM 1.63 34.934 0.126 7.2 1.91 13.12
12/8/2020 5:00:00 AM 1.62 34.916 0.126 7.21 1.87 13.12
12/8/2020 5:15:00 AM 1.6 34.88 0.126 7.21 1.92 13.13
12/8/2020 5:30:00 AM 1.58 34.844 0.126 7.2 1.88 13.14
12/8/2020 5:45:00 AM 1.56 34.808 0.126 7.2 1.89 13.14
12/8/2020 6:00:00 AM 1.53 34.754 0.126 7.19 1.87 13.15
12/8/2020 6:15:00 AM 1.51 34.718 0.126 7.2 1.86 13.16
12/8/2020 6:30:00 AM 1.47 34.646 0.127 7.19 1.83 13.17
12/8/2020 6:45:00 AM 1.42 34.556 0.127 7.19 1.86 13.19
12/8/2020 7:00:00 AM 1.39 34.502 0.127 7.18 1.87 13.2
12/8/2020 7:15:00 AM 1.35 34.43 0.127 7.18 1.86 13.22
12/8/2020 7:30:00 AM 1.31 34.358 0.127 7.2 1.87 13.27
12/8/2020 7:45:00 AM 1.29 34.322 0.127 7.21 1.85 13.37
12/8/2020 8:00:00 AM 1.28 34.304 0.127 7.23 1.9 13.5
12/8/2020 8:15:00 AM 1.26 34.268 0.127 7.26 1.83 13.63
12/8/2020 8:30:00 AM 1.27 34.286 0.127 7.29 1.86 13.77
12/8/2020 8:45:00 AM 1.3 34.34 0.126 7.33 1.87 13.91
12/8/2020 9:00:00 AM 1.32 34.376 0.126 7.37 1.82 14.02
12/8/2020 9:15:00 AM 1.34 34.412 0.126 7.4 1.82 14.12
12/8/2020 9:30:00 AM 1.37 34.466 0.126 7.43 1.85 14.2
12/8/2020 9:45:00 AM 1.41 34.538 0.126 7.46 1.81 14.28
12/8/2020 10:00:00 AM 1.5 34.7 0.126 7.51 1.83 14.36
12/8/2020 10:15:00 AM 1.48 34.664 0.126 7.52 1.84 14.4
12/8/2020 10:30:00 AM 1.52 34.736 0.126 7.56 1.84 14.47
12/8/2020 10:45:00 AM 1.6 34.88 0.126 7.6 1.8 14.52
12/8/2020 11:00:00 AM 1.64 34.952 0.126 7.62 1.81 14.56
12/8/2020 11:15:00 AM 1.67 35.006 0.126 7.65 1.84 14.59
12/8/2020 11:30:00 AM 1.71 35.078 0.125 7.68 1.82 14.61
12/8/2020 11:45:00 AM 1.77 35.186 0.125 7.71 1.84 14.63
12/8/2020 12:00:00 PM 1.93 35.474 0.125 7.77 1.81 14.67
12/8/2020 12:15:00 PM 2.06 35.708 0.125 7.79 1.82 14.67
12/8/2020 12:30:00 PM 2.09 35.762 0.125 7.8 1.82 14.65
12/8/2020 12:45:00 PM 2.13 35.834 0.125 7.81 1.84 14.64
12/8/2020 1:00:00 PM 2.19 35.942 0.125 7.83 1.82 14.63
12/8/2020 1:15:00 PM 2.28 36.104 0.125 7.85 1.84 14.62
12/8/2020 1:30:00 PM 2.35 36.23 0.125 7.86 1.8 14.59
12/8/2020 1:45:00 PM 2.39 36.302 0.125 7.86 1.83 14.57
12/8/2020 2:00:00 PM 2.41 36.338 0.125 7.86 1.81 14.55
12/8/2020 2:15:00 PM 2.43 36.374 0.125 7.86 1.81 14.52
12/8/2020 2:30:00 PM 2.41 36.338 0.125 7.85 1.84 14.47
12/8/2020 2:45:00 PM 2.38 36.284 0.125 7.82 1.82 14.43
12/8/2020 3:00:00 PM 2.34 36.212 0.125 7.8 1.83 14.39
12/8/2020 3:15:00 PM 2.29 36.122 0.125 7.78 1.82 14.34
12/8/2020 3:30:00 PM 2.24 36.032 0.125 7.75 1.8 14.28
12/8/2020 3:45:00 PM 2.2 35.96 0.125 7.7 1.82 14.21
12/8/2020 4:00:00 PM 2.14 35.852 0.125 7.67 1.83 14.13
12/8/2020 4:15:00 PM 2.1 35.78 0.125 7.62 1.8 14.03
12/8/2020 4:30:00 PM 2.06 35.708 0.125 7.58 1.81 13.92
12/8/2020 4:45:00 PM 2.02 35.636 0.125 7.52 1.82 13.81
12/8/2020 5:00:00 PM 2 35.6 0.125 7.48 1.84 13.71
12/8/2020 5:15:00 PM 1.98 35.564 0.125 7.45 1.83 13.62
12/8/2020 5:30:00 PM 1.96 35.528 0.126 7.43 1.83 13.56
12/8/2020 5:45:00 PM 1.94 35.492 0.126 7.41 1.82 13.51
12/8/2020 6:00:00 PM 1.92 35.456 0.126 7.39 1.84 13.47
12/8/2020 6:15:00 PM 1.9 35.42 0.126 7.38 1.82 13.42
12/8/2020 6:30:00 PM 1.87 35.366 0.126 7.37 1.86 13.39
12/8/2020 6:45:00 PM 1.85 35.33 0.126 7.34 1.9 13.36
12/8/2020 7:00:00 PM 1.83 35.294 0.126 7.34 1.91 13.33
12/8/2020 7:15:00 PM 1.81 35.258 0.126 7.32 1.84 13.31
12/8/2020 7:30:00 PM 1.78 35.204 0.126 7.31 1.89 13.29
12/8/2020 7:45:00 PM 1.75 35.15 0.126 7.3 1.82 13.28
12/8/2020 8:00:00 PM 1.73 35.114 0.126 7.29 1.85 13.27
12/8/2020 8:15:00 PM 1.7 35.06 0.126 7.29 1.89 13.26
12/8/2020 8:30:00 PM 1.68 35.024 0.126 7.28 1.9 13.25
12/8/2020 8:45:00 PM 1.65 34.97 0.126 7.27 1.91 13.25
12/8/2020 9:00:00 PM 1.62 34.916 0.126 7.27 1.87 13.25
12/8/2020 9:15:00 PM 1.59 34.862 0.126 7.26 1.9 13.25
12/8/2020 9:30:00 PM 1.57 34.826 0.126 7.26 1.88 13.25
12/8/2020 9:45:00 PM 1.53 34.754 0.126 7.25 1.99 13.25
12/8/2020 10:00:00 PM 1.51 34.718 0.126 7.25 1.96 13.26
12/8/2020 10:15:00 PM 1.49 34.682 0.126 7.24 1.9 13.26
12/8/2020 10:30:00 PM 1.46 34.628 0.126 7.23 1.9 13.27
12/8/2020 10:45:00 PM 1.44 34.592 0.126 7.23 1.9 13.27
12/8/2020 11:00:00 PM 1.42 34.556 0.126 7.24 1.84 13.27
12/8/2020 11:15:00 PM 1.41 34.538 0.126 7.23 1.89 13.27
12/8/2020 11:30:00 PM 1.39 34.502 0.127 7.23 1.9 13.28
12/8/2020 11:45:00 PM 1.37 34.466 0.127 7.23 1.89 13.28
12/9/2020 12:00:00 AM 1.34 34.412 0.126 7.22 1.94 13.29
12/9/2020 12:15:00 AM 1.31 34.358 0.127 7.21 1.92 13.29
12/9/2020 12:30:00 AM 1.27 34.286 0.127 7.22 1.89 13.3
12/9/2020 12:45:00 AM 1.24 34.232 0.127 7.21 1.9 13.31
12/9/2020 1:00:00 AM 1.22 34.196 0.127 7.22 1.9 13.32
12/9/2020 1:15:00 AM 1.21 34.178 0.126 7.21 1.98 13.33
12/9/2020 1:30:00 AM 1.2 34.16 0.126 7.21 1.89 13.33
12/9/2020 1:45:00 AM 1.18 34.124 0.126 7.21 1.86 13.34
12/9/2020 2:00:00 AM 1.16 34.088 0.126 7.2 1.86 13.34
12/9/2020 2:15:00 AM 1.15 34.07 0.126 7.2 1.85 13.35
12/9/2020 2:30:00 AM 1.14 34.052 0.126 7.21 1.83 13.36
12/9/2020 2:45:00 AM 1.13 34.034 0.126 7.2 1.89 13.36
12/9/2020 3:00:00 AM 1.12 34.016 0.126 7.2 1.82 13.36
12/9/2020 3:15:00 AM 1.12 34.016 0.126 7.2 1.88 13.36
12/9/2020 3:30:00 AM 1.11 33.998 0.126 7.2 1.87 13.37
12/9/2020 3:45:00 AM 1.11 33.998 0.126 7.2 1.85 13.37
12/9/2020 4:00:00 AM 1.11 33.998 0.126 7.2 1.86 13.37
12/9/2020 4:15:00 AM 1.11 33.998 0.126 7.21 1.87 13.37
12/9/2020 4:30:00 AM 1.12 34.016 0.126 7.2 1.89 13.37
12/9/2020 4:45:00 AM 1.13 34.034 0.126 7.2 1.88 13.37
12/9/2020 5:00:00 AM 1.13 34.034 0.126 7.2 1.89 13.37
12/9/2020 5:15:00 AM 1.14 34.052 0.126 7.2 1.83 13.36
12/9/2020 5:30:00 AM 1.14 34.052 0.126 7.2 1.88 13.37
12/9/2020 5:45:00 AM 1.15 34.07 0.126 7.2 1.88 13.36
12/9/2020 6:00:00 AM 1.16 34.088 0.126 7.21 1.9 13.36
12/9/2020 6:15:00 AM 1.17 34.106 0.126 7.19 1.83 13.36
12/9/2020 6:30:00 AM 1.18 34.124 0.126 7.2 1.85 13.36
12/9/2020 6:45:00 AM 1.19 34.142 0.126 7.21 1.85 13.36
12/9/2020 7:00:00 AM 1.2 34.16 0.126 7.2 1.88 13.35
12/9/2020 7:15:00 AM 1.21 34.178 0.126 7.2 1.84 13.35
12/9/2020 7:30:00 AM 1.22 34.196 0.126 7.21 1.83 13.35
12/9/2020 7:45:00 AM 1.24 34.232 0.126 7.21 1.83 13.36
12/9/2020 8:00:00 AM 1.14 34.052 0.126 7.19 1.83 13.37
12/9/2020 8:15:00 AM 1.11 33.998 0.126 7.19 1.87 13.41
12/9/2020 8:30:00 AM 1.12 34.016 0.126 7.21 1.87 13.45
12/9/2020 8:45:00 AM 1.04 33.872 0.126 7.21 1.87 13.47
12/9/2020 9:00:00 AM 1.08 33.944 0.126 7.23 1.88 13.55
12/9/2020 9:15:00 AM 1.06 33.908 0.126 7.24 1.84 13.61
12/9/2020 9:30:00 AM 1.1 33.98 0.126 7.27 1.84 13.7
12/9/2020 9:45:00 AM 1.11 33.998 0.126 7.28 1.89 13.76
12/9/2020 10:00:00 AM 1.13 34.034 0.126 7.31 1.85 13.85
12/9/2020 10:15:00 AM 1.11 33.998 0.126 7.33 1.9 13.99
12/9/2020 10:30:00 AM 1.12 34.016 0.126 7.35 1.85 14.08
12/9/2020 10:45:00 AM 1.1 33.98 0.126 7.37 1.92 14.16
12/9/2020 11:00:00 AM 1.09 33.962 0.125 7.4 1.93 14.23
12/9/2020 11:15:00 AM 1.06 33.908 0.125 7.42 1.87 14.3
12/9/2020 11:30:00 AM 1.09 33.962 0.125 7.45 1.87 14.36
12/9/2020 11:45:00 AM 1.14 34.052 0.125 7.48 1.89 14.41
12/9/2020 12:00:00 PM 1.17 34.106 0.125 7.5 1.89 14.43
12/9/2020 12:15:00 PM 1.2 34.16 0.125 7.52 1.87 14.47
12/9/2020 12:30:00 PM 1.22 34.196 0.125 7.53 1.82 14.47
12/9/2020 12:45:00 PM 1.24 34.232 0.125 7.54 1.84 14.46
12/9/2020 1:00:00 PM 1.26 34.268 0.125 7.55 1.92 14.47
12/9/2020 1:15:00 PM 1.29 34.322 0.125 7.57 1.89 14.5
12/9/2020 1:30:00 PM 1.32 34.376 0.125 7.58 1.87 14.51
12/9/2020 1:45:00 PM 1.36 34.448 0.125 7.6 1.88 14.53
12/9/2020 2:00:00 PM 1.39 34.502 0.125 7.62 1.85 14.54
12/9/2020 2:15:00 PM 1.43 34.574 0.125 7.63 1.84 14.52
12/9/2020 2:30:00 PM 1.44 34.592 0.125 7.61 1.79 14.47
12/9/2020 2:45:00 PM 1.46 34.628 0.125 7.59 1.89 14.39
12/9/2020 3:00:00 PM 1.48 34.664 0.125 7.58 1.83 14.36
12/9/2020 3:15:00 PM 1.49 34.682 0.125 7.57 1.86 14.3
12/9/2020 3:30:00 PM 1.51 34.718 0.125 7.55 1.82 14.25
12/9/2020 3:45:00 PM 1.52 34.736 0.125 7.53 1.8 14.17
12/9/2020 4:00:00 PM 1.53 34.754 0.125 7.51 1.81 14.11
12/9/2020 4:15:00 PM 1.54 34.772 0.125 7.49 1.81 14.03
12/9/2020 4:30:00 PM 1.55 34.79 0.125 7.47 1.84 13.95
12/9/2020 4:45:00 PM 1.56 34.808 0.125 7.44 1.83 13.87
12/9/2020 5:00:00 PM 1.56 34.808 0.125 7.42 1.84 13.79
12/9/2020 5:15:00 PM 1.57 34.826 0.125 7.4 1.81 13.73
12/9/2020 5:30:00 PM 1.58 34.844 0.125 7.38 1.83 13.67
12/9/2020 5:45:00 PM 1.59 34.862 0.125 7.36 1.86 13.62
12/9/2020 6:00:00 PM 1.59 34.862 0.125 7.35 1.85 13.58
12/9/2020 6:15:00 PM 1.6 34.88 0.125 7.34 1.88 13.54
12/9/2020 6:30:00 PM 1.61 34.898 0.125 7.33 1.85 13.5
12/9/2020 6:45:00 PM 1.61 34.898 0.125 7.32 1.79 13.47
12/9/2020 7:00:00 PM 1.62 34.916 0.125 7.31 1.84 13.44
12/9/2020 7:15:00 PM 1.63 34.934 0.125 7.3 1.86 13.41
12/9/2020 7:30:00 PM 1.64 34.952 0.125 7.29 1.86 13.39
12/9/2020 7:45:00 PM 1.65 34.97 0.125 7.28 1.83 13.37
12/9/2020 8:00:00 PM 1.66 34.988 0.125 7.28 1.81 13.35
12/9/2020 8:15:00 PM 1.67 35.006 0.125 7.27 1.8 13.33
12/9/2020 8:30:00 PM 1.68 35.024 0.125 7.27 1.8 13.31
12/9/2020 8:45:00 PM 1.69 35.042 0.125 7.26 1.85 13.3
12/9/2020 9:00:00 PM 1.7 35.06 0.125 7.26 1.81 13.29
12/9/2020 9:15:00 PM 1.7 35.06 0.125 7.26 1.89 13.27
12/9/2020 9:30:00 PM 1.71 35.078 0.125 7.25 1.81 13.27
12/9/2020 9:45:00 PM 1.72 35.096 0.125 7.25 1.82 13.25
12/9/2020 10:00:00 PM 1.73 35.114 0.125 7.24 1.84 13.24
12/9/2020 10:15:00 PM 1.74 35.132 0.125 7.24 1.83 13.23
12/9/2020 10:30:00 PM 1.75 35.15 0.125 7.24 1.92 13.22
12/9/2020 10:45:00 PM 1.76 35.168 0.125 7.23 1.85 13.21
12/9/2020 11:00:00 PM 1.76 35.168 0.125 7.23 1.89 13.21
12/9/2020 11:15:00 PM 1.77 35.186 0.125 7.22 1.84 13.2
12/9/2020 11:30:00 PM 1.78 35.204 0.125 7.22 1.91 13.19
12/9/2020 11:45:00 PM 1.78 35.204 0.125 7.22 1.86 13.19
12/10/2020 12:00:00 AM 1.79 35.222 0.125 7.22 1.86 13.18
12/10/2020 12:15:00 AM 1.8 35.24 0.125 7.22 1.85 13.17
12/10/2020 12:30:00 AM 1.8 35.24 0.125 7.22 1.85 13.17
12/10/2020 12:45:00 AM 1.81 35.258 0.125 7.21 1.9 13.16
12/10/2020 1:00:00 AM 1.81 35.258 0.125 7.21 1.86 13.16
12/10/2020 1:15:00 AM 1.82 35.276 0.125 7.21 1.88 13.16
12/10/2020 1:30:00 AM 1.82 35.276 0.125 7.21 1.92 13.15
12/10/2020 1:45:00 AM 1.83 35.294 0.125 7.2 1.92 13.15
12/10/2020 2:00:00 AM 1.83 35.294 0.125 7.2 1.87 13.15
12/10/2020 2:15:00 AM 1.84 35.312 0.125 7.2 1.85 13.15
12/10/2020 2:30:00 AM 1.84 35.312 0.125 7.2 1.87 13.14
12/10/2020 2:45:00 AM 1.85 35.33 0.125 7.2 1.87 13.14
12/10/2020 3:00:00 AM 1.86 35.348 0.125 7.2 1.88 13.14
12/10/2020 3:15:00 AM 1.86 35.348 0.125 7.19 1.84 13.14
12/10/2020 3:30:00 AM 1.86 35.348 0.125 7.2 1.87 13.14
12/10/2020 3:45:00 AM 1.86 35.348 0.125 7.19 1.85 13.14
12/10/2020 4:00:00 AM 1.87 35.366 0.125 7.19 1.85 13.14
12/10/2020 4:15:00 AM 1.88 35.384 0.125 7.19 1.86 13.13
12/10/2020 4:30:00 AM 1.87 35.366 0.125 7.19 1.93 13.13
12/10/2020 4:45:00 AM 1.84 35.312 0.125 7.18 1.86 13.13
12/10/2020 5:00:00 AM 1.83 35.294 0.125 7.18 1.91 13.14
12/10/2020 5:15:00 AM 1.81 35.258 0.125 7.18 1.86 13.14
12/10/2020 5:30:00 AM 1.81 35.258 0.125 7.18 1.87 13.14
12/10/2020 5:45:00 AM 1.8 35.24 0.125 7.18 1.86 13.14
12/10/2020 6:00:00 AM 1.79 35.222 0.125 7.18 1.94 13.15
12/10/2020 6:15:00 AM 1.78 35.204 0.125 7.17 1.88 13.15
12/10/2020 6:30:00 AM 1.76 35.168 0.125 7.17 1.92 13.16
12/10/2020 6:45:00 AM 1.75 35.15 0.125 7.17 1.94 13.17
12/10/2020 7:00:00 AM 1.74 35.132 0.125 7.17 1.98 13.16
12/10/2020 7:15:00 AM 1.75 35.15 0.125 7.17 1.96 13.18
12/10/2020 7:30:00 AM 1.75 35.15 0.125 7.18 1.89 13.2
12/10/2020 7:45:00 AM 1.76 35.168 0.125 7.19 1.9 13.26
12/10/2020 8:00:00 AM 1.77 35.186 0.125 7.2 1.88 13.35
12/10/2020 8:15:00 AM 1.79 35.222 0.125 7.23 1.91 13.45
12/10/2020 8:30:00 AM 1.82 35.276 0.125 7.25 1.79 13.56
12/10/2020 8:45:00 AM 1.84 35.312 0.125 7.28 1.86 13.68
12/10/2020 9:00:00 AM 1.88 35.384 0.125 7.31 1.86 13.78
12/10/2020 9:15:00 AM 1.92 35.456 0.125 7.33 1.83 13.89
12/10/2020 9:30:00 AM 1.96 35.528 0.124 7.36 1.84 13.98
12/10/2020 9:45:00 AM 2.02 35.636 0.124 7.4 1.84 14.09
12/10/2020 10:00:00 AM 2.07 35.726 0.124 7.43 1.82 14.18
12/10/2020 10:15:00 AM 2.13 35.834 0.124 7.47 1.82 14.27
12/10/2020 10:30:00 AM 2.21 35.978 0.124 7.51 1.87 14.35
12/10/2020 10:45:00 AM 2.28 36.104 0.124 7.55 1.78 14.4
12/10/2020 11:00:00 AM 2.34 36.212 0.124 7.59 1.88 14.46
12/10/2020 11:15:00 AM 2.42 36.356 0.124 7.63 1.8 14.51
12/10/2020 11:30:00 AM 2.51 36.518 0.124 7.68 1.81 14.55
12/10/2020 11:45:00 AM 2.6 36.68 0.124 7.72 1.79 14.59
12/10/2020 12:00:00 PM 2.72 36.896 0.124 7.77 1.79 14.61
12/10/2020 12:15:00 PM 2.8 37.04 0.123 7.8 1.8 14.61
12/10/2020 12:30:00 PM 2.89 37.202 0.123 7.84 1.79 14.61
12/10/2020 12:45:00 PM 2.93 37.274 0.123 7.85 1.8 14.6
12/10/2020 1:00:00 PM 2.98 37.364 0.123 7.88 1.82 14.58
12/10/2020 1:15:00 PM 2.97 37.346 0.123 7.87 1.8 14.55
12/10/2020 1:30:00 PM 3.02 37.436 0.123 7.92 1.82 14.54
12/10/2020 1:45:00 PM 3.16 37.688 0.123 7.96 1.82 14.55
12/10/2020 2:00:00 PM 3.29 37.922 0.123 7.98 1.9 14.55
12/10/2020 2:15:00 PM 3.39 38.102 0.123 8.01 1.82 14.52
12/10/2020 2:30:00 PM 3.42 38.156 0.123 7.99 1.79 14.47
12/10/2020 2:45:00 PM 3.42 38.156 0.123 7.98 1.77 14.41
12/10/2020 3:00:00 PM 3.43 38.174 0.123 7.97 1.78 14.36
12/10/2020 3:15:00 PM 3.41 38.138 0.123 7.95 1.81 14.29
12/10/2020 3:30:00 PM 3.39 38.102 0.123 7.91 1.77 14.22
12/10/2020 3:45:00 PM 3.36 38.048 0.123 7.87 1.81 14.13
12/10/2020 4:00:00 PM 3.32 37.976 0.123 7.81 1.82 14.02
12/10/2020 4:15:00 PM 3.29 37.922 0.123 7.75 1.8 13.9
12/10/2020 4:30:00 PM 3.25 37.85 0.123 7.68 1.81 13.75
12/10/2020 4:45:00 PM 3.22 37.796 0.123 7.61 1.84 13.61
12/10/2020 5:00:00 PM 3.19 37.742 0.124 7.55 1.79 13.48
12/10/2020 5:15:00 PM 3.17 37.706 0.124 7.51 1.88 13.38
12/10/2020 5:30:00 PM 3.16 37.688 0.124 7.47 1.86 13.29
12/10/2020 5:45:00 PM 3.14 37.652 0.124 7.44 1.88 13.22
12/10/2020 6:00:00 PM 3.12 37.616 0.124 7.41 1.87 13.17
12/10/2020 6:15:00 PM 3.1 37.58 0.124 7.4 1.87 13.12
12/10/2020 6:30:00 PM 3.08 37.544 0.124 7.38 1.87 13.08
12/10/2020 6:45:00 PM 3.05 37.49 0.124 7.36 1.87 13.05
12/10/2020 7:00:00 PM 3.01 37.418 0.124 7.34 1.87 13.02
12/10/2020 7:15:00 PM 2.98 37.364 0.124 7.33 1.85 13
12/10/2020 7:30:00 PM 2.94 37.292 0.124 7.31 1.84 12.98
12/10/2020 7:45:00 PM 2.89 37.202 0.124 7.29 1.9 12.97
12/10/2020 8:00:00 PM 2.85 37.13 0.124 7.28 1.86 12.96
12/10/2020 8:15:00 PM 2.8 37.04 0.125 7.28 1.86 12.95
12/10/2020 8:30:00 PM 2.75 36.95 0.125 7.27 1.85 12.95
12/10/2020 8:45:00 PM 2.7 36.86 0.125 7.25 1.86 12.95
12/10/2020 9:00:00 PM 2.66 36.788 0.125 7.25 1.85 12.95
12/10/2020 9:15:00 PM 2.61 36.698 0.125 7.24 1.93 12.95
12/10/2020 9:30:00 PM 2.56 36.608 0.125 7.23 1.97 12.96
12/10/2020 9:45:00 PM 2.51 36.518 0.125 7.23 1.93 12.96
12/10/2020 10:00:00 PM 2.47 36.446 0.125 7.22 1.95 12.97
12/10/2020 10:15:00 PM 2.42 36.356 0.125 7.23 1.92 12.98
12/10/2020 10:30:00 PM 2.37 36.266 0.125 7.21 1.93 12.99
12/10/2020 10:45:00 PM 2.32 36.176 0.125 7.22 1.95 13
12/10/2020 11:00:00 PM 2.28 36.104 0.125 7.2 1.97 13.01
12/10/2020 11:15:00 PM 2.24 36.032 0.125 7.21 1.94 13.02
12/10/2020 11:30:00 PM 2.19 35.942 0.125 7.2 1.95 13.03
12/10/2020 11:45:00 PM 2.15 35.87 0.125 7.19 1.9 13.05
12/11/2020 12:00:00 AM 2.11 35.798 0.125 7.2 1.91 13.06
12/11/2020 12:15:00 AM 2.07 35.726 0.125 7.2 1.89 13.07
12/11/2020 12:30:00 AM 2.02 35.636 0.125 7.2 1.87 13.08
12/11/2020 12:45:00 AM 1.98 35.564 0.125 7.19 1.87 13.09
12/11/2020 1:00:00 AM 1.94 35.492 0.125 7.19 1.93 13.1
12/11/2020 1:15:00 AM 1.9 35.42 0.125 7.19 1.95 13.12
12/11/2020 1:30:00 AM 1.86 35.348 0.125 7.19 2 13.13
12/11/2020 1:45:00 AM 1.82 35.276 0.125 7.18 2 13.14
12/11/2020 2:00:00 AM 1.78 35.204 0.126 7.18 1.92 13.16
12/11/2020 2:15:00 AM 1.75 35.15 0.126 7.18 1.93 13.17
12/11/2020 2:30:00 AM 1.72 35.096 0.126 7.18 1.97 13.18
12/11/2020 2:45:00 AM 1.68 35.024 0.126 7.17 1.89 13.19
12/11/2020 3:00:00 AM 1.65 34.97 0.126 7.18 1.89 13.21
12/11/2020 3:15:00 AM 1.61 34.898 0.126 7.17 1.9 13.22
12/11/2020 3:30:00 AM 1.58 34.844 0.126 7.17 1.89 13.23
12/11/2020 3:45:00 AM 1.56 34.808 0.126 7.17 1.92 13.25
12/11/2020 4:00:00 AM 1.53 34.754 0.126 7.17 1.85 13.26
12/11/2020 4:15:00 AM 1.51 34.718 0.126 7.17 1.87 13.26
12/11/2020 4:30:00 AM 1.49 34.682 0.126 7.17 1.91 13.27
12/11/2020 4:45:00 AM 1.47 34.646 0.126 7.17 1.87 13.28
12/11/2020 5:00:00 AM 1.45 34.61 0.126 7.17 1.85 13.29
12/11/2020 5:15:00 AM 1.43 34.574 0.125 7.17 1.9 13.3
12/11/2020 5:30:00 AM 1.41 34.538 0.125 7.17 1.88 13.3
12/11/2020 5:45:00 AM 1.39 34.502 0.125 7.17 1.89 13.31
12/11/2020 6:00:00 AM 1.37 34.466 0.125 7.17 1.89 13.32
12/11/2020 6:15:00 AM 1.35 34.43 0.125 7.17 1.89 13.33
12/11/2020 6:30:00 AM 1.33 34.394 0.125 7.17 1.98 13.34
12/11/2020 6:45:00 AM 1.31 34.358 0.125 7.17 1.97 13.35
12/11/2020 7:00:00 AM 1.29 34.322 0.125 7.17 1.94 13.35
12/11/2020 7:15:00 AM 1.27 34.286 0.125 7.17 1.95 13.36
12/11/2020 7:30:00 AM 1.26 34.268 0.125 7.17 1.88 13.41
12/11/2020 7:45:00 AM 1.25 34.25 0.125 7.18 1.89 13.48
12/11/2020 8:00:00 AM 1.23 34.214 0.125 7.2 1.9 13.59
12/11/2020 8:15:00 AM 1.23 34.214 0.125 7.23 1.91 13.7
12/11/2020 8:30:00 AM 1.23 34.214 0.125 7.25 1.9 13.82
12/11/2020 8:45:00 AM 1.25 34.25 0.125 7.28 1.85 13.96
12/11/2020 9:00:00 AM 1.29 34.322 0.125 7.31 1.84 14.08
12/11/2020 9:15:00 AM 1.33 34.394 0.125 7.35 1.89 14.19
12/11/2020 9:30:00 AM 1.39 34.502 0.125 7.39 1.92 14.28
12/11/2020 9:45:00 AM 1.45 34.61 0.125 7.42 1.85 14.37
12/11/2020 10:00:00 AM 1.53 34.754 0.124 7.46 1.83 14.44
12/11/2020 10:15:00 AM 1.62 34.916 0.124 7.49 1.85 14.5
12/11/2020 10:30:00 AM 1.72 35.096 0.124 7.53 1.84 14.57
12/11/2020 10:45:00 AM 1.83 35.294 0.124 7.57 1.85 14.63
12/11/2020 11:00:00 AM 1.94 35.492 0.124 7.62 1.85 14.67
12/11/2020 11:15:00 AM 2.06 35.708 0.124 7.65 1.82 14.72
12/11/2020 11:30:00 AM 2.17 35.906 0.124 7.7 1.81 14.76
12/11/2020 11:45:00 AM 2.31 36.158 0.123 7.74 1.82 14.79
12/11/2020 12:00:00 PM 2.42 36.356 0.123 7.77 1.81 14.78
12/11/2020 12:15:00 PM 2.53 36.554 0.123 7.8 1.82 14.79
12/11/2020 12:30:00 PM 2.65 36.77 0.123 7.84 1.83 14.78
12/11/2020 12:45:00 PM 2.77 36.986 0.123 7.87 1.83 14.76
12/11/2020 1:00:00 PM 2.89 37.202 0.123 7.91 1.81 14.75
12/11/2020 1:15:00 PM 3 37.4 0.123 7.93 1.82 14.74
12/11/2020 1:30:00 PM 3.07 37.526 0.123 7.95 1.79 14.73
12/11/2020 1:45:00 PM 3.13 37.634 0.123 7.96 1.85 14.7
12/11/2020 2:00:00 PM 3.19 37.742 0.123 7.99 1.85 14.69
12/11/2020 2:15:00 PM 3.25 37.85 0.123 8.01 1.79 14.67
12/11/2020 2:30:00 PM 3.28 37.904 0.123 8 1.8 14.62
12/11/2020 2:45:00 PM 3.28 37.904 0.123 8 1.81 14.6
12/11/2020 3:00:00 PM 3.29 37.922 0.123 8.01 1.8 14.56
12/11/2020 3:15:00 PM 3.28 37.904 0.123 7.99 1.86 14.5
12/11/2020 3:30:00 PM 3.25 37.85 0.123 7.95 1.89 14.43
12/11/2020 3:45:00 PM 3.22 37.796 0.123 7.92 1.82 14.35
12/11/2020 4:00:00 PM 3.16 37.688 0.123 7.86 1.81 14.23
12/11/2020 4:15:00 PM 3.12 37.616 0.123 7.79 1.78 14.11
12/11/2020 4:30:00 PM 3.06 37.508 0.123 7.71 1.83 13.95
12/11/2020 4:45:00 PM 3.02 37.436 0.123 7.63 1.81 13.82
12/11/2020 5:00:00 PM 2.98 37.364 0.123 7.57 1.78 13.68
12/11/2020 5:15:00 PM 2.95 37.31 0.124 7.51 1.8 13.58
12/11/2020 5:30:00 PM 2.93 37.274 0.124 7.48 1.8 13.48
12/11/2020 5:45:00 PM 2.91 37.238 0.124 7.46 1.79 13.41
12/11/2020 6:00:00 PM 2.89 37.202 0.124 7.42 1.89 13.34
12/11/2020 6:15:00 PM 2.87 37.166 0.124 7.39 1.92 13.28
12/11/2020 6:30:00 PM 2.85 37.13 0.124 7.37 1.87 13.23
12/11/2020 6:45:00 PM 2.82 37.076 0.124 7.36 1.9 13.19
12/11/2020 7:00:00 PM 2.8 37.04 0.124 7.33 1.83 13.15
12/11/2020 7:15:00 PM 2.77 36.986 0.124 7.32 1.85 13.12
12/11/2020 7:30:00 PM 2.74 36.932 0.124 7.3 1.8 13.09
12/11/2020 7:45:00 PM 2.71 36.878 0.124 7.3 1.8 13.07
12/11/2020 8:00:00 PM 2.69 36.842 0.124 7.28 1.81 13.05
12/11/2020 8:15:00 PM 2.66 36.788 0.124 7.27 1.79 13.03
12/11/2020 8:30:00 PM 2.63 36.734 0.124 7.26 1.85 13.02
12/11/2020 8:45:00 PM 2.6 36.68 0.125 7.26 1.83 13.01
12/11/2020 9:00:00 PM 2.57 36.626 0.125 7.25 1.82 13
12/11/2020 9:15:00 PM 2.55 36.59 0.125 7.24 1.81 12.99
12/11/2020 9:30:00 PM 2.53 36.554 0.125 7.24 1.8 12.98
12/11/2020 9:45:00 PM 2.5 36.5 0.125 7.23 1.83 12.98
12/11/2020 10:00:00 PM 2.49 36.482 0.125 7.23 1.83 12.97
12/11/2020 10:15:00 PM 2.46 36.428 0.125 7.22 1.79 12.97
12/11/2020 10:30:00 PM 2.44 36.392 0.125 7.22 1.83 12.97
12/11/2020 10:45:00 PM 2.42 36.356 0.125 7.21 1.87 12.97
12/11/2020 11:00:00 PM 2.39 36.302 0.125 7.21 1.84 12.97
12/11/2020 11:15:00 PM 2.36 36.248 0.125 7.2 1.89 12.97
12/11/2020 11:30:00 PM 2.34 36.212 0.125 7.2 1.85 12.97
12/11/2020 11:45:00 PM 2.32 36.176 0.125 7.2 1.86 12.97
12/12/2020 12:00:00 AM 2.3 36.14 0.125 7.19 1.84 12.97
12/12/2020 12:15:00 AM 2.28 36.104 0.125 7.2 1.85 12.97
12/12/2020 12:30:00 AM 2.27 36.086 0.125 7.19 1.83 12.98
12/12/2020 12:45:00 AM 2.24 36.032 0.125 7.18 1.82 12.98
12/12/2020 1:00:00 AM 2.22 35.996 0.125 7.19 1.9 12.99
12/12/2020 1:15:00 AM 2.19 35.942 0.125 7.18 1.81 12.99
12/12/2020 1:30:00 AM 2.17 35.906 0.125 7.18 1.83 13
12/12/2020 1:45:00 AM 2.15 35.87 0.125 7.18 1.86 13
12/12/2020 2:00:00 AM 2.13 35.834 0.125 7.17 1.84 13.01
12/12/2020 2:15:00 AM 2.12 35.816 0.125 7.17 1.87 13.01
12/12/2020 2:30:00 AM 2.1 35.78 0.125 7.17 1.84 13.02
12/12/2020 2:45:00 AM 2.1 35.78 0.125 7.17 1.87 13.02
12/12/2020 3:00:00 AM 2.09 35.762 0.125 7.17 1.89 13.02
12/12/2020 3:15:00 AM 2.08 35.744 0.125 7.16 1.85 13.03
12/12/2020 3:30:00 AM 2.05 35.69 0.125 7.16 1.84 13.04
12/12/2020 3:45:00 AM 2.03 35.654 0.125 7.16 1.83 13.04
12/12/2020 4:00:00 AM 2.02 35.636 0.125 7.16 1.86 13.05
12/12/2020 4:15:00 AM 2 35.6 0.125 7.15 1.87 13.05
12/12/2020 4:30:00 AM 2 35.6 0.125 7.16 1.86 13.05
12/12/2020 4:45:00 AM 1.98 35.564 0.125 7.16 1.85 13.06
12/12/2020 5:00:00 AM 1.98 35.564 0.125 7.16 1.86 13.06
12/12/2020 5:15:00 AM 1.96 35.528 0.125 7.15 1.87 13.06
12/12/2020 5:30:00 AM 1.93 35.474 0.125 7.15 1.82 13.07
12/12/2020 5:45:00 AM 1.91 35.438 0.125 7.14 2.04 13.07
12/12/2020 6:00:00 AM 1.89 35.402 0.125 7.15 1.88 13.07
12/12/2020 6:15:00 AM 1.89 35.402 0.125 7.16 1.84 13.08
12/12/2020 6:30:00 AM 1.88 35.384 0.125 7.15 1.9 13.08
12/12/2020 6:45:00 AM 1.88 35.384 0.125 7.15 1.85 13.08
12/12/2020 7:00:00 AM 1.89 35.402 0.125 7.16 1.86 13.08
12/12/2020 7:15:00 AM 1.9 35.42 0.125 7.16 1.89 13.08
12/12/2020 7:30:00 AM 1.9 35.42 0.125 7.15 1.84 13.09
12/12/2020 7:45:00 AM 1.91 35.438 0.125 7.16 1.8 13.13
12/12/2020 8:00:00 AM 1.91 35.438 0.125 7.17 1.78 13.19
12/12/2020 8:15:00 AM 1.92 35.456 0.125 7.19 1.85 13.3
12/12/2020 8:30:00 AM 1.94 35.492 0.125 7.21 1.86 13.38
12/12/2020 8:45:00 AM 1.97 35.546 0.125 7.24 1.83 13.55
12/12/2020 9:00:00 AM 2.01 35.618 0.125 7.28 1.78 13.7
12/12/2020 9:15:00 AM 2.05 35.69 0.125 7.31 1.84 13.81
12/12/2020 9:30:00 AM 2.1 35.78 0.125 7.35 1.82 13.94
12/12/2020 9:45:00 AM 2.15 35.87 0.125 7.39 1.85 14.02
12/12/2020 10:00:00 AM 2.2 35.96 0.125 7.41 1.8 14.11
12/12/2020 10:15:00 AM 2.28 36.104 0.125 7.47 1.84 14.22
12/12/2020 10:30:00 AM 2.36 36.248 0.124 7.5 1.88 14.28
12/12/2020 10:45:00 AM 2.41 36.338 0.124 7.52 1.82 14.31
12/12/2020 11:00:00 AM 2.46 36.428 0.124 7.55 1.82 14.35
12/12/2020 11:15:00 AM 2.52 36.536 0.124 7.6 1.83 14.39
12/12/2020 11:30:00 AM 2.6 36.68 0.124 7.64 1.81 14.44
12/12/2020 11:45:00 AM 2.7 36.86 0.124 7.69 1.77 14.49
12/12/2020 12:00:00 PM 2.8 37.04 0.124 7.74 1.79 14.52
12/12/2020 12:15:00 PM 2.87 37.166 0.124 7.76 1.84 14.53
12/12/2020 12:30:00 PM 2.95 37.31 0.124 7.79 1.8 14.54
12/12/2020 12:45:00 PM 3.02 37.436 0.124 7.82 1.77 14.55
12/12/2020 1:00:00 PM 3.11 37.598 0.124 7.88 1.77 14.58
12/12/2020 1:15:00 PM 3.2 37.76 0.123 7.92 1.79 14.58
12/12/2020 1:30:00 PM 3.3 37.94 0.123 7.95 1.85 14.57
12/12/2020 1:45:00 PM 3.41 38.138 0.123 8 1.79 14.57
12/12/2020 2:00:00 PM 3.48 38.264 0.123 8 1.8 14.51
12/12/2020 2:15:00 PM 3.56 38.408 0.123 8.01 1.8 14.49
12/12/2020 2:30:00 PM 3.63 38.534 0.123 8.04 1.82 14.47
12/12/2020 2:45:00 PM 3.65 38.57 0.123 7.99 1.83 14.34
12/12/2020 3:00:00 PM 3.7 38.66 0.123 8 1.81 14.33
12/12/2020 3:15:00 PM 3.75 38.75 0.123 8 1.81 14.25
12/12/2020 3:30:00 PM 3.81 38.858 0.123 7.98 1.79 14.21
12/12/2020 3:45:00 PM 3.86 38.948 0.123 8.01 1.78 14.2
12/12/2020 4:00:00 PM 3.88 38.984 0.123 7.94 1.77 14.04
12/12/2020 4:15:00 PM 3.9 39.02 0.123 7.88 1.83 13.93
12/12/2020 4:30:00 PM 3.91 39.038 0.123 7.79 1.85 13.75
12/12/2020 4:45:00 PM 3.93 39.074 0.123 7.72 1.78 13.57
12/12/2020 5:00:00 PM 3.93 39.074 0.124 7.65 1.83 13.42
12/12/2020 5:15:00 PM 3.95 39.11 0.124 7.59 1.9 13.29
12/12/2020 5:30:00 PM 3.96 39.128 0.124 7.55 1.89 13.18
12/12/2020 5:45:00 PM 3.98 39.164 0.124 7.52 1.84 13.08
12/12/2020 6:00:00 PM 3.99 39.182 0.124 7.48 1.89 13
12/12/2020 6:15:00 PM 4 39.2 0.124 7.45 1.92 12.92
12/12/2020 6:30:00 PM 4.01 39.218 0.124 7.43 1.91 12.85
12/12/2020 6:45:00 PM 4.03 39.254 0.124 7.41 2.58 12.78
12/12/2020 7:00:00 PM 4.04 39.272 0.124 7.38 1.9 12.72
12/12/2020 7:15:00 PM 4.05 39.29 0.124 7.36 1.87 12.66
12/12/2020 7:30:00 PM 4.06 39.308 0.124 7.34 1.85 12.62
12/12/2020 7:45:00 PM 4.08 39.344 0.124 7.33 1.84 12.58
12/12/2020 8:00:00 PM 4.09 39.362 0.124 7.31 1.86 12.54
12/12/2020 8:15:00 PM 4.1 39.38 0.125 7.3 1.88 12.51
12/12/2020 8:30:00 PM 4.11 39.398 0.125 7.29 1.84 12.48
12/12/2020 8:45:00 PM 4.13 39.434 0.125 7.28 1.86 12.45
12/12/2020 9:00:00 PM 4.14 39.452 0.125 7.27 1.89 12.43
12/12/2020 9:15:00 PM 4.15 39.47 0.125 7.27 1.82 12.41
12/12/2020 9:30:00 PM 4.16 39.488 0.125 7.25 1.83 12.39
12/12/2020 9:45:00 PM 4.17 39.506 0.125 7.25 1.81 12.37
12/12/2020 10:00:00 PM 4.18 39.524 0.125 7.24 1.86 12.35
12/12/2020 10:15:00 PM 4.19 39.542 0.125 7.23 1.86 12.33
12/12/2020 10:30:00 PM 4.2 39.56 0.125 7.23 1.81 12.32
12/12/2020 10:45:00 PM 4.21 39.578 0.125 7.22 1.93 12.3
12/12/2020 11:00:00 PM 4.22 39.596 0.125 7.22 1.82 12.29
12/12/2020 11:15:00 PM 4.23 39.614 0.125 7.21 1.85 12.28
12/12/2020 11:30:00 PM 4.23 39.614 0.125 7.21 1.84 12.27
12/12/2020 11:45:00 PM 4.24 39.632 0.125 7.21 1.85 12.25
12/13/2020 12:00:00 AM 4.22 39.596 0.125 7.2 1.86 12.24
12/13/2020 12:15:00 AM 4.21 39.578 0.125 7.19 1.88 12.24
12/13/2020 12:30:00 AM 4.21 39.578 0.125 7.19 1.86 12.23
12/13/2020 12:45:00 AM 4.19 39.542 0.125 7.17 1.87 12.22
12/13/2020 1:00:00 AM 4.17 39.506 0.125 7.17 1.85 12.22
12/13/2020 1:15:00 AM 4.15 39.47 0.125 7.16 1.86 12.22
12/13/2020 1:30:00 AM 4.13 39.434 0.125 7.17 1.85 12.22
12/13/2020 1:45:00 AM 4.13 39.434 0.125 7.17 1.86 12.22
12/13/2020 2:00:00 AM 4.13 39.434 0.125 7.17 1.84 12.21
12/13/2020 2:15:00 AM 4.12 39.416 0.125 7.16 1.87 12.21
12/13/2020 2:30:00 AM 4.11 39.398 0.125 7.16 1.88 12.21
12/13/2020 2:45:00 AM 4.11 39.398 0.125 7.16 1.85 12.21
12/13/2020 3:00:00 AM 4.1 39.38 0.125 7.16 1.82 12.21
12/13/2020 3:15:00 AM 4.09 39.362 0.125 7.16 1.88 12.21
12/13/2020 3:30:00 AM 4.09 39.362 0.125 7.16 1.92 12.21
12/13/2020 3:45:00 AM 4.08 39.344 0.125 7.16 1.86 12.21
12/13/2020 4:00:00 AM 4.07 39.326 0.125 7.16 1.82 12.21
12/13/2020 4:15:00 AM 4.05 39.29 0.125 7.15 1.88 12.21
12/13/2020 4:30:00 AM 4.04 39.272 0.125 7.14 1.84 12.21
12/13/2020 4:45:00 AM 4.03 39.254 0.125 7.15 1.84 12.22
12/13/2020 5:00:00 AM 4.02 39.236 0.125 7.15 1.81 12.22
12/13/2020 5:15:00 AM 4.01 39.218 0.125 7.15 1.83 12.22
12/13/2020 5:30:00 AM 4.01 39.218 0.125 7.14 1.84 12.22
12/13/2020 5:45:00 AM 4 39.2 0.125 7.15 1.88 12.22
12/13/2020 6:00:00 AM 3.99 39.182 0.125 7.15 1.86 12.22
12/13/2020 6:15:00 AM 3.99 39.182 0.125 7.15 2.09 12.22
12/13/2020 6:30:00 AM 3.98 39.164 0.125 7.15 1.89 12.23
12/13/2020 6:45:00 AM 3.96 39.128 0.125 7.15 1.88 12.23
12/13/2020 7:00:00 AM 3.95 39.11 0.125 7.14 1.89 12.23
12/13/2020 7:15:00 AM 3.95 39.11 0.125 7.14 1.9 12.24
12/13/2020 7:30:00 AM 3.95 39.11 0.125 7.15 1.84 12.27
12/13/2020 7:45:00 AM 3.93 39.074 0.125 7.16 1.86 12.33
12/13/2020 8:00:00 AM 3.94 39.092 0.125 7.19 1.8 12.42
12/13/2020 8:15:00 AM 3.94 39.092 0.125 7.2 1.82 12.53
12/13/2020 8:30:00 AM 3.93 39.074 0.125 7.22 1.95 12.66
12/13/2020 8:45:00 AM 3.95 39.11 0.125 7.27 1.83 12.85
12/13/2020 9:00:00 AM 3.99 39.182 0.125 7.32 1.84 13.01
12/13/2020 9:15:00 AM 4.08 39.344 0.124 7.39 1.82 13.2
12/13/2020 9:30:00 AM 4.11 39.398 0.124 7.39 1.83 13.24
12/13/2020 9:45:00 AM 4.16 39.488 0.124 7.45 1.83 13.4
12/13/2020 10:00:00 AM 4.21 39.578 0.124 7.49 1.89 13.46
12/13/2020 10:15:00 AM 4.28 39.704 0.124 7.55 1.83 13.61
12/13/2020 10:30:00 AM 4.37 39.866 0.124 7.62 1.85 13.71
12/13/2020 10:45:00 AM 4.42 39.956 0.124 7.65 1.83 13.75
12/13/2020 11:00:00 AM 4.47 40.046 0.124 7.69 1.87 13.8
12/13/2020 11:15:00 AM 4.55 40.19 0.123 7.77 1.86 13.89
12/13/2020 11:30:00 AM 4.61 40.298 0.123 7.81 1.81 13.91
12/13/2020 11:45:00 AM 4.67 40.406 0.123 7.87 1.86 13.97
12/13/2020 12:00:00 PM 4.72 40.496 0.123 7.91 1.85 13.99
12/13/2020 12:15:00 PM 4.77 40.586 0.123 7.95 1.89 13.99
12/13/2020 12:30:00 PM 4.83 40.694 0.123 7.99 1.87 14.01
12/13/2020 12:45:00 PM 4.88 40.784 0.123 8.02 1.79 14
12/13/2020 1:00:00 PM 4.94 40.892 0.123 8.07 1.86 14.02
12/13/2020 1:15:00 PM 4.96 40.928 0.123 8.05 1.88 13.95
12/13/2020 1:30:00 PM 4.99 40.982 0.123 8.07 1.83 13.92
12/13/2020 1:45:00 PM 5.01 41.018 0.12 8.04 3.46 13.86
12/13/2020 2:00:00 PM 5.03 41.054 0.123 8.06 1.9 13.83
12/13/2020 2:15:00 PM 5.05 41.09 0.123 8.01 1.81 13.72
12/13/2020 2:30:00 PM 5.06 41.108 0.123 7.98 1.85 13.65
12/13/2020 2:45:00 PM 5.06 41.108 0.123 7.91 1.88 13.51
12/13/2020 3:00:00 PM 5.07 41.126 0.123 7.89 1.89 13.48
12/13/2020 3:15:00 PM 5.08 41.144 0.123 7.9 1.84 13.46
12/13/2020 3:30:00 PM 5.08 41.144 0.123 7.82 1.89 13.32
12/13/2020 3:45:00 PM 5.08 41.144 0.123 7.78 1.89 13.25
12/13/2020 4:00:00 PM 5.08 41.144 0.123 7.73 1.88 13.17
12/13/2020 4:15:00 PM 5.07 41.126 0.123 7.69 1.87 13.08
12/13/2020 4:30:00 PM 5.07 41.126 0.123 7.65 1.89 12.99
12/13/2020 4:45:00 PM 5.06 41.108 0.123 7.59 1.86 12.86
12/13/2020 5:00:00 PM 5.06 41.108 0.124 7.54 1.92 12.74
12/13/2020 5:15:00 PM 5.05 41.09 0.124 7.5 1.93 12.65
12/13/2020 5:30:00 PM 5.05 41.09 0.124 7.47 1.97 12.57
12/13/2020 5:45:00 PM 5.04 41.072 0.124 7.44 2.03 12.51
12/13/2020 6:00:00 PM 5.03 41.054 0.124 7.42 1.93 12.45
12/13/2020 6:15:00 PM 5.03 41.054 0.124 7.39 1.96 12.4
12/13/2020 6:30:00 PM 5.03 41.054 0.124 7.37 2 12.35
12/13/2020 6:45:00 PM 5.02 41.036 0.124 7.36 1.93 12.31
12/13/2020 7:00:00 PM 5.02 41.036 0.124 7.35 1.93 12.27
12/13/2020 7:15:00 PM 5.01 41.018 0.124 7.34 1.91 12.24
12/13/2020 7:30:00 PM 5.01 41.018 0.124 7.32 1.89 12.21
12/13/2020 7:45:00 PM 5 41 0.124 7.31 1.88 12.19
12/13/2020 8:00:00 PM 5 41 0.124 7.3 1.94 12.16
12/13/2020 8:15:00 PM 4.99 40.982 0.124 7.29 1.94 12.14
12/13/2020 8:30:00 PM 4.98 40.964 0.125 7.28 1.85 12.13
12/13/2020 8:45:00 PM 4.97 40.946 0.125 7.28 1.88 12.11
12/13/2020 9:00:00 PM 4.97 40.946 0.125 7.27 1.89 12.1
12/13/2020 9:15:00 PM 4.96 40.928 0.125 7.26 1.94 12.09
12/13/2020 9:30:00 PM 4.95 40.91 0.125 7.26 1.81 12.08
12/13/2020 9:45:00 PM 4.92 40.856 0.125 7.25 1.9 12.06
12/13/2020 10:00:00 PM 4.89 40.802 0.125 7.24 1.9 12.06
12/13/2020 10:15:00 PM 4.87 40.766 0.125 7.23 1.91 12.05
12/13/2020 10:30:00 PM 4.83 40.694 0.125 7.23 1.92 12.05
12/13/2020 10:45:00 PM 4.81 40.658 0.125 7.22 1.81 12.05
12/13/2020 11:00:00 PM 4.78 40.604 0.125 7.21 1.87 12.04
12/13/2020 11:15:00 PM 4.75 40.55 0.125 7.21 1.88 12.05
12/13/2020 11:30:00 PM 4.7 40.46 0.125 7.21 1.88 12.05
12/13/2020 11:45:00 PM 4.67 40.406 0.125 7.21 1.89 12.05
12/14/2020 12:00:00 AM 4.66 40.388 0.125 7.2 1.85 12.06
12/14/2020 12:15:00 AM 4.64 40.352 0.125 7.2 1.89 12.06
12/14/2020 12:30:00 AM 4.62 40.316 0.125 7.2 1.88 12.06
12/14/2020 12:45:00 AM 4.6 40.28 0.125 7.2 1.89 12.07
12/14/2020 1:00:00 AM 4.57 40.226 0.125 7.19 1.9 12.07
12/14/2020 1:15:00 AM 4.55 40.19 0.125 7.19 1.87 12.07
12/14/2020 1:30:00 AM 4.53 40.154 0.125 7.2 1.83 12.08
12/14/2020 1:45:00 AM 4.51 40.118 0.125 7.19 1.86 12.09
12/14/2020 2:00:00 AM 4.49 40.082 0.125 7.19 1.88 12.09
12/14/2020 2:15:00 AM 4.47 40.046 0.125 7.18 1.89 12.09
12/14/2020 2:30:00 AM 4.45 40.01 0.125 7.18 1.85 12.1
12/14/2020 2:45:00 AM 4.43 39.974 0.125 7.18 1.88 12.1
12/14/2020 3:00:00 AM 4.41 39.938 0.125 7.19 1.86 12.1
12/14/2020 3:15:00 AM 4.39 39.902 0.125 7.17 1.87 12.11
12/14/2020 3:30:00 AM 4.38 39.884 0.125 7.18 1.87 12.11
12/14/2020 3:45:00 AM 4.36 39.848 0.125 7.17 1.83 12.11
12/14/2020 4:00:00 AM 4.35 39.83 0.125 7.18 1.94 12.12
12/14/2020 4:15:00 AM 4.34 39.812 0.125 7.18 1.92 12.12
12/14/2020 4:30:00 AM 4.34 39.812 0.125 7.17 1.94 12.12
12/14/2020 4:45:00 AM 4.33 39.794 0.125 7.18 1.92 12.12
12/14/2020 5:00:00 AM 4.33 39.794 0.125 7.18 1.85 12.12
12/14/2020 5:15:00 AM 4.32 39.776 0.125 7.18 1.81 12.12
12/14/2020 5:30:00 AM 4.32 39.776 0.125 7.17 1.83 12.12
12/14/2020 5:45:00 AM 4.31 39.758 0.125 7.18 1.93 12.12
12/14/2020 6:00:00 AM 4.31 39.758 0.125 7.18 2.01 12.12
12/14/2020 6:15:00 AM 4.3 39.74 0.125 7.18 1.9 12.12
12/14/2020 6:30:00 AM 4.29 39.722 0.125 7.18 1.9 12.13
12/14/2020 6:45:00 AM 4.28 39.704 0.125 7.18 1.86 12.13
12/14/2020 7:00:00 AM 4.26 39.668 0.125 7.18 1.95 12.13
12/14/2020 7:15:00 AM 4.24 39.632 0.125 7.17 1.85 12.14
12/14/2020 7:30:00 AM 4.21 39.578 0.124 7.17 1.88 12.15
12/14/2020 7:45:00 AM 4.18 39.524 0.124 7.17 1.86 12.16
12/14/2020 8:00:00 AM 4.14 39.452 0.124 7.17 1.85 12.2
12/14/2020 8:15:00 AM 4.11 39.398 0.124 7.17 1.87 12.24
12/14/2020 8:30:00 AM 4.1 39.38 0.124 7.19 1.85 12.3
12/14/2020 8:45:00 AM 4.09 39.362 0.124 7.21 1.86 12.4
12/14/2020 9:00:00 AM 4.07 39.326 0.124 7.23 1.87 12.48
12/14/2020 9:15:00 AM 4.07 39.326 0.124 7.26 1.86 12.64
12/14/2020 9:30:00 AM 4.06 39.308 0.124 7.27 1.87 12.71
12/14/2020 9:45:00 AM 4.06 39.308 0.124 7.29 1.9 12.8
12/14/2020 10:00:00 AM 4.05 39.29 0.124 7.31 1.83 12.84
12/14/2020 10:15:00 AM 4.04 39.272 0.124 7.34 1.84 12.97
12/14/2020 10:30:00 AM 4.03 39.254 0.124 7.37 1.89 13.08
12/14/2020 10:45:00 AM 4.03 39.254 0.124 7.41 1.9 13.16
12/14/2020 11:00:00 AM 4.02 39.236 0.124 7.42 1.91 13.19
12/14/2020 11:15:00 AM 4.02 39.236 0.123 7.44 1.91 13.26
12/14/2020 11:30:00 AM 4 39.2 0.123 7.46 1.92 13.3
12/14/2020 11:45:00 AM 4.02 39.236 0.123 7.5 1.92 13.39
12/14/2020 12:00:00 PM 4.04 39.272 0.123 7.54 1.92 13.47
12/14/2020 12:15:00 PM 4.06 39.308 0.123 7.58 1.88 13.52
12/14/2020 12:30:00 PM 4.07 39.326 0.123 7.6 1.82 13.55
12/14/2020 12:45:00 PM 4.09 39.362 0.123 7.63 1.9 13.62
12/14/2020 1:00:00 PM 4.1 39.38 0.123 7.66 1.88 13.64
12/14/2020 1:15:00 PM 4.11 39.398 0.123 7.68 1.96 13.65
12/14/2020 1:30:00 PM 4.13 39.434 0.123 7.7 1.85 13.67
12/14/2020 1:45:00 PM 4.13 39.434 0.123 7.7 1.89 13.64
12/14/2020 2:00:00 PM 4.15 39.47 0.123 7.73 1.91 13.68
12/14/2020 2:15:00 PM 4.17 39.506 0.123 7.75 1.86 13.7
12/14/2020 2:30:00 PM 4.24 39.632 0.123 7.84 1.89 13.82
12/14/2020 2:45:00 PM 4.28 39.704 0.123 7.88 1.89 13.85
12/14/2020 3:00:00 PM 4.31 39.758 0.123 7.94 1.92 13.91
12/14/2020 3:15:00 PM 4.29 39.722 0.123 7.93 1.86 13.9
12/14/2020 3:30:00 PM 4.3 39.74 0.123 7.93 1.9 13.85
12/14/2020 3:45:00 PM 4.29 39.722 0.123 7.88 1.85 13.74
12/14/2020 4:00:00 PM 4.29 39.722 0.123 7.85 1.86 13.66
12/14/2020 4:15:00 PM 4.28 39.704 0.123 7.77 1.86 13.51
12/14/2020 4:30:00 PM 4.26 39.668 0.123 7.71 1.83 13.38
12/14/2020 4:45:00 PM 4.21 39.578 0.124 7.64 1.88 13.26
12/14/2020 5:00:00 PM 4.2 39.56 0.124 7.59 1.87 13.14
12/14/2020 5:15:00 PM 4.18 39.524 0.124 7.54 1.85 13.03
12/14/2020 5:30:00 PM 4.17 39.506 0.124 7.5 1.83 12.94
12/14/2020 5:45:00 PM 4.16 39.488 0.124 7.48 1.85 12.86
12/14/2020 6:00:00 PM 4.13 39.434 0.124 7.45 1.84 12.79
12/14/2020 6:15:00 PM 4.11 39.398 0.124 7.42 1.88 12.73
12/14/2020 6:30:00 PM 4.09 39.362 0.125 7.4 1.94 12.68
12/14/2020 6:45:00 PM 4.07 39.326 0.125 7.38 1.91 12.63
12/14/2020 7:00:00 PM 4.03 39.254 0.125 7.36 1.89 12.6
12/14/2020 7:15:00 PM 4.01 39.218 0.125 7.34 1.86 12.56
12/14/2020 7:30:00 PM 3.94 39.092 0.125 7.33 1.88 12.54
12/14/2020 7:45:00 PM 3.9 39.02 0.125 7.31 1.84 12.53
12/14/2020 8:00:00 PM 3.86 38.948 0.125 7.31 1.91 12.52
12/14/2020 8:15:00 PM 3.81 38.858 0.125 7.29 1.97 12.52
12/14/2020 8:30:00 PM 3.75 38.75 0.125 7.28 1.96 12.51
12/14/2020 8:45:00 PM 3.7 38.66 0.126 7.27 1.97 12.51
12/14/2020 9:00:00 PM 3.68 38.624 0.126 7.27 1.84 12.52
12/14/2020 9:15:00 PM 3.66 38.588 0.126 7.27 1.95 12.51
12/14/2020 9:30:00 PM 3.63 38.534 0.126 7.26 1.91 12.51
12/14/2020 9:45:00 PM 3.6 38.48 0.126 7.26 1.85 12.52
12/14/2020 10:00:00 PM 3.54 38.372 0.126 7.25 1.9 12.51
12/14/2020 10:15:00 PM 3.46 38.228 0.126 7.24 2.06 12.52
12/14/2020 10:30:00 PM 3.41 38.138 0.126 7.23 1.87 12.53
12/14/2020 10:45:00 PM 3.37 38.066 0.126 7.23 1.93 12.53
12/14/2020 11:00:00 PM 3.35 38.03 0.126 7.23 1.89 12.54
12/14/2020 11:15:00 PM 3.31 37.958 0.126 7.23 1.87 12.55
12/14/2020 11:30:00 PM 3.26 37.868 0.126 7.23 1.87 12.56
12/14/2020 11:45:00 PM 3.21 37.778 0.126 7.22 1.85 12.58
12/15/2020 12:00:00 AM 3.15 37.67 0.127 7.22 1.94 12.6
12/15/2020 12:15:00 AM 3.09 37.562 0.127 7.22 1.82 12.62
12/15/2020 12:30:00 AM 3.03 37.454 0.127 7.21 1.9 12.63
12/15/2020 12:45:00 AM 2.97 37.346 0.127 7.21 1.83 12.66
12/15/2020 1:00:00 AM 2.92 37.256 0.127 7.21 1.85 12.68
12/15/2020 1:15:00 AM 2.86 37.148 0.127 7.22 1.83 12.7
12/15/2020 1:30:00 AM 2.82 37.076 0.127 7.21 1.86 12.71
12/15/2020 1:45:00 AM 2.77 36.986 0.127 7.2 1.88 12.73
12/15/2020 2:00:00 AM 2.73 36.914 0.127 7.21 1.88 12.74
12/15/2020 2:15:00 AM 2.68 36.824 0.127 7.2 1.9 12.76
12/15/2020 2:30:00 AM 2.63 36.734 0.127 7.2 1.9 12.78
12/15/2020 2:45:00 AM 2.57 36.626 0.127 7.2 1.85 12.8
12/15/2020 3:00:00 AM 2.52 36.536 0.127 7.2 1.86 12.82
12/15/2020 3:15:00 AM 2.47 36.446 0.127 7.19 1.81 12.84
12/15/2020 3:30:00 AM 2.41 36.338 0.126 7.19 1.93 12.86
12/15/2020 3:45:00 AM 2.36 36.248 0.126 7.19 1.86 12.88
12/15/2020 4:00:00 AM 2.32 36.176 0.126 7.19 1.91 12.9
12/15/2020 4:15:00 AM 2.27 36.086 0.126 7.19 1.87 12.92
12/15/2020 4:30:00 AM 2.23 36.014 0.126 7.19 1.85 12.94
12/15/2020 4:45:00 AM 2.19 35.942 0.126 7.18 1.88 12.97
12/15/2020 5:00:00 AM 2.14 35.852 0.126 7.19 1.85 12.99
12/15/2020 5:15:00 AM 2.09 35.762 0.126 7.19 1.86 13.01
12/15/2020 5:30:00 AM 2.04 35.672 0.126 7.18 1.87 13.03
12/15/2020 5:45:00 AM 2 35.6 0.126 7.19 1.86 13.05
12/15/2020 6:00:00 AM 1.96 35.528 0.126 7.19 1.86 13.07
12/15/2020 6:15:00 AM 1.92 35.456 0.126 7.18 1.9 13.08
12/15/2020 6:30:00 AM 1.89 35.402 0.126 7.19 1.88 13.09
12/15/2020 6:45:00 AM 1.85 35.33 0.126 7.19 2.02 13.11
12/15/2020 7:00:00 AM 1.81 35.258 0.126 7.19 1.87 13.14
12/15/2020 7:15:00 AM 1.76 35.168 0.126 7.18 1.93 13.16
12/15/2020 7:30:00 AM 1.71 35.078 0.126 7.19 1.89 13.2
12/15/2020 7:45:00 AM 1.67 35.006 0.126 7.21 1.77 13.28
12/15/2020 8:00:00 AM 1.64 34.952 0.126 7.23 1.87 13.38
12/15/2020 8:15:00 AM 1.61 34.898 0.126 7.24 1.83 13.51
12/15/2020 8:30:00 AM 1.6 34.88 0.126 7.27 1.83 13.66
12/15/2020 8:45:00 AM 1.6 34.88 0.126 7.3 1.88 13.8
12/15/2020 9:00:00 AM 1.61 34.898 0.126 7.34 1.88 13.96
12/15/2020 9:15:00 AM 1.61 34.898 0.125 7.38 1.82 14.07
12/15/2020 9:30:00 AM 1.64 34.952 0.125 7.42 1.87 14.2
12/15/2020 9:45:00 AM 1.68 35.024 0.125 7.46 1.81 14.3
12/15/2020 10:00:00 AM 1.73 35.114 0.125 7.51 1.85 14.41
12/15/2020 10:15:00 AM 1.75 35.15 0.125 7.54 1.85 14.49
12/15/2020 10:30:00 AM 1.81 35.258 0.125 7.6 1.9 14.59
12/15/2020 10:45:00 AM 1.87 35.366 0.125 7.64 1.84 14.65
12/15/2020 11:00:00 AM 1.9 35.42 0.125 7.67 1.78 14.71
12/15/2020 11:15:00 AM 1.99 35.582 0.124 7.75 1.78 14.79
12/15/2020 11:30:00 AM 2.06 35.708 0.124 7.79 1.81 14.84
12/15/2020 11:45:00 AM 2.15 35.87 0.124 7.83 1.79 14.9
12/15/2020 12:00:00 PM 2.27 36.086 0.124 7.89 1.84 14.94
12/15/2020 12:15:00 PM 2.37 36.266 0.124 7.93 1.81 14.97
12/15/2020 12:30:00 PM 2.48 36.464 0.124 7.99 1.82 15
12/15/2020 12:45:00 PM 2.57 36.626 0.124 8.01 1.78 15
12/15/2020 1:00:00 PM 2.63 36.734 0.124 8.03 1.8 14.98
12/15/2020 1:15:00 PM 2.67 36.806 0.124 8.06 1.81 14.99
12/15/2020 1:30:00 PM 2.72 36.896 0.123 8.09 1.79 14.97
12/15/2020 1:45:00 PM 2.77 36.986 0.123 8.11 1.76 14.97
12/15/2020 2:00:00 PM 2.8 37.04 0.123 8.13 1.84 14.95
12/15/2020 2:15:00 PM 2.78 37.004 0.123 8.13 1.82 14.93
12/15/2020 2:30:00 PM 2.76 36.968 0.123 8.13 1.79 14.9
12/15/2020 2:45:00 PM 2.7 36.86 0.124 8.13 1.82 14.88
12/15/2020 3:00:00 PM 2.65 36.77 0.124 8.12 1.76 14.85
12/15/2020 3:15:00 PM 2.58 36.644 0.124 8.11 2 14.81
12/15/2020 3:30:00 PM 2.53 36.554 0.124 8.07 1.79 14.76
12/15/2020 3:45:00 PM 2.47 36.446 0.124 8.03 1.77 14.7
12/15/2020 4:00:00 PM 2.41 36.338 0.124 7.98 1.8 14.6
12/15/2020 4:15:00 PM 2.35 36.23 0.124 7.9 1.74 14.49
12/15/2020 4:30:00 PM 2.29 36.122 0.124 7.82 1.81 14.35
12/15/2020 4:45:00 PM 2.23 36.014 0.124 7.73 1.81 14.2
12/15/2020 5:00:00 PM 2.18 35.924 0.125 7.65 1.78 14.07
12/15/2020 5:15:00 PM 2.13 35.834 0.125 7.6 1.82 13.97
12/15/2020 5:30:00 PM 2.09 35.762 0.125 7.55 1.79 13.88
12/15/2020 5:45:00 PM 2.05 35.69 0.125 7.51 1.9 13.8
12/15/2020 6:00:00 PM 2 35.6 0.125 7.48 1.83 13.75
12/15/2020 6:15:00 PM 1.96 35.528 0.125 7.46 1.8 13.7
12/15/2020 6:30:00 PM 1.93 35.474 0.125 7.43 1.79 13.65
12/15/2020 6:45:00 PM 1.9 35.42 0.125 7.41 1.83 13.62
12/15/2020 7:00:00 PM 1.87 35.366 0.125 7.4 1.85 13.58
12/15/2020 7:15:00 PM 1.83 35.294 0.125 7.38 1.75 13.56
12/15/2020 7:30:00 PM 1.79 35.222 0.125 7.36 1.81 13.54
12/15/2020 7:45:00 PM 1.75 35.15 0.125 7.35 1.8 13.52
12/15/2020 8:00:00 PM 1.71 35.078 0.126 7.34 1.81 13.51
12/15/2020 8:15:00 PM 1.68 35.024 0.126 7.32 1.81 13.51
12/15/2020 8:30:00 PM 1.64 34.952 0.126 7.32 1.79 13.49
12/15/2020 8:45:00 PM 1.61 34.898 0.126 7.31 1.78 13.48
12/15/2020 9:00:00 PM 1.57 34.826 0.126 7.3 1.83 13.48
12/15/2020 9:15:00 PM 1.54 34.772 0.126 7.3 1.78 13.47
12/15/2020 9:30:00 PM 1.5 34.7 0.126 7.28 1.78 13.46
12/15/2020 9:45:00 PM 1.46 34.628 0.126 7.29 1.81 13.47
12/15/2020 10:00:00 PM 1.42 34.556 0.126 7.27 1.78 13.47
12/15/2020 10:15:00 PM 1.39 34.502 0.126 7.27 1.85 13.47
12/15/2020 10:30:00 PM 1.35 34.43 0.126 7.26 1.86 13.48
12/15/2020 10:45:00 PM 1.32 34.376 0.126 7.27 1.78 13.48
12/15/2020 11:00:00 PM 1.28 34.304 0.126 7.26 1.77 13.47
12/15/2020 11:15:00 PM 1.26 34.268 0.127 7.25 1.79 13.48
12/15/2020 11:30:00 PM 1.22 34.196 0.127 7.25 1.8 13.49
12/15/2020 11:45:00 PM 1.19 34.142 0.127 7.24 1.76 13.49
12/16/2020 12:00:00 AM 1.16 34.088 0.127 7.24 1.79 13.5
12/16/2020 12:15:00 AM 1.12 34.016 0.127 7.24 1.77 13.5
12/16/2020 12:30:00 AM 1.07 33.926 0.127 7.23 1.78 13.52
12/16/2020 12:45:00 AM 1.01 33.818 0.127 7.22 1.73 13.53
12/16/2020 1:00:00 AM 0.97 33.746 0.127 7.22 1.72 13.53
12/16/2020 1:15:00 AM 0.93 33.674 0.127 7.22 1.78 13.56
12/16/2020 1:30:00 AM 0.9 33.62 0.127 7.22 1.78 13.57
12/16/2020 1:45:00 AM 0.86 33.548 0.127 7.21 1.77 13.58
12/16/2020 2:00:00 AM 0.81 33.458 0.127 7.22 1.86 13.59
12/16/2020 2:15:00 AM 0.75 33.35 0.127 7.22 1.85 13.6
12/16/2020 2:30:00 AM 0.71 33.278 0.127 7.21 1.74 13.62
12/16/2020 2:45:00 AM 0.69 33.242 0.127 7.21 1.76 13.63
12/16/2020 3:00:00 AM 0.66 33.188 0.128 7.21 1.72 13.65
12/16/2020 3:15:00 AM 0.64 33.152 0.128 7.21 1.88 13.66
12/16/2020 3:30:00 AM 0.6 33.08 0.128 7.21 1.81 13.68
12/16/2020 3:45:00 AM 0.56 33.008 0.128 7.21 1.76 13.69
12/16/2020 4:00:00 AM 0.52 32.936 0.128 7.2 1.78 13.7
12/16/2020 4:15:00 AM 0.48 32.864 0.128 7.21 1.79 13.72
12/16/2020 4:30:00 AM 0.45 32.81 0.128 7.21 1.78 13.72
12/16/2020 4:45:00 AM 0.43 32.774 0.127 7.21 1.78 13.73
12/16/2020 5:00:00 AM 0.41 32.738 0.127 7.21 1.77 13.75
12/16/2020 5:15:00 AM 0.39 32.702 0.127 7.2 1.79 13.77
12/16/2020 5:30:00 AM 0.38 32.684 0.127 7.2 1.83 13.76
12/16/2020 5:45:00 AM 0.35 32.63 0.127 7.21 1.88 13.77
12/16/2020 6:00:00 AM 0.34 32.612 0.127 7.2 1.88 13.78
12/16/2020 6:15:00 AM 0.33 32.594 0.127 7.2 1.88 13.79
12/16/2020 6:30:00 AM 0.31 32.558 0.127 7.18 1.82 13.79
12/16/2020 6:45:00 AM 0.3 32.54 0.127 7.21 1.8 13.81
12/16/2020 7:00:00 AM 0.29 32.522 0.127 7.21 1.82 13.81
12/16/2020 7:15:00 AM 0.28 32.504 0.127 7.2 1.81 13.81
12/16/2020 7:30:00 AM 0.26 32.468 0.128 7.21 1.78 13.84
12/16/2020 7:45:00 AM 0.26 32.468 0.128 7.21 1.85 13.86
12/16/2020 8:00:00 AM 0.27 32.486 0.128 7.22 1.79 13.93
12/16/2020 8:15:00 AM 0.27 32.486 0.128 7.22 1.78 14.01
12/16/2020 8:30:00 AM 0.27 32.486 0.128 7.25 1.78 14.15
12/16/2020 8:45:00 AM 0.28 32.504 0.128 7.26 1.8 14.3
12/16/2020 9:00:00 AM 0.29 32.522 0.128 7.29 1.81 14.36
12/16/2020 9:15:00 AM 0.29 32.522 0.128 7.31 1.8 14.43
12/16/2020 9:30:00 AM 0.3 32.54 0.128 7.32 1.78 14.85
12/16/2020 9:45:00 AM 0.31 32.558 0.128 7.35 1.8 14.84
12/16/2020 10:00:00 AM 0.33 32.594 0.128 7.37 1.79 14.81
12/16/2020 10:15:00 AM 0.36 32.648 0.128 7.4 1.81 14.85
12/16/2020 10:30:00 AM 0.39 32.702 0.128 7.41 1.78 14.73
12/16/2020 10:45:00 AM 0.39 32.702 0.128 7.39 1.78 14.7
12/16/2020 11:00:00 AM 0.38 32.684 0.128 7.18 1.83 14.67
12/16/2020 11:15:00 AM 0.39 32.702 0.127 6.91 1.78 14.68
12/16/2020 11:30:00 AM 0.39 32.702 0.127 7.31 1.8 14.36
12/16/2020 11:45:00 AM 0.38 32.684 0.127 7.64 1.77 14.38
12/16/2020 12:00:00 PM 0.4 32.72 0.127 7.64 1.87 14.34
12/16/2020 12:15:00 PM 0.43 32.774 0.128 7.6 1.81 14.33
12/16/2020 12:30:00 PM 0.39 32.702 0.128 7.53 1.81 14.45
12/16/2020 12:45:00 PM 0.4 32.72 0.128 7.65 1.83 14.34
12/16/2020 1:00:00 PM 0.39 32.702 0.128 7.65 1.83 14.69
12/16/2020 1:15:00 PM 0.36 32.648 0.128 7.64 1.84 14.83
12/16/2020 1:30:00 PM 0.32 32.576 0.128 7.62 1.84 14.61
12/16/2020 1:45:00 PM 0.27 32.486 0.128 7.63 1.75 14.32
12/16/2020 2:00:00 PM 0.22 32.396 0.128 7.65 1.87 14.85
12/16/2020 2:15:00 PM 0.16 32.288 0.128 7.65 1.92 14.89
12/16/2020 2:30:00 PM 0.09 32.162 0.127 7.62 1.86 14.98
12/16/2020 2:45:00 PM 0.09 32.162 0.127 7.62 1.86 14.94
12/16/2020 3:00:00 PM 0.05 32.09 0.127 7.59 1.95 14.9
12/16/2020 3:15:00 PM -0.03 31.946 0.127 7.56 2.03 14.85
12/16/2020 3:30:00 PM -0.04 31.928 0.127 7.55 2.02 14.79
12/16/2020 3:45:00 PM -0.05 31.91 0.127 7.53 2.46 14.73
12/16/2020 4:00:00 PM -0.05 31.91 0.127 7.54 2.03 14.7
12/16/2020 4:15:00 PM -0.05 31.91 0.127 7.5 2.05 14.64
12/16/2020 4:30:00 PM -0.04 31.928 0.127 7.49 1.95 14.6
12/16/2020 4:45:00 PM -0.04 31.928 0.127 7.46 2.21 14.54
12/16/2020 5:00:00 PM -0.05 31.91 0.127 7.45 1.97 14.49
12/16/2020 5:15:00 PM -0.04 31.928 0.127 7.43 1.9 14.45
12/16/2020 5:30:00 PM -0.04 31.928 0.126 7.41 1.89 14.41
12/16/2020 5:45:00 PM -0.04 31.928 0.126 7.41 1.92 14.38
12/16/2020 6:00:00 PM -0.04 31.928 0.126 7.39 1.93 14.35
12/16/2020 6:15:00 PM -0.04 31.928 0.126 7.37 1.99 14.32
12/16/2020 6:30:00 PM -0.04 31.928 0.126 7.36 1.95 14.3
12/16/2020 6:45:00 PM -0.04 31.928 0.126 7.35 2.06 14.36
12/16/2020 7:00:00 PM -0.04 31.928 0.126 7.36 2.09 14.44
12/16/2020 7:15:00 PM -0.04 31.928 0.126 7.25 2.03 14.44
12/16/2020 7:30:00 PM -0.04 31.928 0.121 6.79 2.33 14.44
12/16/2020 7:45:00 PM -0.04 31.928 0.123 6.93 2.08 14.43
12/16/2020 8:00:00 PM -0.04 31.928 0.126 7.31 2.12 14.43
12/16/2020 8:15:00 PM -0.03 31.946 0.127 7.35 2.13 14.41
12/16/2020 8:30:00 PM -0.03 31.946 0.127 7.28 2.01 14.38
12/16/2020 8:45:00 PM -0.03 31.946 0.127 7.27 2 14.25
12/16/2020 9:00:00 PM -0.03 31.946 0.127 7.25 1.98 14.08
12/16/2020 9:15:00 PM -0.03 31.946 0.127 7.25 2.11 14.05
12/16/2020 9:30:00 PM -0.02 31.964 0.127 7.24 2.04 13.96
12/16/2020 9:45:00 PM -0.02 31.964 0.127 7.23 2.02 13.92
12/16/2020 10:00:00 PM -0.02 31.964 0.127 7.22 2.11 13.94
12/16/2020 10:15:00 PM -0.02 31.964 0.127 7.22 2.09 14.31
12/16/2020 10:30:00 PM -0.02 31.964 0.127 7.25 1.95 14.38
12/16/2020 10:45:00 PM -0.02 31.964 0.126 6.8 2.06 14.38
12/16/2020 11:00:00 PM -0.02 31.964 0.117 6.75 2.02 14.38
12/16/2020 11:15:00 PM -0.02 31.964 0.061 6.7 2.04 14.39
12/16/2020 11:30:00 PM -0.03 31.946 0.023 6.7 1.95 14.4
12/16/2020 11:45:00 PM -0.05 31.91 0.009 6.69 2.2 14.41
12/17/2020 12:00:00 AM -0.05 31.91 0 6.71 2.03 14.41
12/17/2020 12:15:00 AM -0.06 31.892 0 6.7 2.11 14.41
12/17/2020 12:30:00 AM -0.06 31.892 0 6.72 2 14.41
12/17/2020 12:45:00 AM -0.06 31.892 0 6.72 6.16 14.41
12/17/2020 1:00:00 AM -0.06 31.892 0 6.74 5.82 14.4
12/17/2020 1:15:00 AM -0.06 31.892 0 6.75 6.01 14.4
12/17/2020 1:30:00 AM -0.08 31.856 0 6.74 1.96 14.42
12/17/2020 1:45:00 AM -0.08 31.856 0 6.73 5.22 14.43
12/17/2020 2:00:00 AM -0.07 31.874 0 6.76 6.9 14.42
12/17/2020 2:15:00 AM -0.08 31.856 0 6.77 7.83 14.43
12/17/2020 2:30:00 AM -0.08 31.856 0 6.79 2.06 14.44
12/17/2020 2:45:00 AM -0.07 31.874 0 6.82 2.15 14.44
12/17/2020 3:00:00 AM -0.06 31.892 0.022 6.86 2.18 14.44
12/17/2020 3:15:00 AM -0.06 31.892 0 6.89 2.07 14.43
12/17/2020 3:30:00 AM -0.07 31.874 0 6.94 2.11 14.42
12/17/2020 3:45:00 AM -0.08 31.856 0 6.94 2.02 14.42
12/17/2020 4:00:00 AM -0.08 31.856 0 6.94 2.05 14.42
12/17/2020 4:15:00 AM -0.08 31.856 0 6.97 2.03 14.4
12/17/2020 4:30:00 AM -0.08 31.856 0 7 2.08 14.41
12/17/2020 4:45:00 AM -0.08 31.856 0 7.04 2.08 14.4
12/17/2020 5:00:00 AM -0.07 31.874 0.001 7.03 2.06 14.37
12/17/2020 5:15:00 AM -0.07 31.874 0.007 7.04 2.01 14.35
12/17/2020 5:30:00 AM -0.07 31.874 0.009 7.05 2.01 14.26
12/17/2020 5:45:00 AM -0.07 31.874 0.011 7.07 2.06 14.26
12/17/2020 6:00:00 AM -0.07 31.874 0.019 7.11 2.02 14.25
12/17/2020 6:15:00 AM -0.07 31.874 0.011 7.11 2.07 14.22
12/17/2020 6:30:00 AM -0.07 31.874 0.001 7.13 2.08 14.13
12/17/2020 6:45:00 AM -0.07 31.874 0 7.18 2.12 13.99
12/17/2020 7:00:00 AM -0.08 31.856 0 7.18 1.97 13.95
12/17/2020 7:15:00 AM -0.08 31.856 0 7.19 2.04 13.86
12/17/2020 7:30:00 AM -0.08 31.856 0 7.16 2.07 13.8
12/17/2020 7:45:00 AM -0.09 31.838 0 7.19 2.04 13.69
12/17/2020 8:00:00 AM -0.09 31.838 0 7.24 2.81 13.63
12/17/2020 8:15:00 AM -0.09 31.838 0 7.23 2.05 13.65
12/17/2020 8:30:00 AM -0.09 31.838 0 7.26 2.05 13.61
12/17/2020 8:45:00 AM -0.08 31.856 0 7.27 2.27 13.6
12/17/2020 9:00:00 AM -0.09 31.838 0 7.25 2.29 13.6
12/17/2020 9:15:00 AM -0.08 31.856 0 7.3 2.51 13.54
12/17/2020 9:30:00 AM -0.07 31.874 0.002 7.3 2.28 13.42
12/17/2020 9:45:00 AM -0.07 31.874 0.003 7.3 6.68 13.39
12/17/2020 10:00:00 AM -0.06 31.892 0.006 7.31 2.65 13.36
12/17/2020 10:15:00 AM -0.06 31.892 0.008 7.29 2.23 13.33
12/17/2020 10:30:00 AM -0.05 31.91 0.011 7.3 2.27 13.34
12/17/2020 10:45:00 AM -0.05 31.91 0.103 7.38 2.38 13.25
12/17/2020 11:00:00 AM -0.04 31.928 0.117 7.37 2.57 13.29
12/17/2020 11:15:00 AM -0.04 31.928 0.119 7.34 7.17 13.47
12/17/2020 11:30:00 AM -0.05 31.91 0.057 7.34 3.48 13.5
12/17/2020 11:45:00 AM -0.03 31.946 0.125 7.26 5.06 13.46
12/17/2020 12:00:00 PM -0.03 31.946 0.125 7.24 2.86 13.44
12/17/2020 12:15:00 PM -0.01 31.982 0.125 7.53 5.89 13.48
12/17/2020 12:30:00 PM 0 32 0.116 7.53 3.04 13.52
12/17/2020 12:45:00 PM -0.01 31.982 0.111 7.46 3.32 13.64
12/17/2020 1:00:00 PM -0.01 31.982 0.108 7.48 2.27 13.77
12/17/2020 1:15:00 PM 0 32 0.107 7.52 2.04 13.87
12/17/2020 1:30:00 PM 0 32 0.109 7.55 3.44 13.98
12/17/2020 1:45:00 PM 0 32 0.112 7.53 2.25 14.07
12/17/2020 2:00:00 PM 0 32 0.114 7.51 2.13 14.12
12/17/2020 2:15:00 PM 0 32 0.113 7.5 2.01 14.1
12/17/2020 2:30:00 PM -0.02 31.964 0.111 7.49 2.37 14.13
12/17/2020 2:45:00 PM -0.02 31.964 0.099 7.44 2.17 14.1
12/17/2020 3:00:00 PM -0.02 31.964 0.091 7.37 2.15 14.1
12/17/2020 3:15:00 PM -0.03 31.946 0.081 7.34 2.09 14.13
12/17/2020 3:30:00 PM -0.03 31.946 0.086 7.18 2.06 14.16
12/17/2020 3:45:00 PM -0.03 31.946 0.097 7.21 2.64 14.18
12/17/2020 4:00:00 PM -0.03 31.946 0.102 7.28 1.95 14.33
12/17/2020 4:15:00 PM -0.03 31.946 0.106 7.35 2.06 14.51
12/17/2020 4:30:00 PM -0.03 31.946 0.103 7.41 2.01 14.56
12/17/2020 4:45:00 PM -0.03 31.946 0.112 7.41 1.91 14.56
12/17/2020 5:00:00 PM -0.03 31.946 0.129 7.44 1.87 14.6
12/17/2020 5:15:00 PM -0.03 31.946 0.129 7.4 1.83 14.53
12/17/2020 5:30:00 PM -0.03 31.946 0.13 7.39 1.93 14.44
12/17/2020 5:45:00 PM -0.03 31.946 0.13 7.39 2.02 14.37
12/17/2020 6:00:00 PM -0.03 31.946 0.13 7.36 1.87 14.29
12/17/2020 6:15:00 PM -0.03 31.946 0.13 7.38 1.82 14.21
12/17/2020 6:30:00 PM -0.02 31.964 0.125 7.35 1.93 14.1
12/17/2020 6:45:00 PM -0.02 31.964 0.126 7.33 1.87 14.07
12/17/2020 7:00:00 PM -0.03 31.946 0.124 7.32 1.96 14.05
12/17/2020 7:15:00 PM -0.03 31.946 0.13 7.33 1.83 14.02
12/17/2020 7:30:00 PM -0.03 31.946 0.13 7.3 1.87 13.99
12/17/2020 7:45:00 PM -0.04 31.928 0.13 7.29 1.91 13.97
12/17/2020 8:00:00 PM -0.04 31.928 0.13 7.3 1.91 13.95
12/17/2020 8:15:00 PM -0.03 31.946 0.13 7.28 1.91 13.92
12/17/2020 8:30:00 PM -0.04 31.928 0.131 7.29 1.86 13.92
12/17/2020 8:45:00 PM -0.04 31.928 0.131 7.27 1.81 13.9
12/17/2020 9:00:00 PM -0.03 31.946 0.13 7.27 1.84 13.88
12/17/2020 9:15:00 PM -0.04 31.928 0.131 7.25 1.9 13.86
12/17/2020 9:30:00 PM -0.04 31.928 0.131 7.24 1.83 13.86
12/17/2020 9:45:00 PM -0.04 31.928 0.131 7.23 1.95 13.86
12/17/2020 10:00:00 PM -0.04 31.928 0.131 7.22 2.1 13.84
12/17/2020 10:15:00 PM -0.03 31.946 0.131 7.22 1.9 13.81
12/17/2020 10:30:00 PM 0 32 0.13 7.22 1.9 13.77
12/17/2020 10:45:00 PM -0.03 31.946 0.131 7.21 1.98 13.78
12/17/2020 11:00:00 PM -0.04 31.928 0.131 7.18 1.89 13.82
12/17/2020 11:15:00 PM -0.04 31.928 0.131 7.2 1.93 13.83
12/17/2020 11:30:00 PM -0.04 31.928 0.132 7.19 1.96 13.83
12/17/2020 11:45:00 PM -0.04 31.928 0.132 7.19 1.96 13.83
12/18/2020 12:00:00 AM -0.04 31.928 0.132 7.18 1.98 13.82
12/18/2020 12:15:00 AM -0.04 31.928 0.132 7.18 2.03 13.81
12/18/2020 12:30:00 AM -0.04 31.928 0.132 7.18 1.95 13.8
12/18/2020 12:45:00 AM -0.04 31.928 0.132 7.17 1.94 13.8
12/18/2020 1:00:00 AM -0.04 31.928 0.132 7.17 1.9 13.79
12/18/2020 1:15:00 AM -0.04 31.928 0.132 7.16 1.95 13.78
12/18/2020 1:30:00 AM -0.04 31.928 0.131 7.16 2.05 13.78
12/18/2020 1:45:00 AM -0.04 31.928 0.131 7.16 1.96 13.77
12/18/2020 2:00:00 AM -0.04 31.928 0.131 7.15 2.18 13.77
12/18/2020 2:15:00 AM -0.04 31.928 0.131 7.15 1.95 13.76
12/18/2020 2:30:00 AM -0.04 31.928 0.131 7.16 2.07 13.76
12/18/2020 2:45:00 AM -0.04 31.928 0.131 7.14 1.93 13.76
12/18/2020 3:00:00 AM -0.04 31.928 0.131 7.14 2.05 13.75
12/18/2020 3:15:00 AM -0.04 31.928 0.13 7.14 1.95 13.75
12/18/2020 3:30:00 AM -0.04 31.928 0.13 7.14 2.05 13.75
12/18/2020 3:45:00 AM -0.04 31.928 0.13 7.13 1.99 13.74
12/18/2020 4:00:00 AM -0.04 31.928 0.13 7.13 2.14 13.73
12/18/2020 4:15:00 AM -0.04 31.928 0.13 7.13 2.12 13.72
12/18/2020 4:30:00 AM -0.04 31.928 0.13 7.12 2.01 13.72
12/18/2020 4:45:00 AM -0.04 31.928 0.13 7.12 2.24 13.71
12/18/2020 5:00:00 AM -0.04 31.928 0.13 7.12 2.1 13.71
12/18/2020 5:15:00 AM -0.04 31.928 0.13 7.12 2.15 13.71
12/18/2020 5:30:00 AM -0.04 31.928 0.13 7.12 2.08 13.7
12/18/2020 5:45:00 AM -0.04 31.928 0.13 7.11 2.03 13.69
12/18/2020 6:00:00 AM -0.04 31.928 0.13 7.11 2.11 13.69
12/18/2020 6:15:00 AM -0.04 31.928 0.13 7.11 2.09 13.69
12/18/2020 6:30:00 AM -0.04 31.928 0.13 7.11 2.1 13.68
12/18/2020 6:45:00 AM -0.04 31.928 0.13 7.11 2.07 13.68
12/18/2020 7:00:00 AM -0.04 31.928 0.13 7.1 2.05 13.67
12/18/2020 7:15:00 AM -0.04 31.928 0.13 7.11 2.08 13.67
12/18/2020 7:30:00 AM -0.04 31.928 0.13 7.1 2.05 13.67
12/18/2020 7:45:00 AM -0.04 31.928 0.13 7.11 2.05 13.69
12/18/2020 8:00:00 AM -0.04 31.928 0.13 7.11 1.98 13.73
12/18/2020 8:15:00 AM -0.03 31.946 0.13 7.11 2.14 13.79
12/18/2020 8:30:00 AM -0.03 31.946 0.13 7.12 2.01 13.88
12/18/2020 8:45:00 AM -0.03 31.946 0.13 7.13 2.03 13.97
12/18/2020 9:00:00 AM -0.03 31.946 0.13 7.15 2.01 14.07
12/18/2020 9:15:00 AM -0.03 31.946 0.13 7.17 2.1 14.17
12/18/2020 9:30:00 AM -0.03 31.946 0.129 7.18 2.05 14.27
12/18/2020 9:45:00 AM -0.02 31.964 0.129 7.2 2.04 14.37
12/18/2020 10:00:00 AM -0.02 31.964 0.129 7.22 2.07 14.48
12/18/2020 10:15:00 AM -0.01 31.982 0.129 7.24 1.99 14.58
12/18/2020 10:30:00 AM -0.01 31.982 0.129 7.26 2.05 14.68
12/18/2020 10:45:00 AM -0.01 31.982 0.129 7.28 2.1 14.77
12/18/2020 11:00:00 AM -0.01 31.982 0.128 7.31 2.09 14.86
12/18/2020 11:15:00 AM 0 32 0.128 7.33 2.05 14.95
12/18/2020 11:30:00 AM 0 32 0.128 7.36 2.06 15.02
12/18/2020 11:45:00 AM 0 32 0.128 7.36 2.18 15.08
12/18/2020 12:00:00 PM 0 32 0.128 7.37 2.09 15.13
12/18/2020 12:15:00 PM -0.01 31.982 0.127 7.39 2.1 15.16
12/18/2020 12:30:00 PM -0.01 31.982 0.127 7.41 2.02 15.2
12/18/2020 12:45:00 PM -0.01 31.982 0.127 7.43 2.04 15.22
12/18/2020 1:00:00 PM -0.02 31.964 0.127 7.45 2.03 15.24
12/18/2020 1:15:00 PM -0.02 31.964 0.127 7.47 2.02 15.25
12/18/2020 1:30:00 PM -0.02 31.964 0.127 7.49 2.03 15.28
12/18/2020 1:45:00 PM -0.02 31.964 0.126 7.5 2.01 15.29
12/18/2020 2:00:00 PM -0.02 31.964 0.126 7.51 1.99 15.29
12/18/2020 2:15:00 PM -0.02 31.964 0.126 7.52 2.04 15.29
12/18/2020 2:30:00 PM -0.03 31.946 0.126 7.53 2.09 15.28
12/18/2020 2:45:00 PM -0.03 31.946 0.126 7.54 2.11 15.28
12/18/2020 3:00:00 PM -0.03 31.946 0.126 7.54 2.16 15.27
12/18/2020 3:15:00 PM -0.03 31.946 0.126 7.55 2.1 15.26
12/18/2020 3:30:00 PM -0.03 31.946 0.126 7.55 2.07 15.24
12/18/2020 3:45:00 PM -0.03 31.946 0.126 7.54 2.13 15.21
12/18/2020 4:00:00 PM -0.03 31.946 0.126 7.53 2.17 15.16
12/18/2020 4:15:00 PM -0.03 31.946 0.125 7.52 2.13 15.1
12/18/2020 4:30:00 PM -0.04 31.928 0.125 7.49 2.09 15.02
12/18/2020 4:45:00 PM -0.04 31.928 0.125 7.47 2.16 14.93
12/18/2020 5:00:00 PM -0.04 31.928 0.125 7.45 2.13 14.84
12/18/2020 5:15:00 PM -0.04 31.928 0.125 7.42 2.11 14.77
12/18/2020 5:30:00 PM -0.04 31.928 0.125 7.39 2.07 14.7
12/18/2020 5:45:00 PM -0.04 31.928 0.125 7.38 2.05 14.64
12/18/2020 6:00:00 PM -0.05 31.91 0.125 7.35 2.3 14.59
12/18/2020 6:15:00 PM -0.04 31.928 0.125 7.35 2.16 14.54
12/18/2020 6:30:00 PM -0.05 31.91 0.125 7.33 2.19 14.5
12/18/2020 6:45:00 PM -0.05 31.91 0.125 7.31 2.11 14.46
12/18/2020 7:00:00 PM -0.05 31.91 0.126 7.3 2.1 14.43
12/18/2020 7:15:00 PM -0.05 31.91 0.126 7.29 2.09 14.4
12/18/2020 7:30:00 PM -0.05 31.91 0.126 7.28 2.09 14.37
12/18/2020 7:45:00 PM -0.05 31.91 0.126 7.27 2.15 14.35
12/18/2020 8:00:00 PM -0.05 31.91 0.126 7.25 2.15 14.33
12/18/2020 8:15:00 PM -0.05 31.91 0.126 7.25 2.09 14.31
12/18/2020 8:30:00 PM -0.05 31.91 0.126 7.24 2.1 14.29
12/18/2020 8:45:00 PM -0.05 31.91 0.126 7.24 2.01 14.27
12/18/2020 9:00:00 PM -0.05 31.91 0.126 7.23 2.02 14.26
12/18/2020 9:15:00 PM -0.05 31.91 0.126 7.22 2.06 14.24
12/18/2020 9:30:00 PM -0.05 31.91 0.126 7.21 1.96 14.23
12/18/2020 9:45:00 PM -0.05 31.91 0.126 7.21 1.98 14.21
12/18/2020 10:00:00 PM -0.05 31.91 0.126 7.2 2.06 14.2
12/18/2020 10:15:00 PM -0.05 31.91 0.126 7.2 1.94 14.18
12/18/2020 10:30:00 PM -0.05 31.91 0.126 7.2 1.98 14.17
12/18/2020 10:45:00 PM -0.05 31.91 0.126 7.18 2.07 14.16
12/18/2020 11:00:00 PM -0.05 31.91 0.126 7.18 2.03 14.14
12/18/2020 11:15:00 PM -0.05 31.91 0.126 7.18 1.93 14.13
12/18/2020 11:30:00 PM -0.05 31.91 0.126 7.17 1.98 14.12
12/18/2020 11:45:00 PM -0.05 31.91 0.127 7.17 2.06 14.11
12/19/2020 12:00:00 AM -0.05 31.91 0.127 7.16 1.97 14.09
12/19/2020 12:15:00 AM -0.05 31.91 0.127 7.16 2.03 14.08
12/19/2020 12:30:00 AM -0.05 31.91 0.127 7.15 1.97 14.07
12/19/2020 12:45:00 AM -0.05 31.91 0.127 7.14 2.05 14.06
12/19/2020 1:00:00 AM -0.05 31.91 0.127 7.14 2.16 14.05
12/19/2020 1:15:00 AM -0.05 31.91 0.127 7.14 1.97 14.04
12/19/2020 1:30:00 AM -0.05 31.91 0.127 7.14 1.95 14.03
12/19/2020 1:45:00 AM -0.05 31.91 0.127 7.13 1.95 14.03
12/19/2020 2:00:00 AM -0.05 31.91 0.127 7.13 1.96 14.02
12/19/2020 2:15:00 AM -0.05 31.91 0.127 7.12 1.91 14.01
12/19/2020 2:30:00 AM -0.05 31.91 0.127 7.12 1.9 14.01
12/19/2020 2:45:00 AM -0.05 31.91 0.128 7.12 2.03 14
12/19/2020 3:00:00 AM -0.05 31.91 0.128 7.12 1.94 14
12/19/2020 3:15:00 AM -0.05 31.91 0.128 7.11 2.02 13.99
12/19/2020 3:30:00 AM -0.05 31.91 0.128 7.11 1.93 13.99
12/19/2020 3:45:00 AM -0.05 31.91 0.128 7.11 1.89 13.98
12/19/2020 4:00:00 AM -0.05 31.91 0.128 7.1 1.94 13.98
12/19/2020 4:15:00 AM -0.05 31.91 0.128 7.1 1.95 13.97
12/19/2020 4:30:00 AM -0.05 31.91 0.128 7.09 1.96 13.97
12/19/2020 4:45:00 AM -0.05 31.91 0.128 7.09 1.98 13.96
12/19/2020 5:00:00 AM -0.05 31.91 0.129 7.09 1.99 13.96
12/19/2020 5:15:00 AM -0.05 31.91 0.129 7.09 1.94 13.95
12/19/2020 5:30:00 AM -0.05 31.91 0.129 7.09 1.92 13.95
12/19/2020 5:45:00 AM -0.05 31.91 0.129 7.09 1.92 13.94
12/19/2020 6:00:00 AM -0.05 31.91 0.129 7.08 1.88 13.94
12/19/2020 6:15:00 AM -0.05 31.91 0.129 7.08 1.91 13.93
12/19/2020 6:30:00 AM -0.05 31.91 0.129 7.08 2.03 13.93
12/19/2020 6:45:00 AM -0.04 31.928 0.13 7.08 1.99 13.92
12/19/2020 7:00:00 AM -0.04 31.928 0.13 7.07 2 13.91
12/19/2020 7:15:00 AM -0.04 31.928 0.13 7.08 1.98 13.91
12/19/2020 7:30:00 AM -0.04 31.928 0.13 7.07 1.91 13.91
12/19/2020 7:45:00 AM -0.04 31.928 0.13 7.07 1.95 13.93
12/19/2020 8:00:00 AM -0.04 31.928 0.13 7.08 1.95 13.98
12/19/2020 8:15:00 AM -0.04 31.928 0.13 7.08 1.94 14.06
12/19/2020 8:30:00 AM -0.03 31.946 0.13 7.1 1.9 14.15
12/19/2020 8:45:00 AM -0.03 31.946 0.13 7.11 1.94 14.26
12/19/2020 9:00:00 AM -0.02 31.964 0.13 7.12 1.91 14.39
12/19/2020 9:15:00 AM -0.02 31.964 0.13 7.14 1.87 14.49
12/19/2020 9:30:00 AM -0.01 31.982 0.13 7.16 1.86 14.6
12/19/2020 9:45:00 AM 0 32 0.13 7.18 1.9 14.72
12/19/2020 10:00:00 AM 0 32 0.13 7.19 1.89 14.8
12/19/2020 10:15:00 AM 0 32 0.129 7.21 1.95 14.88
12/19/2020 10:30:00 AM 0.01 32.018 0.129 7.23 1.96 14.97
12/19/2020 10:45:00 AM 0.01 32.018 0.129 7.26 1.93 15.06
12/19/2020 11:00:00 AM 0.02 32.036 0.129 7.28 1.95 15.14
12/19/2020 11:15:00 AM 0.02 32.036 0.129 7.3 2.03 15.2
12/19/2020 11:30:00 AM 0.03 32.054 0.129 7.32 2.01 15.28
12/19/2020 11:45:00 AM 0.03 32.054 0.128 7.34 1.9 15.34
12/19/2020 12:00:00 PM 0.04 32.072 0.128 7.36 1.89 15.4
12/19/2020 12:15:00 PM 0.05 32.09 0.128 7.37 1.93 15.45
12/19/2020 12:30:00 PM 0.05 32.09 0.128 7.39 1.98 15.48
12/19/2020 12:45:00 PM 0.04 32.072 0.128 7.41 1.96 15.51
12/19/2020 1:00:00 PM 0.04 32.072 0.128 7.42 2.02 15.54
12/19/2020 1:15:00 PM 0.04 32.072 0.127 7.45 2.01 15.57
12/19/2020 1:30:00 PM 0.04 32.072 0.127 7.47 1.94 15.59
12/19/2020 1:45:00 PM 0.04 32.072 0.127 7.49 1.94 15.6
12/19/2020 2:00:00 PM 0.03 32.054 0.127 7.51 1.93 15.61
12/19/2020 2:15:00 PM 0.03 32.054 0.127 7.52 1.94 15.61
12/19/2020 2:30:00 PM 0.02 32.036 0.127 7.53 1.93 15.61
12/19/2020 2:45:00 PM 0.02 32.036 0.127 7.54 1.99 15.6
12/19/2020 3:00:00 PM 0.01 32.018 0.127 7.54 1.94 15.58
12/19/2020 3:15:00 PM 0.01 32.018 0.127 7.55 2.01 15.58
12/19/2020 3:30:00 PM 0.01 32.018 0.127 7.56 2.01 15.56
12/19/2020 3:45:00 PM 0 32 0.127 7.55 2.01 15.52
12/19/2020 4:00:00 PM -0.01 31.982 0.127 7.54 1.99 15.44
12/19/2020 4:15:00 PM -0.02 31.964 0.127 7.52 1.99 15.36
12/19/2020 4:30:00 PM -0.02 31.964 0.127 7.49 2 15.25
12/19/2020 4:45:00 PM -0.03 31.946 0.127 7.47 1.99 15.14
12/19/2020 5:00:00 PM -0.03 31.946 0.127 7.44 1.88 15.04
12/19/2020 5:15:00 PM -0.03 31.946 0.127 7.42 1.96 14.94
12/19/2020 5:30:00 PM -0.03 31.946 0.127 7.4 1.91 14.85
12/19/2020 5:45:00 PM -0.03 31.946 0.127 7.38 1.99 14.78
12/19/2020 6:00:00 PM -0.03 31.946 0.128 7.35 1.92 14.71
12/19/2020 6:15:00 PM -0.03 31.946 0.128 7.34 1.93 14.64
12/19/2020 6:30:00 PM -0.03 31.946 0.128 7.32 2.03 14.57
12/19/2020 6:45:00 PM -0.04 31.928 0.128 7.31 1.95 14.52
12/19/2020 7:00:00 PM -0.04 31.928 0.128 7.29 1.85 14.47
12/19/2020 7:15:00 PM -0.04 31.928 0.128 7.28 1.9 14.42
12/19/2020 7:30:00 PM -0.04 31.928 0.128 7.27 1.93 14.39
12/19/2020 7:45:00 PM -0.04 31.928 0.128 7.26 1.85 14.35
12/19/2020 8:00:00 PM -0.04 31.928 0.128 7.25 1.83 14.32
12/19/2020 8:15:00 PM -0.04 31.928 0.129 7.24 1.85 14.29
12/19/2020 8:30:00 PM -0.04 31.928 0.129 7.24 1.86 14.26
12/19/2020 8:45:00 PM -0.04 31.928 0.129 7.22 1.82 14.24
12/19/2020 9:00:00 PM -0.04 31.928 0.129 7.22 1.87 14.22
12/19/2020 9:15:00 PM -0.04 31.928 0.129 7.21 1.9 14.19
12/19/2020 9:30:00 PM -0.04 31.928 0.129 7.2 1.85 14.17
12/19/2020 9:45:00 PM -0.04 31.928 0.129 7.2 1.85 14.15
12/19/2020 10:00:00 PM -0.04 31.928 0.129 7.19 1.85 14.13
12/19/2020 10:15:00 PM -0.04 31.928 0.129 7.19 1.97 14.11
12/19/2020 10:30:00 PM -0.04 31.928 0.129 7.18 1.79 14.09
12/19/2020 10:45:00 PM -0.04 31.928 0.13 7.18 1.76 14.07
12/19/2020 11:00:00 PM -0.04 31.928 0.13 7.17 1.8 14.05
12/19/2020 11:15:00 PM -0.04 31.928 0.13 7.17 1.77 14.03
12/19/2020 11:30:00 PM -0.03 31.946 0.13 7.16 1.76 14.01
12/19/2020 11:45:00 PM -0.03 31.946 0.13 7.16 1.82 13.99
12/20/2020 12:00:00 AM -0.03 31.946 0.13 7.16 1.78 13.98
12/20/2020 12:15:00 AM -0.03 31.946 0.13 7.15 1.78 13.96
12/20/2020 12:30:00 AM -0.03 31.946 0.13 7.15 1.81 13.94
12/20/2020 12:45:00 AM -0.03 31.946 0.13 7.14 1.8 13.93
12/20/2020 1:00:00 AM -0.03 31.946 0.13 7.14 1.82 13.91
12/20/2020 1:15:00 AM -0.03 31.946 0.13 7.13 1.76 13.9
12/20/2020 1:30:00 AM -0.03 31.946 0.13 7.13 1.84 13.88
12/20/2020 1:45:00 AM -0.03 31.946 0.13 7.13 1.8 13.87
12/20/2020 2:00:00 AM -0.03 31.946 0.13 7.13 1.86 13.86
12/20/2020 2:15:00 AM -0.03 31.946 0.13 7.12 1.79 13.85
12/20/2020 2:30:00 AM -0.03 31.946 0.13 7.12 1.76 13.84
12/20/2020 2:45:00 AM -0.03 31.946 0.13 7.12 1.83 13.83
12/20/2020 3:00:00 AM -0.03 31.946 0.13 7.12 1.78 13.82
12/20/2020 3:15:00 AM -0.03 31.946 0.13 7.12 1.82 13.81
12/20/2020 3:30:00 AM -0.03 31.946 0.13 7.11 1.79 13.8
12/20/2020 3:45:00 AM -0.03 31.946 0.13 7.11 1.82 13.8
12/20/2020 4:00:00 AM -0.03 31.946 0.13 7.11 1.8 13.79
12/20/2020 4:15:00 AM -0.03 31.946 0.13 7.11 1.82 13.78
12/20/2020 4:30:00 AM -0.03 31.946 0.13 7.1 1.81 13.78
12/20/2020 4:45:00 AM -0.03 31.946 0.13 7.1 1.75 13.77
12/20/2020 5:00:00 AM -0.03 31.946 0.13 7.09 1.79 13.76
12/20/2020 5:15:00 AM -0.03 31.946 0.13 7.1 1.89 13.75
12/20/2020 5:30:00 AM -0.03 31.946 0.129 7.1 1.79 13.75
12/20/2020 5:45:00 AM -0.03 31.946 0.129 7.09 1.82 13.74
12/20/2020 6:00:00 AM -0.03 31.946 0.129 7.09 1.81 13.73
12/20/2020 6:15:00 AM -0.03 31.946 0.129 7.09 1.81 13.73
12/20/2020 6:30:00 AM -0.03 31.946 0.129 7.09 1.77 13.73
12/20/2020 6:45:00 AM -0.03 31.946 0.129 7.09 1.79 13.72
12/20/2020 7:00:00 AM -0.03 31.946 0.129 7.09 1.82 13.72
12/20/2020 7:15:00 AM -0.02 31.964 0.129 7.09 1.82 13.72
12/20/2020 7:30:00 AM -0.02 31.964 0.129 7.08 1.81 13.72
12/20/2020 7:45:00 AM -0.02 31.964 0.129 7.08 1.78 13.73
12/20/2020 8:00:00 AM -0.02 31.964 0.129 7.09 1.74 13.76
12/20/2020 8:15:00 AM -0.02 31.964 0.129 7.1 1.77 13.82
12/20/2020 8:30:00 AM -0.01 31.982 0.129 7.1 1.81 13.85
12/20/2020 8:45:00 AM -0.01 31.982 0.129 7.12 1.83 13.93
12/20/2020 9:00:00 AM -0.01 31.982 0.129 7.12 1.76 13.98
12/20/2020 9:15:00 AM 0 32 0.129 7.14 1.83 14.08
12/20/2020 9:30:00 AM 0.01 32.018 0.129 7.16 1.76 14.19
12/20/2020 9:45:00 AM 0.01 32.018 0.129 7.17 1.81 14.27
12/20/2020 10:00:00 AM 0.01 32.018 0.129 7.17 1.83 14.33
12/20/2020 10:15:00 AM 0.01 32.018 0.129 7.19 1.8 14.38
12/20/2020 10:30:00 AM 0.02 32.036 0.128 7.21 1.83 14.49
12/20/2020 10:45:00 AM 0.02 32.036 0.128 7.23 1.82 14.57
12/20/2020 11:00:00 AM 0.02 32.036 0.128 7.24 1.86 14.63
12/20/2020 11:15:00 AM 0.01 32.018 0.128 7.26 1.83 14.66
12/20/2020 11:30:00 AM 0.01 32.018 0.128 7.27 1.82 14.68
12/20/2020 11:45:00 AM 0.01 32.018 0.128 7.28 1.8 14.71
12/20/2020 12:00:00 PM 0.01 32.018 0.128 7.3 1.81 14.74
12/20/2020 12:15:00 PM 0.01 32.018 0.128 7.31 1.78 14.78
12/20/2020 12:30:00 PM 0.02 32.036 0.128 7.33 1.84 14.83
12/20/2020 12:45:00 PM 0.03 32.054 0.128 7.34 1.85 14.9
12/20/2020 1:00:00 PM 0.03 32.054 0.128 7.36 1.81 14.92
12/20/2020 1:15:00 PM 0.02 32.036 0.127 7.36 1.82 14.94
12/20/2020 1:30:00 PM 0.02 32.036 0.127 7.38 1.8 14.95
12/20/2020 1:45:00 PM 0.02 32.036 0.127 7.38 1.79 14.96
12/20/2020 2:00:00 PM 0.01 32.018 0.127 7.39 1.81 14.94
12/20/2020 2:15:00 PM 0.01 32.018 0.127 7.39 1.8 14.91
12/20/2020 2:30:00 PM 0.01 32.018 0.127 7.4 1.86 14.9
12/20/2020 2:45:00 PM 0.01 32.018 0.127 7.4 1.89 14.9
12/20/2020 3:00:00 PM 0.01 32.018 0.127 7.4 1.83 14.87
12/20/2020 3:15:00 PM 0.01 32.018 0.127 7.4 1.83 14.82
12/20/2020 3:30:00 PM 0 32 0.127 7.39 1.83 14.77
12/20/2020 3:45:00 PM 0 32 0.127 7.38 1.85 14.72
12/20/2020 4:00:00 PM 0 32 0.127 7.36 1.86 14.65
12/20/2020 4:15:00 PM 0 32 0.127 7.35 1.84 14.58
12/20/2020 4:30:00 PM 0 32 0.127 7.34 1.83 14.51
12/20/2020 4:45:00 PM -0.01 31.982 0.127 7.32 1.88 14.44
12/20/2020 5:00:00 PM -0.01 31.982 0.127 7.31 1.85 14.38
12/20/2020 5:15:00 PM -0.01 31.982 0.127 7.3 1.87 14.32
12/20/2020 5:30:00 PM -0.01 31.982 0.127 7.28 1.84 14.26
12/20/2020 5:45:00 PM -0.01 31.982 0.127 7.27 1.81 14.21
12/20/2020 6:00:00 PM -0.01 31.982 0.127 7.26 1.86 14.17
12/20/2020 6:15:00 PM -0.01 31.982 0.127 7.25 1.85 14.13
12/20/2020 6:30:00 PM -0.01 31.982 0.127 7.24 1.82 14.09
12/20/2020 6:45:00 PM -0.01 31.982 0.127 7.23 1.86 14.05
12/20/2020 7:00:00 PM -0.01 31.982 0.127 7.22 1.79 14.02
12/20/2020 7:15:00 PM -0.01 31.982 0.127 7.21 1.84 13.99
12/20/2020 7:30:00 PM -0.01 31.982 0.127 7.21 1.81 13.96
12/20/2020 7:45:00 PM -0.01 31.982 0.127 7.2 1.77 13.93
12/20/2020 8:00:00 PM -0.01 31.982 0.127 7.2 1.84 13.91
12/20/2020 8:15:00 PM -0.01 31.982 0.127 7.19 1.78 13.89
12/20/2020 8:30:00 PM -0.01 31.982 0.127 7.18 1.83 13.87
12/20/2020 8:45:00 PM -0.01 31.982 0.127 7.17 1.82 13.85
12/20/2020 9:00:00 PM -0.01 31.982 0.127 7.17 2.03 13.83
12/20/2020 9:15:00 PM -0.01 31.982 0.127 7.16 1.86 13.82
12/20/2020 9:30:00 PM -0.01 31.982 0.127 7.16 1.8 13.8
12/20/2020 9:45:00 PM -0.01 31.982 0.127 7.16 1.75 13.79
12/20/2020 10:00:00 PM -0.01 31.982 0.127 7.15 1.81 13.78
12/20/2020 10:15:00 PM -0.01 31.982 0.127 7.15 1.77 13.77
12/20/2020 10:30:00 PM -0.01 31.982 0.127 7.14 1.79 13.75
12/20/2020 10:45:00 PM -0.01 31.982 0.127 7.13 1.77 13.75
12/20/2020 11:00:00 PM -0.01 31.982 0.127 7.14 1.79 13.74
12/20/2020 11:15:00 PM -0.01 31.982 0.127 7.14 1.79 13.73
12/20/2020 11:30:00 PM -0.01 31.982 0.127 7.13 1.77 13.72
12/20/2020 11:45:00 PM -0.01 31.982 0.127 7.13 1.77 13.71
12/21/2020 12:00:00 AM -0.01 31.982 0.127 7.12 1.8 13.71
12/21/2020 12:15:00 AM -0.01 31.982 0.127 7.12 1.81 13.7
12/21/2020 12:30:00 AM -0.01 31.982 0.127 7.12 1.78 13.69
12/21/2020 12:45:00 AM -0.01 31.982 0.127 7.11 1.89 13.69
12/21/2020 1:00:00 AM 0 32 0.127 7.11 1.77 13.68
12/21/2020 1:15:00 AM -0.01 31.982 0.127 7.11 1.82 13.68
12/21/2020 1:30:00 AM -0.01 31.982 0.127 7.11 1.77 13.68
12/21/2020 1:45:00 AM -0.01 31.982 0.127 7.11 1.78 13.67
12/21/2020 2:00:00 AM -0.01 31.982 0.127 7.1 1.8 13.67
12/21/2020 2:15:00 AM -0.01 31.982 0.127 7.1 1.83 13.67
12/21/2020 2:30:00 AM -0.01 31.982 0.127 7.1 1.76 13.67
12/21/2020 2:45:00 AM -0.01 31.982 0.127 7.1 1.76 13.67
12/21/2020 3:00:00 AM -0.01 31.982 0.127 7.1 1.78 13.66
12/21/2020 3:15:00 AM -0.01 31.982 0.126 7.1 1.76 13.66
12/21/2020 3:30:00 AM -0.01 31.982 0.126 7.1 1.76 13.66
12/21/2020 3:45:00 AM -0.01 31.982 0.126 7.09 1.77 13.66
12/21/2020 4:00:00 AM -0.02 31.964 0.126 7.09 1.78 13.66
12/21/2020 4:15:00 AM -0.02 31.964 0.126 7.09 1.79 13.66
12/21/2020 4:30:00 AM -0.03 31.946 0.126 7.09 1.82 13.67
12/21/2020 4:45:00 AM -0.03 31.946 0.126 7.09 1.8 13.67
12/21/2020 5:00:00 AM -0.03 31.946 0.126 7.09 1.74 13.67
12/21/2020 5:15:00 AM -0.02 31.964 0.126 7.09 1.85 13.67
12/21/2020 5:30:00 AM -0.02 31.964 0.126 7.09 1.85 13.67
12/21/2020 5:45:00 AM -0.02 31.964 0.126 7.09 1.75 13.67
12/21/2020 6:00:00 AM -0.02 31.964 0.126 7.08 1.76 13.67
12/21/2020 6:15:00 AM -0.02 31.964 0.126 7.08 1.79 13.67
12/21/2020 6:30:00 AM -0.02 31.964 0.126 7.09 1.83 13.67
12/21/2020 6:45:00 AM -0.02 31.964 0.126 7.08 1.79 13.67
12/21/2020 7:00:00 AM -0.02 31.964 0.126 7.09 1.77 13.67
12/21/2020 7:15:00 AM -0.02 31.964 0.126 7.08 1.86 13.68
12/21/2020 7:30:00 AM -0.02 31.964 0.126 7.09 1.8 13.68
12/21/2020 7:45:00 AM -0.02 31.964 0.126 7.09 1.76 13.7
12/21/2020 8:00:00 AM -0.01 31.982 0.126 7.09 1.77 13.74
12/21/2020 8:15:00 AM 0 32 0.126 7.1 1.72 13.83
12/21/2020 8:30:00 AM 0 32 0.126 7.12 1.73 13.91
12/21/2020 8:45:00 AM 0.01 32.018 0.126 7.13 1.73 14
12/21/2020 9:00:00 AM 0.03 32.054 0.126 7.16 1.75 14.16
12/21/2020 9:15:00 AM 0.03 32.054 0.126 7.16 1.74 14.2
12/21/2020 9:30:00 AM 0.04 32.072 0.126 7.19 1.76 14.33
12/21/2020 9:45:00 AM 0.05 32.09 0.126 7.21 1.75 14.42
12/21/2020 10:00:00 AM 0.08 32.144 0.126 7.23 1.78 14.52
12/21/2020 10:15:00 AM 0.09 32.162 0.125 7.26 1.75 14.61
12/21/2020 10:30:00 AM 0.09 32.162 0.125 7.28 1.71 14.69
12/21/2020 10:45:00 AM 0.1 32.18 0.125 7.3 1.77 14.76
12/21/2020 11:00:00 AM 0.1 32.18 0.125 7.32 1.76 14.82
12/21/2020 11:15:00 AM 0.11 32.198 0.125 7.34 1.75 14.89
12/21/2020 11:30:00 AM 0.12 32.216 0.124 7.37 1.74 14.95
12/21/2020 11:45:00 AM 0.13 32.234 0.124 7.39 1.79 15
12/21/2020 12:00:00 PM 0.13 32.234 0.124 7.41 1.76 15.03
12/21/2020 12:15:00 PM 0.13 32.234 0.124 7.43 1.81 15.06
12/21/2020 12:30:00 PM 0.12 32.216 0.124 7.45 1.76 15.07
12/21/2020 12:45:00 PM 0.12 32.216 0.124 7.46 1.79 15.08
12/21/2020 1:00:00 PM 0.11 32.198 0.124 7.48 1.73 15.09
12/21/2020 1:15:00 PM 0.1 32.18 0.123 7.49 1.73 15.07
12/21/2020 1:30:00 PM 0.1 32.18 0.123 7.5 1.78 15.07
12/21/2020 1:45:00 PM 0.1 32.18 0.123 7.51 2.01 15.06
12/21/2020 2:00:00 PM 0.1 32.18 0.123 7.52 1.73 15.07
12/21/2020 2:15:00 PM 0.11 32.198 0.123 7.53 1.75 15.08
12/21/2020 2:30:00 PM 0.1 32.18 0.123 7.54 1.74 15.07
12/21/2020 2:45:00 PM 0.09 32.162 0.123 7.54 1.72 15.05
12/21/2020 3:00:00 PM 0.09 32.162 0.123 7.55 1.76 15.02
12/21/2020 3:15:00 PM 0.08 32.144 0.122 7.55 1.74 15.01
12/21/2020 3:30:00 PM 0.08 32.144 0.122 7.55 1.79 14.98
12/21/2020 3:45:00 PM 0.06 32.108 0.122 7.54 1.73 14.91
12/21/2020 4:00:00 PM 0.05 32.09 0.122 7.52 1.76 14.85
12/21/2020 4:15:00 PM 0.04 32.072 0.122 7.49 1.75 14.75
12/21/2020 4:30:00 PM 0.03 32.054 0.122 7.47 1.72 14.66
12/21/2020 4:45:00 PM 0.03 32.054 0.123 7.44 1.78 14.55
12/21/2020 5:00:00 PM 0.02 32.036 0.123 7.41 1.8 14.46
12/21/2020 5:15:00 PM 0.02 32.036 0.123 7.39 1.93 14.38
12/21/2020 5:30:00 PM 0.02 32.036 0.123 7.36 1.84 14.3
12/21/2020 5:45:00 PM 0.02 32.036 0.123 7.34 1.92 14.24
12/21/2020 6:00:00 PM 0.01 32.018 0.123 7.33 1.78 14.17
12/21/2020 6:15:00 PM 0.01 32.018 0.123 7.31 1.84 14.12
12/21/2020 6:30:00 PM 0.01 32.018 0.123 7.29 1.81 14.07
12/21/2020 6:45:00 PM 0.01 32.018 0.123 7.28 1.75 14.02
12/21/2020 7:00:00 PM 0.01 32.018 0.123 7.27 1.78 13.99
12/21/2020 7:15:00 PM 0.01 32.018 0.123 7.26 1.73 13.95
12/21/2020 7:30:00 PM 0.01 32.018 0.123 7.24 1.77 13.92
12/21/2020 7:45:00 PM 0.01 32.018 0.123 7.23 1.7 13.9
12/21/2020 8:00:00 PM 0.01 32.018 0.123 7.23 1.74 13.87
12/21/2020 8:15:00 PM 0.01 32.018 0.123 7.22 1.8 13.85
12/21/2020 8:30:00 PM 0.01 32.018 0.123 7.21 1.77 13.83
12/21/2020 8:45:00 PM 0.01 32.018 0.123 7.2 1.79 13.81
12/21/2020 9:00:00 PM 0.01 32.018 0.123 7.2 1.75 13.79
12/21/2020 9:15:00 PM 0.01 32.018 0.123 7.19 1.76 13.78
12/21/2020 9:30:00 PM 0.01 32.018 0.123 7.19 1.77 13.76
12/21/2020 9:45:00 PM 0.01 32.018 0.123 7.18 1.74 13.75
12/21/2020 10:00:00 PM 0.01 32.018 0.123 7.18 1.79 13.73
12/21/2020 10:15:00 PM 0.01 32.018 0.123 7.17 1.83 13.72
12/21/2020 10:30:00 PM 0.01 32.018 0.123 7.17 1.78 13.71
12/21/2020 10:45:00 PM 0.01 32.018 0.123 7.17 1.78 13.7
12/21/2020 11:00:00 PM 0.01 32.018 0.123 7.16 1.81 13.69
12/21/2020 11:15:00 PM 0.01 32.018 0.123 7.15 1.77 13.68
12/21/2020 11:30:00 PM 0.01 32.018 0.123 7.15 1.77 13.67
12/21/2020 11:45:00 PM 0.01 32.018 0.123 7.15 1.79 13.66
12/22/2020 12:00:00 AM 0.01 32.018 0.123 7.14 1.74 13.66
12/22/2020 12:15:00 AM 0.01 32.018 0.123 7.14 1.75 13.65
12/22/2020 12:30:00 AM 0.01 32.018 0.123 7.14 1.74 13.65
12/22/2020 12:45:00 AM 0.01 32.018 0.123 7.14 1.79 13.64
12/22/2020 1:00:00 AM 0.01 32.018 0.123 7.14 1.79 13.64
12/22/2020 1:15:00 AM 0.01 32.018 0.123 7.13 1.77 13.63
12/22/2020 1:30:00 AM 0.01 32.018 0.123 7.13 1.77 13.63
12/22/2020 1:45:00 AM 0.01 32.018 0.123 7.13 1.76 13.62
12/22/2020 2:00:00 AM 0.01 32.018 0.123 7.13 1.78 13.62
12/22/2020 2:15:00 AM 0.01 32.018 0.123 7.12 1.78 13.62
12/22/2020 2:30:00 AM 0.01 32.018 0.123 7.13 1.76 13.62
12/22/2020 2:45:00 AM 0.01 32.018 0.123 7.12 1.83 13.61
12/22/2020 3:00:00 AM 0.01 32.018 0.122 7.12 1.75 13.61
12/22/2020 3:15:00 AM 0.01 32.018 0.122 7.12 1.81 13.61
12/22/2020 3:30:00 AM 0.01 32.018 0.122 7.11 1.82 13.61
12/22/2020 3:45:00 AM 0.01 32.018 0.122 7.11 1.76 13.61
12/22/2020 4:00:00 AM 0.01 32.018 0.122 7.11 1.76 13.61
12/22/2020 4:15:00 AM 0.01 32.018 0.122 7.11 1.78 13.61
12/22/2020 4:30:00 AM 0.01 32.018 0.122 7.11 1.83 13.61
12/22/2020 4:45:00 AM 0.01 32.018 0.122 7.1 1.75 13.61
12/22/2020 5:00:00 AM 0.01 32.018 0.122 7.11 1.76 13.61
12/22/2020 5:15:00 AM 0.01 32.018 0.122 7.11 1.78 13.61
12/22/2020 5:30:00 AM 0.01 32.018 0.122 7.1 1.77 13.61
12/22/2020 5:45:00 AM 0 32 0.122 7.1 1.87 13.61
12/22/2020 6:00:00 AM 0 32 0.122 7.1 1.84 13.61
12/22/2020 6:15:00 AM 0 32 0.122 7.1 1.81 13.61
12/22/2020 6:30:00 AM 0.01 32.018 0.122 7.1 1.85 13.61
12/22/2020 6:45:00 AM 0.01 32.018 0.122 7.1 1.81 13.62
12/22/2020 7:00:00 AM 0.01 32.018 0.122 7.1 1.84 13.62
12/22/2020 7:15:00 AM 0.01 32.018 0.122 7.09 1.78 13.62
12/22/2020 7:30:00 AM 0.01 32.018 0.122 7.1 1.77 13.63
12/22/2020 7:45:00 AM 0.01 32.018 0.122 7.1 1.82 13.64
12/22/2020 8:00:00 AM 0.02 32.036 0.122 7.11 1.78 13.68
12/22/2020 8:15:00 AM 0.02 32.036 0.122 7.11 1.73 13.76
12/22/2020 8:30:00 AM 0.03 32.054 0.122 7.13 1.77 13.85
12/22/2020 8:45:00 AM 0.05 32.09 0.122 7.15 1.81 14
12/22/2020 9:00:00 AM 0.05 32.09 0.122 7.16 1.74 14.05
12/22/2020 9:15:00 AM 0.05 32.09 0.122 7.17 1.77 14.09
12/22/2020 9:30:00 AM 0.05 32.09 0.122 7.19 1.78 14.17
12/22/2020 9:45:00 AM 0.06 32.108 0.122 7.21 1.79 14.25
12/22/2020 10:00:00 AM 0.09 32.162 0.121 7.23 1.74 14.36
12/22/2020 10:15:00 AM 0.09 32.162 0.121 7.25 1.75 14.43
12/22/2020 10:30:00 AM 0.11 32.198 0.121 7.27 1.78 14.53
12/22/2020 10:45:00 AM 0.13 32.234 0.121 7.3 1.77 14.61
12/22/2020 11:00:00 AM 0.14 32.252 0.121 7.32 1.83 14.67
12/22/2020 11:15:00 AM 0.16 32.288 0.121 7.35 1.78 14.75
12/22/2020 11:30:00 AM 0.18 32.324 0.12 7.37 1.81 14.8
12/22/2020 11:45:00 AM 0.19 32.342 0.12 7.39 1.84 14.85
12/22/2020 12:00:00 PM 0.19 32.342 0.12 7.41 1.83 14.89
12/22/2020 12:15:00 PM 0.23 32.414 0.12 7.44 1.79 14.92
12/22/2020 12:30:00 PM 0.21 32.378 0.12 7.45 1.81 14.92
12/22/2020 12:45:00 PM 0.2 32.36 0.119 7.47 1.86 14.94
12/22/2020 1:00:00 PM 0.19 32.342 0.119 7.47 1.81 14.94
12/22/2020 1:15:00 PM 0.18 32.324 0.119 7.49 1.8 14.93
12/22/2020 1:30:00 PM 0.18 32.324 0.119 7.5 1.81 14.94
12/22/2020 1:45:00 PM 0.17 32.306 0.119 7.52 1.81 14.94
12/22/2020 2:00:00 PM 0.19 32.342 0.119 7.53 1.79 14.95
12/22/2020 2:15:00 PM 0.21 32.378 0.119 7.55 1.86 14.97
12/22/2020 2:30:00 PM 0.21 32.378 0.119 7.56 1.8 14.96
12/22/2020 2:45:00 PM 0.19 32.342 0.119 7.55 1.8 14.94
12/22/2020 3:00:00 PM 0.18 32.324 0.119 7.56 1.85 14.92
12/22/2020 3:15:00 PM 0.17 32.306 0.119 7.56 1.79 14.92
12/22/2020 3:30:00 PM 0.15 32.27 0.119 7.54 1.86 14.84
12/22/2020 3:45:00 PM 0.14 32.252 0.119 7.53 1.8 14.76
12/22/2020 4:00:00 PM 0.13 32.234 0.119 7.49 1.76 14.68
12/22/2020 4:15:00 PM 0.12 32.216 0.119 7.48 1.79 14.63
12/22/2020 4:30:00 PM 0.11 32.198 0.119 7.46 1.85 14.54
12/22/2020 4:45:00 PM 0.11 32.198 0.12 7.43 1.79 14.46
12/22/2020 5:00:00 PM 0.1 32.18 0.12 7.4 1.82 14.38
12/22/2020 5:15:00 PM 0.09 32.162 0.12 7.38 1.86 14.31
12/22/2020 5:30:00 PM 0.08 32.144 0.12 7.36 1.85 14.26
12/22/2020 5:45:00 PM 0.08 32.144 0.12 7.34 1.83 14.21
12/22/2020 6:00:00 PM 0.07 32.126 0.12 7.32 1.85 14.16
12/22/2020 6:15:00 PM 0.07 32.126 0.12 7.31 2.01 14.13
12/22/2020 6:30:00 PM 0.07 32.126 0.12 7.29 1.92 14.1
12/22/2020 6:45:00 PM 0.07 32.126 0.12 7.29 1.93 14.07
12/22/2020 7:00:00 PM 0.07 32.126 0.121 7.28 1.89 14.04
12/22/2020 7:15:00 PM 0.07 32.126 0.121 7.27 1.88 14.02
12/22/2020 7:30:00 PM 0.07 32.126 0.121 7.26 1.87 14
12/22/2020 7:45:00 PM 0.07 32.126 0.121 7.25 1.87 13.99
12/22/2020 8:00:00 PM 0.07 32.126 0.121 7.24 1.81 13.97
12/22/2020 8:15:00 PM 0.07 32.126 0.121 7.24 1.86 13.96
12/22/2020 8:30:00 PM 0.07 32.126 0.121 7.23 1.86 13.95
12/22/2020 8:45:00 PM 0.08 32.144 0.121 7.23 1.87 13.94
12/22/2020 9:00:00 PM 0.08 32.144 0.121 7.23 1.85 13.93
12/22/2020 9:15:00 PM 0.08 32.144 0.121 7.22 2.07 13.92
12/22/2020 9:30:00 PM 0.08 32.144 0.121 7.21 1.84 13.91
12/22/2020 9:45:00 PM 0.07 32.126 0.121 7.21 1.89 13.91
12/22/2020 10:00:00 PM 0.07 32.126 0.122 7.21 1.87 13.9
12/22/2020 10:15:00 PM 0.08 32.144 0.122 7.21 1.91 13.9
12/22/2020 10:30:00 PM 0.08 32.144 0.122 7.2 1.82 13.89
12/22/2020 10:45:00 PM 0.08 32.144 0.122 7.19 1.9 13.89
12/22/2020 11:00:00 PM 0.08 32.144 0.122 7.2 1.88 13.89
12/22/2020 11:15:00 PM 0.07 32.126 0.122 7.19 1.88 13.89
12/22/2020 11:30:00 PM 0.07 32.126 0.122 7.19 1.92 13.89
12/22/2020 11:45:00 PM 0.06 32.108 0.122 7.19 1.88 13.89
12/23/2020 12:00:00 AM 0.05 32.09 0.122 7.19 1.81 13.89
12/23/2020 12:15:00 AM 0.05 32.09 0.122 7.18 1.89 13.9
12/23/2020 12:30:00 AM 0.04 32.072 0.122 7.18 1.87 13.9
12/23/2020 12:45:00 AM 0.04 32.072 0.122 7.17 1.91 13.91
12/23/2020 1:00:00 AM 0.03 32.054 0.122 7.18 1.85 13.91
12/23/2020 1:15:00 AM 0.02 32.036 0.122 7.18 1.87 13.91
12/23/2020 1:30:00 AM 0.02 32.036 0.122 7.17 1.89 13.92
12/23/2020 1:45:00 AM 0.01 32.018 0.122 7.17 1.85 13.92
12/23/2020 2:00:00 AM 0 32 0.123 7.16 1.87 13.93
12/23/2020 2:15:00 AM 0 32 0.123 7.16 2.02 13.94
12/23/2020 2:30:00 AM 0 32 0.123 7.16 1.96 13.95
12/23/2020 2:45:00 AM 0 32 0.123 7.15 1.9 13.95
12/23/2020 3:00:00 AM 0 32 0.123 7.15 1.88 13.95
12/23/2020 3:15:00 AM 0 32 0.123 7.15 1.95 13.96
12/23/2020 3:30:00 AM 0.01 32.018 0.123 7.15 1.89 13.96
12/23/2020 3:45:00 AM 0.01 32.018 0.123 7.15 1.9 13.97
12/23/2020 4:00:00 AM 0.01 32.018 0.123 7.15 1.86 13.97
12/23/2020 4:15:00 AM 0.01 32.018 0.123 7.15 1.97 13.98
12/23/2020 4:30:00 AM 0 32 0.123 7.15 1.94 13.98
12/23/2020 4:45:00 AM 0 32 0.123 7.15 1.88 13.99
12/23/2020 5:00:00 AM -0.01 31.982 0.123 7.15 1.89 14
12/23/2020 5:15:00 AM -0.02 31.964 0.123 7.14 1.95 14
12/23/2020 5:30:00 AM -0.02 31.964 0.123 7.14 1.86 14.01
12/23/2020 5:45:00 AM -0.03 31.946 0.123 7.14 1.89 14.01
12/23/2020 6:00:00 AM -0.04 31.928 0.123 7.13 1.86 14.02
12/23/2020 6:15:00 AM -0.04 31.928 0.123 7.14 1.89 14.02
12/23/2020 6:30:00 AM -0.05 31.91 0.123 7.13 1.86 14.03
12/23/2020 6:45:00 AM -0.05 31.91 0.124 7.13 1.88 14.04
12/23/2020 7:00:00 AM -0.06 31.892 0.124 7.12 1.93 14.04
12/23/2020 7:15:00 AM -0.06 31.892 0.124 7.12 1.92 14.05
12/23/2020 7:30:00 AM -0.07 31.874 0.124 7.13 1.89 14.07
12/23/2020 7:45:00 AM -0.06 31.892 0.124 7.14 1.92 14.13
12/23/2020 8:00:00 AM -0.05 31.91 0.124 7.15 1.97 14.21
12/23/2020 8:15:00 AM -0.05 31.91 0.124 7.16 1.89 14.29
12/23/2020 8:30:00 AM -0.05 31.91 0.124 7.17 1.9 14.36
12/23/2020 8:45:00 AM -0.04 31.928 0.124 7.19 1.87 14.45
12/23/2020 9:00:00 AM -0.02 31.964 0.124 7.2 1.86 14.54
12/23/2020 9:15:00 AM 0 32 0.124 7.22 1.87 14.61
12/23/2020 9:30:00 AM 0.02 32.036 0.124 7.25 1.88 14.68
12/23/2020 9:45:00 AM 0.05 32.09 0.124 7.26 1.9 14.76
12/23/2020 10:00:00 AM 0.09 32.162 0.124 7.29 1.88 14.83
12/23/2020 10:15:00 AM 0.13 32.234 0.124 7.31 1.85 14.89
12/23/2020 10:30:00 AM 0.16 32.288 0.124 7.33 1.91 14.94
12/23/2020 10:45:00 AM 0.19 32.342 0.124 7.36 1.94 14.99
12/23/2020 11:00:00 AM 0.23 32.414 0.124 7.38 1.84 15.04
12/23/2020 11:15:00 AM 0.27 32.486 0.124 7.41 1.87 15.08
12/23/2020 11:30:00 AM 0.31 32.558 0.123 7.42 1.89 15.1
12/23/2020 11:45:00 AM 0.35 32.63 0.123 7.45 1.91 15.13
12/23/2020 12:00:00 PM 0.39 32.702 0.123 7.47 1.89 15.15
12/23/2020 12:15:00 PM 0.43 32.774 0.123 7.49 1.85 15.15
12/23/2020 12:30:00 PM 0.48 32.864 0.122 7.51 1.84 15.15
12/23/2020 12:45:00 PM 0.52 32.936 0.122 7.52 1.83 15.15
12/23/2020 1:00:00 PM 0.52 32.936 0.122 7.53 1.92 15.13
12/23/2020 1:15:00 PM 0.54 32.972 0.122 7.54 1.91 15.12
12/23/2020 1:30:00 PM 0.54 32.972 0.122 7.55 1.9 15.11
12/23/2020 1:45:00 PM 0.54 32.972 0.122 7.55 1.86 15.09
12/23/2020 2:00:00 PM 0.54 32.972 0.122 7.56 1.9 15.07
12/23/2020 2:15:00 PM 0.54 32.972 0.122 7.56 1.88 15.06
12/23/2020 2:30:00 PM 0.53 32.954 0.122 7.57 1.89 15.04
12/23/2020 2:45:00 PM 0.51 32.918 0.122 7.57 1.9 15.02
12/23/2020 3:00:00 PM 0.5 32.9 0.122 7.57 1.92 15.01
12/23/2020 3:15:00 PM 0.5 32.9 0.122 7.57 1.89 14.99
12/23/2020 3:30:00 PM 0.48 32.864 0.122 7.56 1.94 14.96
12/23/2020 3:45:00 PM 0.46 32.828 0.122 7.55 1.86 14.92
12/23/2020 4:00:00 PM 0.44 32.792 0.122 7.54 2.01 14.87
12/23/2020 4:15:00 PM 0.41 32.738 0.122 7.51 1.9 14.8
12/23/2020 4:30:00 PM 0.38 32.684 0.122 7.48 1.86 14.7
12/23/2020 4:45:00 PM 0.36 32.648 0.122 7.45 1.84 14.59
12/23/2020 5:00:00 PM 0.34 32.612 0.122 7.41 1.9 14.5
12/23/2020 5:15:00 PM 0.32 32.576 0.122 7.4 2.16 14.42
12/23/2020 5:30:00 PM 0.3 32.54 0.122 7.36 1.93 14.35
12/23/2020 5:45:00 PM 0.29 32.522 0.122 7.34 2 14.29
12/23/2020 6:00:00 PM 0.28 32.504 0.122 7.32 1.94 14.23
12/23/2020 6:15:00 PM 0.27 32.486 0.123 7.31 1.95 14.19
12/23/2020 6:30:00 PM 0.26 32.468 0.123 7.3 2 14.15
12/23/2020 6:45:00 PM 0.26 32.468 0.123 7.29 1.92 14.12
12/23/2020 7:00:00 PM 0.26 32.468 0.123 7.27 1.97 14.09
12/23/2020 7:15:00 PM 0.25 32.45 0.123 7.26 1.97 14.06
12/23/2020 7:30:00 PM 0.25 32.45 0.123 7.26 1.99 14.04
12/23/2020 7:45:00 PM 0.24 32.432 0.123 7.25 1.96 14.03
12/23/2020 8:00:00 PM 0.24 32.432 0.123 7.24 2 14.01
12/23/2020 8:15:00 PM 0.24 32.432 0.123 7.23 1.94 13.99
12/23/2020 8:30:00 PM 0.24 32.432 0.123 7.23 1.93 13.97
12/23/2020 8:45:00 PM 0.24 32.432 0.123 7.22 1.97 13.96
12/23/2020 9:00:00 PM 0.24 32.432 0.124 7.22 1.93 13.94
12/23/2020 9:15:00 PM 0.24 32.432 0.124 7.21 1.9 13.93
12/23/2020 9:30:00 PM 0.23 32.414 0.124 7.2 1.96 13.92
12/23/2020 9:45:00 PM 0.23 32.414 0.124 7.2 1.95 13.91
12/23/2020 10:00:00 PM 0.24 32.432 0.124 7.2 1.94 13.9
12/23/2020 10:15:00 PM 0.24 32.432 0.124 7.2 1.92 13.89
12/23/2020 10:30:00 PM 0.24 32.432 0.124 7.19 1.93 13.88
12/23/2020 10:45:00 PM 0.24 32.432 0.124 7.19 1.91 13.87
12/23/2020 11:00:00 PM 0.25 32.45 0.124 7.19 1.93 13.86
12/23/2020 11:15:00 PM 0.26 32.468 0.124 7.18 1.91 13.85
12/23/2020 11:30:00 PM 0.25 32.45 0.124 7.18 1.96 13.85
12/23/2020 11:45:00 PM 0.24 32.432 0.124 7.18 1.94 13.85
12/24/2020 12:00:00 AM 0.24 32.432 0.124 7.18 1.92 13.85
12/24/2020 12:15:00 AM 0.24 32.432 0.125 7.17 2 13.84
12/24/2020 12:30:00 AM 0.23 32.414 0.125 7.17 1.95 13.84
12/24/2020 12:45:00 AM 0.24 32.432 0.125 7.17 1.96 13.84
12/24/2020 1:00:00 AM 0.25 32.45 0.125 7.17 2.01 13.83
12/24/2020 1:15:00 AM 0.25 32.45 0.125 7.16 1.97 13.83
12/24/2020 1:30:00 AM 0.25 32.45 0.125 7.17 1.97 13.83
12/24/2020 1:45:00 AM 0.25 32.45 0.125 7.17 1.96 13.83
12/24/2020 2:00:00 AM 0.25 32.45 0.125 7.16 1.95 13.83
12/24/2020 2:15:00 AM 0.26 32.468 0.125 7.16 1.95 13.82
12/24/2020 2:30:00 AM 0.28 32.504 0.125 7.16 1.94 13.82
12/24/2020 2:45:00 AM 0.28 32.504 0.125 7.16 1.94 13.81
12/24/2020 3:00:00 AM 0.28 32.504 0.125 7.16 2.01 13.81
12/24/2020 3:15:00 AM 0.3 32.54 0.125 7.16 1.91 13.81
12/24/2020 3:30:00 AM 0.31 32.558 0.125 7.16 1.94 13.8
12/24/2020 3:45:00 AM 0.33 32.594 0.125 7.16 1.97 13.8
12/24/2020 4:00:00 AM 0.34 32.612 0.125 7.16 1.95 13.79
12/24/2020 4:15:00 AM 0.36 32.648 0.125 7.16 1.93 13.78
12/24/2020 4:30:00 AM 0.38 32.684 0.125 7.16 1.94 13.77
12/24/2020 4:45:00 AM 0.4 32.72 0.125 7.16 1.99 13.77
12/24/2020 5:00:00 AM 0.41 32.738 0.125 7.16 1.96 13.76
12/24/2020 5:15:00 AM 0.43 32.774 0.125 7.15 1.96 13.76
12/24/2020 5:30:00 AM 0.43 32.774 0.125 7.15 1.93 13.75
12/24/2020 5:45:00 AM 0.43 32.774 0.125 7.15 1.92 13.74
12/24/2020 6:00:00 AM 0.44 32.792 0.125 7.15 1.93 13.74
12/24/2020 6:15:00 AM 0.45 32.81 0.126 7.15 1.97 13.73
12/24/2020 6:30:00 AM 0.46 32.828 0.126 7.15 1.91 13.73
12/24/2020 6:45:00 AM 0.46 32.828 0.126 7.15 1.93 13.72
12/24/2020 7:00:00 AM 0.47 32.846 0.126 7.15 1.93 13.71
12/24/2020 7:15:00 AM 0.47 32.846 0.126 7.14 1.97 13.71
12/24/2020 7:30:00 AM 0.48 32.864 0.126 7.14 1.96 13.71
12/24/2020 7:45:00 AM 0.48 32.864 0.126 7.15 1.93 13.71
12/24/2020 8:00:00 AM 0.49 32.882 0.126 7.14 1.9 13.72
12/24/2020 8:15:00 AM 0.5 32.9 0.126 7.15 1.89 13.75
12/24/2020 8:30:00 AM 0.51 32.918 0.126 7.16 1.97 13.78
12/24/2020 8:45:00 AM 0.52 32.936 0.125 7.16 1.95 13.83
12/24/2020 9:00:00 AM 0.53 32.954 0.125 7.17 1.91 13.87
12/24/2020 9:15:00 AM 0.54 32.972 0.125 7.18 1.96 13.89
12/24/2020 9:30:00 AM 0.56 33.008 0.125 7.18 1.98 13.93
12/24/2020 9:45:00 AM 0.57 33.026 0.125 7.19 2.08 13.97
12/24/2020 10:00:00 AM 0.58 33.044 0.124 7.2 1.99 14.01
12/24/2020 10:15:00 AM 0.6 33.08 0.124 7.21 2.05 14.03
12/24/2020 10:30:00 AM 0.62 33.116 0.124 7.21 2.08 14.07
12/24/2020 10:45:00 AM 0.63 33.134 0.123 7.23 2.29 14.08
12/24/2020 11:00:00 AM 0.65 33.17 0.122 7.22 2.48 14.1
12/24/2020 11:15:00 AM 0.68 33.224 0.121 7.24 2.77 14.09
12/24/2020 11:30:00 AM 0.67 33.206 0.121 7.23 2.72 14.12
12/24/2020 11:45:00 AM 0.72 33.296 0.12 7.23 2.93 14.11
12/24/2020 12:00:00 PM 0.67 33.206 0.121 7.23 3.6 14.12
12/24/2020 12:15:00 PM 0.65 33.17 0.123 7.22 6.31 14.11
12/24/2020 12:30:00 PM 0.62 33.116 0.124 7.22 9.39 14.06
12/24/2020 12:45:00 PM 0.52 32.936 0.129 7.19 15.86 14.04
12/24/2020 1:00:00 PM 0.38 32.684 0.133 7.2 52.33 13.97
12/24/2020 1:15:00 PM 0.28 32.504 0.142 7.18 145.87 13.94
12/24/2020 1:30:00 PM 0.2 32.36 0.151 7.16 274.13 13.91
12/24/2020 1:45:00 PM 0.2 32.36 0.146 7.17 416.06 13.92
12/24/2020 2:00:00 PM 0.14 32.252 0.141 7.14 461.2 13.86
12/24/2020 2:15:00 PM 0.32 32.576 0.14 7.14 334.2 13.85
12/24/2020 2:30:00 PM 0.38 32.684 0.137 7.17 327.76 13.81
12/24/2020 2:45:00 PM 0.52 32.936 0.137 7.16 372.47 13.74
12/24/2020 3:00:00 PM 0.65 33.17 0.136 7.17 268.59 13.68
12/24/2020 3:15:00 PM 0.8 33.44 0.13 7.16 281.37 13.63
12/24/2020 3:30:00 PM 0.92 33.656 0.125 7.14 342.48 13.58
12/24/2020 3:45:00 PM 0.98 33.764 0.121 7.1 329.76 13.53
12/24/2020 4:00:00 PM 0.79 33.422 0.119 7 344.32 13.49
12/24/2020 4:15:00 PM 0.61 33.098 0.111 6.94 437.9 13.5
12/24/2020 4:30:00 PM 0.48 32.864 0.105 6.91 380.15 13.51
12/24/2020 4:45:00 PM 0.51 32.918 0.1 6.88 337.8 13.49
12/24/2020 5:00:00 PM 0.54 32.972 0.1 6.83 372.49 13.51
12/24/2020 5:15:00 PM 0.59 33.062 0.1 6.81 402.8 13.51
12/24/2020 5:30:00 PM 0.64 33.152 0.097 6.83 418.31 13.5
12/24/2020 5:45:00 PM 0.73 33.314 0.095 6.65 418.32 13.43
12/24/2020 6:00:00 PM 0.85 33.53 0.056 6.8 444.61 13.4
12/24/2020 6:15:00 PM 1.03 33.854 0.09 6.82 430.26 13.33
12/24/2020 6:30:00 PM 1.33 34.394 0.089 6.85 413.81 13.27
12/24/2020 6:45:00 PM 1.56 34.808 0.087 6.88 465.01 13.21
12/24/2020 7:00:00 PM 1.73 35.114 0.085 6.89 457.37 13.16
12/24/2020 7:15:00 PM 1.83 35.294 0.085 6.92 534.51 13.14
12/24/2020 7:30:00 PM 1.89 35.402 0.075 6.95 663.15 13.11
12/24/2020 7:45:00 PM 1.95 35.51 0.049 6.94 549.81 13.08
12/24/2020 8:00:00 PM 2.02 35.636 0.074 6.92 435.12 13.06
12/24/2020 8:15:00 PM 2.07 35.726 0.079 6.87 494.28 13.03
12/24/2020 8:30:00 PM 2.08 35.744 0.078 6.84 533.83 13
12/24/2020 8:45:00 PM 2.07 35.726 0.054 6.78 605.46 12.98
12/24/2020 9:00:00 PM 2.05 35.69 0.05 6.74 746.39 12.96
12/24/2020 9:15:00 PM 2.09 35.762 0.053 6.76 548.81 12.97
12/24/2020 9:30:00 PM 2.18 35.924 0.05 6.79 657.52 12.96
12/24/2020 9:45:00 PM 2.32 36.176 0.046 6.7 581.2 12.94
12/24/2020 10:00:00 PM 2.49 36.482 0.042 6.77 599.32 12.89
12/24/2020 10:15:00 PM 2.64 36.752 0.039 6.74 505.31 12.86
12/24/2020 10:30:00 PM 2.79 37.022 0.037 6.76 463.59 12.83
12/24/2020 10:45:00 PM 2.94 37.292 0.044 6.76 774.55 12.77
12/24/2020 11:00:00 PM 3.09 37.562 0.042 6.74 418.45 12.72
12/24/2020 11:15:00 PM 3.23 37.814 0.04 6.77 401.13 12.68
12/24/2020 11:30:00 PM 3.39 38.102 0.039 6.76 383.73 12.62
12/24/2020 11:45:00 PM 3.53 38.354 0.039 6.75 2588.49 12.58
12/25/2020 12:00:00 AM 3.67 38.606 0.038 6.78 1900.67 12.53
12/25/2020 12:15:00 AM 3.81 38.858 0.037 6.74 428.83 12.49
12/25/2020 12:30:00 AM 3.94 39.092 0.036 6.73 477.33 12.44
12/25/2020 12:45:00 AM 4.05 39.29 0.035 6.72 311.85 12.39
12/25/2020 1:00:00 AM 4.17 39.506 0.051 6.7 253.74 12.34
12/25/2020 1:15:00 AM 4.3 39.74 0.044 6.75 283.26 12.3
12/25/2020 1:30:00 AM 4.41 39.938 0.038 6.73 205.45 12.27
12/25/2020 1:45:00 AM 4.53 40.154 0.042 6.74 398.2 12.22
12/25/2020 2:00:00 AM 4.62 40.316 0.044 6.73 201.22 12.18
12/25/2020 2:15:00 AM 4.71 40.478 0.069 6.74 552 12.15
12/25/2020 2:30:00 AM 4.77 40.586 0.049 6.75 183.24 12.13
12/25/2020 2:45:00 AM 4.83 40.694 0.042 6.73 180.85 12.11
12/25/2020 3:00:00 AM 4.88 40.784 0.038 6.72 230.14 12.1
12/25/2020 3:15:00 AM 4.93 40.874 0.036 6.73 225.86 12.09
12/25/2020 3:30:00 AM 4.96 40.928 0.045 6.72 217.84 12.09
12/25/2020 3:45:00 AM 4.98 40.964 0.054 6.73 251.18 12.08
12/25/2020 4:00:00 AM 4.99 40.982 0.05 6.7 330.01 12.07
12/25/2020 4:15:00 AM 5 41 0.046 6.68 227.26 12.07
12/25/2020 4:30:00 AM 5.01 41.018 0.043 6.67 556.12 12.07
12/25/2020 4:45:00 AM 4.99 40.982 0.041 6.68 222.41 12.08
12/25/2020 5:00:00 AM 4.99 40.982 0.039 6.68 222.24 12.08
12/25/2020 5:15:00 AM 4.99 40.982 0.038 6.66 178.07 12.08
12/25/2020 5:30:00 AM 5 41 0.037 6.64 211.03 12.08
12/25/2020 5:45:00 AM 5.01 41.018 0.037 6.64 175.97 12.07
12/25/2020 6:00:00 AM 5.02 41.036 0.037 6.64 162.69 12.07
12/25/2020 6:15:00 AM 5.03 41.054 0.036 6.64 220.39 12.07
12/25/2020 6:30:00 AM 5.03 41.054 0.035 6.61 331.69 12.07
12/25/2020 6:45:00 AM 5.04 41.072 0.035 6.61 158.55 12.07
12/25/2020 7:00:00 AM 5.04 41.072 0.048 6.63 124.33 12.07
12/25/2020 7:15:00 AM 5.04 41.072 0.045 6.62 117.69 12.07
12/25/2020 7:30:00 AM 5.03 41.054 0.039 6.61 125.75 12.08
12/25/2020 7:45:00 AM 5.02 41.036 0.054 6.59 190.78 12.08
12/25/2020 8:00:00 AM 5.01 41.018 0.044 6.61 121.71 12.08
12/25/2020 8:15:00 AM 5 41 0.057 6.57 148.7 12.09
12/25/2020 8:30:00 AM 4.99 40.982 0.051 6.62 129.03 12.1
12/25/2020 8:45:00 AM 4.99 40.982 0.045 6.59 201.57 12.1
12/25/2020 9:00:00 AM 4.98 40.964 0.037 6.6 115.96 12.11
12/25/2020 9:15:00 AM 4.98 40.964 0.051 6.59 107.72 12.11
12/25/2020 9:30:00 AM 5 41 0.051 6.58 79.5 12.12
12/25/2020 9:45:00 AM 5 41 0.051 6.55 79.2 12.12
12/25/2020 10:00:00 AM 5.01 41.018 0.044 6.54 77.35 12.11
12/25/2020 10:15:00 AM 5.02 41.036 0.042 6.49 67.6 12.12
12/25/2020 10:30:00 AM 5.02 41.036 0.039 6.51 77.19 12.12
12/25/2020 10:45:00 AM 5.02 41.036 0.036 6.51 77.96 12.11
12/25/2020 11:00:00 AM 5.02 41.036 0.035 6.44 64.3 12.11
12/25/2020 11:15:00 AM 5.02 41.036 0.036 6.46 75.72 12.11
12/25/2020 11:30:00 AM 5.02 41.036 0.056 6.45 68 12.1
12/25/2020 11:45:00 AM 5.02 41.036 0.052 6.4 68.1 12.1
12/25/2020 12:00:00 PM 5.02 41.036 0.074 6.45 75.17 12.1
12/25/2020 12:15:00 PM 5.02 41.036 0.074 6.51 68.36 12.1
12/25/2020 12:30:00 PM 5.02 41.036 0.074 6.53 59.61 12.1
12/25/2020 12:45:00 PM 5.02 41.036 0.075 6.48 59.47 12.1
12/25/2020 1:00:00 PM 5.02 41.036 0.075 6.46 60.32 12.1
12/25/2020 1:15:00 PM 5.01 41.018 0.075 6.5 54.36 12.1
12/25/2020 1:30:00 PM 5.01 41.018 0.075 6.52 56.7 12.11
12/25/2020 1:45:00 PM 5 41 0.075 6.49 53.23 12.11
12/25/2020 2:00:00 PM 5 41 0.075 6.52 53.99 12.11
12/25/2020 2:15:00 PM 4.99 40.982 0.075 6.52 52.05 12.12
12/25/2020 2:30:00 PM 4.98 40.964 0.075 6.54 47.82 12.12
12/25/2020 2:45:00 PM 4.98 40.964 0.076 6.53 52.3 12.12
12/25/2020 3:00:00 PM 4.97 40.946 0.076 6.51 45.33 12.13
12/25/2020 3:15:00 PM 4.96 40.928 0.076 6.49 46.42 12.13
12/25/2020 3:30:00 PM 4.95 40.91 0.076 6.51 44.69 12.14
12/25/2020 3:45:00 PM 4.93 40.874 0.076 6.49 41.72 12.14
12/25/2020 4:00:00 PM 4.91 40.838 0.076 6.5 40.87 12.14
12/25/2020 4:15:00 PM 4.89 40.802 0.076 6.52 39.94 12.15
12/25/2020 4:30:00 PM 4.86 40.748 0.076 6.51 41.97 12.16
12/25/2020 4:45:00 PM 4.85 40.73 0.076 6.55 37.15 12.16
12/25/2020 5:00:00 PM 4.82 40.676 0.077 6.47 35.71 12.17
12/25/2020 5:15:00 PM 4.79 40.622 0.077 6.47 40.43 12.18
12/25/2020 5:30:00 PM 4.75 40.55 0.077 6.49 36.81 12.19
12/25/2020 5:45:00 PM 4.73 40.514 0.077 6.53 35.83 12.2
12/25/2020 6:00:00 PM 4.69 40.442 0.077 6.54 36.07 12.21
12/25/2020 6:15:00 PM 4.66 40.388 0.077 6.52 33.98 12.22
12/25/2020 6:30:00 PM 4.62 40.316 0.077 6.55 36.56 12.23
12/25/2020 6:45:00 PM 4.58 40.244 0.077 6.54 32.45 12.24
12/25/2020 7:00:00 PM 4.54 40.172 0.077 6.54 34.74 12.26
12/25/2020 7:15:00 PM 4.5 40.1 0.077 6.54 42.87 12.28
12/25/2020 7:30:00 PM 4.46 40.028 0.077 6.53 37.12 12.29
12/25/2020 7:45:00 PM 4.42 39.956 0.077 6.54 31.94 12.31
12/25/2020 8:00:00 PM 4.38 39.884 0.077 6.55 2341.66 12.33
12/25/2020 8:15:00 PM 4.34 39.812 0.078 6.58 64.65 12.35
12/25/2020 8:30:00 PM 4.3 39.74 0.078 6.57 55.99 12.36
12/25/2020 8:45:00 PM 4.25 39.65 0.078 6.54 32.87 12.39
12/25/2020 9:00:00 PM 4.21 39.578 0.078 6.58 36.08 12.4
12/25/2020 9:15:00 PM 4.16 39.488 0.078 6.56 85.63 12.42
12/25/2020 9:30:00 PM 4.11 39.398 0.078 6.56 35.03 12.44
12/25/2020 9:45:00 PM 4.06 39.308 0.078 6.57 28.02 12.46
12/25/2020 10:00:00 PM 4.02 39.236 0.078 6.57 30.69 12.48
12/25/2020 10:15:00 PM 3.98 39.164 0.078 6.57 30.29 12.49
12/25/2020 10:30:00 PM 3.94 39.092 0.078 6.55 29.91 12.51
12/25/2020 10:45:00 PM 3.9 39.02 0.078 6.54 30.08 12.52
12/25/2020 11:00:00 PM 3.86 38.948 0.078 6.57 27.05 12.54
12/25/2020 11:15:00 PM 3.82 38.876 0.078 6.59 29.46 12.55
12/25/2020 11:30:00 PM 3.78 38.804 0.079 6.64 29.81 12.56
12/25/2020 11:45:00 PM 3.74 38.732 0.079 6.58 102.28 12.57
12/26/2020 12:00:00 AM 3.7 38.66 0.079 6.59 27.17 12.58
12/26/2020 12:15:00 AM 3.67 38.606 0.079 6.6 25.75 12.6
12/26/2020 12:30:00 AM 3.62 38.516 0.079 6.59 19.69 12.61
12/26/2020 12:45:00 AM 3.59 38.462 0.079 6.6 24.81 12.62
12/26/2020 1:00:00 AM 3.55 38.39 0.079 6.61 22.86 12.64
12/26/2020 1:15:00 AM 3.52 38.336 0.079 6.59 43.65 12.65
12/26/2020 1:30:00 AM 3.48 38.264 0.079 6.6 67.98 12.67
12/26/2020 1:45:00 AM 3.44 38.192 0.079 6.6 21.45 12.68
12/26/2020 2:00:00 AM 3.41 38.138 0.079 6.61 26.85 12.69
12/26/2020 2:15:00 AM 3.38 38.084 0.079 6.62 20.61 12.7
12/26/2020 2:30:00 AM 3.34 38.012 0.079 6.62 29.42 12.72
12/26/2020 2:45:00 AM 3.31 37.958 0.08 6.62 17.18 12.73
12/26/2020 3:00:00 AM 3.28 37.904 0.08 6.63 24.85 12.74
12/26/2020 3:15:00 AM 3.25 37.85 0.08 6.61 20.46 12.75
12/26/2020 3:30:00 AM 3.22 37.796 0.08 6.6 22 12.76
12/26/2020 3:45:00 AM 3.2 37.76 0.08 6.6 20.84 12.76
12/26/2020 4:00:00 AM 3.16 37.688 0.08 6.65 20.12 12.78
12/26/2020 4:15:00 AM 3.14 37.652 0.08 6.63 20.5 12.78
12/26/2020 4:30:00 AM 3.11 37.598 0.08 6.66 19.08 12.79
12/26/2020 4:45:00 AM 3.08 37.544 0.08 6.65 19.27 12.8
12/26/2020 5:00:00 AM 3.06 37.508 0.08 6.66 20.91 12.81
12/26/2020 5:15:00 AM 3.04 37.472 0.08 6.67 19.19 12.82
12/26/2020 5:30:00 AM 3.01 37.418 0.08 6.66 19.99 12.83
12/26/2020 5:45:00 AM 2.99 37.382 0.08 6.67 19.35 12.84
12/26/2020 6:00:00 AM 2.96 37.328 0.08 6.67 19.59 12.85
12/26/2020 6:15:00 AM 2.94 37.292 0.08 6.66 16.86 12.86
12/26/2020 6:30:00 AM 2.92 37.256 0.081 6.67 17.31 12.87
12/26/2020 6:45:00 AM 2.9 37.22 0.081 6.67 16.96 12.88
12/26/2020 7:00:00 AM 2.88 37.184 0.081 6.65 16.94 12.88
12/26/2020 7:15:00 AM 2.86 37.148 0.081 6.66 19.86 12.89
12/26/2020 7:30:00 AM 2.83 37.094 0.081 6.66 18.3 12.9
12/26/2020 7:45:00 AM 2.81 37.058 0.081 6.66 15.84 12.92
12/26/2020 8:00:00 AM 2.79 37.022 0.081 6.68 14.84 12.93
12/26/2020 8:15:00 AM 2.77 36.986 0.081 6.67 16.83 12.94
12/26/2020 8:30:00 AM 2.76 36.968 0.081 6.66 20.37 12.95
12/26/2020 8:45:00 AM 2.75 36.95 0.081 6.66 40.24 12.96
12/26/2020 9:00:00 AM 2.74 36.932 0.081 6.67 13.98 12.98
12/26/2020 9:15:00 AM 2.74 36.932 0.081 6.67 15.02 12.98
12/26/2020 9:30:00 AM 2.74 36.932 0.081 6.68 14.48 12.99
12/26/2020 9:45:00 AM 2.74 36.932 0.081 6.7 16.95 13
12/26/2020 10:00:00 AM 2.75 36.95 0.081 6.7 16.66 13
12/26/2020 10:15:00 AM 2.75 36.95 0.081 6.71 15.11 13.01
12/26/2020 10:30:00 AM 2.76 36.968 0.081 6.71 12.23 13.01
12/26/2020 10:45:00 AM 2.78 37.004 0.082 6.71 37.07 13.01
12/26/2020 11:00:00 AM 2.79 37.022 0.082 6.71 15.63 13.01
12/26/2020 11:15:00 AM 2.79 37.022 0.082 6.72 16.03 13.01
12/26/2020 11:30:00 AM 2.8 37.04 0.082 6.72 15.81 13
12/26/2020 11:45:00 AM 2.81 37.058 0.082 6.73 16.35 13
12/26/2020 12:00:00 PM 2.82 37.076 0.082 6.73 15.94 13
12/26/2020 12:15:00 PM 2.83 37.094 0.082 6.73 16.67 13
12/26/2020 12:30:00 PM 2.85 37.13 0.082 6.73 13.45 12.99
12/26/2020 12:45:00 PM 2.87 37.166 0.082 6.74 14.97 12.99
12/26/2020 1:00:00 PM 2.9 37.22 0.082 6.74 16.46 12.98
12/26/2020 1:15:00 PM 2.92 37.256 0.082 6.74 13.99 12.97
12/26/2020 1:30:00 PM 2.94 37.292 0.082 6.75 13.06 12.96
12/26/2020 1:45:00 PM 2.96 37.328 0.082 6.75 31.06 12.95
12/26/2020 2:00:00 PM 2.98 37.364 0.082 6.75 16.61 12.95
12/26/2020 2:15:00 PM 3 37.4 0.082 6.75 14.45 12.94
12/26/2020 2:30:00 PM 3.02 37.436 0.082 6.75 15.4 12.93
12/26/2020 2:45:00 PM 3.03 37.454 0.083 6.75 12.9 12.93
12/26/2020 3:00:00 PM 3.02 37.436 0.083 6.74 13.56 12.92
12/26/2020 3:15:00 PM 3.02 37.436 0.083 6.75 13.16 12.92
12/26/2020 3:30:00 PM 3.01 37.418 0.083 6.75 16.1 12.91
12/26/2020 3:45:00 PM 2.99 37.382 0.083 6.74 18 12.92
12/26/2020 4:00:00 PM 2.97 37.346 0.083 6.74 13.12 12.92
12/26/2020 4:15:00 PM 2.94 37.292 0.083 6.74 14.56 12.93
12/26/2020 4:30:00 PM 2.9 37.22 0.083 6.73 12.45 12.93
12/26/2020 4:45:00 PM 2.88 37.184 0.083 6.73 14.29 12.94
12/26/2020 5:00:00 PM 2.86 37.148 0.083 6.73 11.93 12.94
12/26/2020 5:15:00 PM 2.83 37.094 0.083 6.73 11.72 12.95
12/26/2020 5:30:00 PM 2.81 37.058 0.083 6.73 11.87 12.96
12/26/2020 5:45:00 PM 2.79 37.022 0.083 6.73 12.61 12.97
12/26/2020 6:00:00 PM 2.76 36.968 0.083 6.71 40.57 12.98
12/26/2020 6:15:00 PM 2.73 36.914 0.083 6.72 13.22 12.99
12/26/2020 6:30:00 PM 2.7 36.86 0.083 6.73 13.29 13
12/26/2020 6:45:00 PM 2.67 36.806 0.083 6.73 12.84 13.01
12/26/2020 7:00:00 PM 2.64 36.752 0.083 6.72 12.89 13.02
12/26/2020 7:15:00 PM 2.6 36.68 0.083 6.72 12.05 13.04
12/26/2020 7:30:00 PM 2.57 36.626 0.084 6.72 11.41 13.05
12/26/2020 7:45:00 PM 2.53 36.554 0.084 6.73 11.25 13.06
12/26/2020 8:00:00 PM 2.49 36.482 0.084 6.72 11.4 13.07
12/26/2020 8:15:00 PM 2.46 36.428 0.084 6.72 11.4 13.09
12/26/2020 8:30:00 PM 2.43 36.374 0.084 6.73 11.42 13.1
12/26/2020 8:45:00 PM 2.39 36.302 0.084 6.72 11.54 13.11
12/26/2020 9:00:00 PM 2.36 36.248 0.084 6.73 11.41 13.13
12/26/2020 9:15:00 PM 2.34 36.212 0.084 6.73 13.56 13.14
12/26/2020 9:30:00 PM 2.32 36.176 0.084 6.73 11.04 13.15
12/26/2020 9:45:00 PM 2.3 36.14 0.084 6.73 11.19 13.16
12/26/2020 10:00:00 PM 2.27 36.086 0.084 6.73 12.99 13.17
12/26/2020 10:15:00 PM 2.25 36.05 0.084 6.73 12.96 13.18
12/26/2020 10:30:00 PM 2.23 36.014 0.084 6.72 12.15 13.19
12/26/2020 10:45:00 PM 2.21 35.978 0.084 6.72 12.38 13.2
12/26/2020 11:00:00 PM 2.2 35.96 0.084 6.73 11.7 13.21
12/26/2020 11:15:00 PM 2.18 35.924 0.084 6.73 12.04 13.22
12/26/2020 11:30:00 PM 2.16 35.888 0.084 6.7 12.37 13.23
12/26/2020 11:45:00 PM 2.15 35.87 0.084 6.72 1848.19 13.23
12/27/2020 12:00:00 AM 2.14 35.852 0.084 6.72 11.5 13.24
12/27/2020 12:15:00 AM 2.13 35.834 0.085 6.74 10.56 13.25
12/27/2020 12:30:00 AM 2.12 35.816 0.084 6.74 10.64 13.26
12/27/2020 12:45:00 AM 2.11 35.798 0.085 6.74 10.59 13.26
12/27/2020 1:00:00 AM 2.1 35.78 0.085 6.75 10.45 13.27
12/27/2020 1:15:00 AM 2.09 35.762 0.085 6.74 10.62 13.27
12/27/2020 1:30:00 AM 2.09 35.762 0.085 6.75 10.58 13.28
12/27/2020 1:45:00 AM 2.07 35.726 0.085 6.75 10.17 13.28
12/27/2020 2:00:00 AM 2.07 35.726 0.085 6.75 10.2 13.29
12/27/2020 2:15:00 AM 2.06 35.708 0.085 6.74 10.17 13.3
12/27/2020 2:30:00 AM 2.05 35.69 0.085 6.74 9.82 13.3
12/27/2020 2:45:00 AM 2.04 35.672 0.085 6.75 9.71 13.31
12/27/2020 3:00:00 AM 2.03 35.654 0.085 6.75 9.71 13.32
12/27/2020 3:15:00 AM 2.03 35.654 0.085 6.75 10 13.32
12/27/2020 3:30:00 AM 2.03 35.654 0.085 6.75 10.11 13.32
12/27/2020 3:45:00 AM 2.02 35.636 0.085 6.75 10.06 13.33
12/27/2020 4:00:00 AM 2.02 35.636 0.085 6.75 9.85 13.33
12/27/2020 4:15:00 AM 2.02 35.636 0.085 6.76 9.85 13.33
12/27/2020 4:30:00 AM 2.03 35.654 0.085 6.77 9.85 13.33
12/27/2020 4:45:00 AM 2.03 35.654 0.085 6.77 9.6 13.33
12/27/2020 5:00:00 AM 2.04 35.672 0.085 6.76 9.71 13.34
12/27/2020 5:15:00 AM 2.04 35.672 0.085 6.77 9.44 13.34
12/27/2020 5:30:00 AM 2.04 35.672 0.085 6.78 9.59 13.34
12/27/2020 5:45:00 AM 2.05 35.69 0.085 6.77 9.65 13.34
12/27/2020 6:00:00 AM 2.06 35.708 0.085 6.77 9.54 13.34
12/27/2020 6:15:00 AM 2.06 35.708 0.085 6.77 9.53 13.34
12/27/2020 6:30:00 AM 2.07 35.726 0.085 6.78 9.69 13.34
12/27/2020 6:45:00 AM 2.07 35.726 0.086 6.77 9.64 13.34
12/27/2020 7:00:00 AM 2.08 35.744 0.086 6.78 9.54 13.35
12/27/2020 7:15:00 AM 2.08 35.744 0.086 6.78 9.37 13.34
12/27/2020 7:30:00 AM 2.09 35.762 0.086 6.78 9.57 13.35
12/27/2020 7:45:00 AM 2.1 35.78 0.086 6.78 9.73 13.34
12/27/2020 8:00:00 AM 2.11 35.798 0.086 6.8 9.57 13.34
12/27/2020 8:15:00 AM 2.12 35.816 0.086 6.77 9.32 13.35
12/27/2020 8:30:00 AM 2.13 35.834 0.086 6.78 9.67 13.34
12/27/2020 8:45:00 AM 2.14 35.852 0.086 6.81 9.12 13.35
12/27/2020 9:00:00 AM 2.16 35.888 0.086 6.79 9.03 13.34
12/27/2020 9:15:00 AM 2.19 35.942 0.086 6.79 8.91 13.34
12/27/2020 9:30:00 AM 2.22 35.996 0.086 6.8 9.22 13.34
12/27/2020 9:45:00 AM 2.25 36.05 0.086 6.79 8.71 13.34
12/27/2020 10:00:00 AM 2.28 36.104 0.086 6.8 8.83 13.34
12/27/2020 10:15:00 AM 2.32 36.176 0.086 6.81 8.68 13.33
12/27/2020 10:30:00 AM 2.37 36.266 0.086 6.81 8.75 13.32
12/27/2020 10:45:00 AM 2.41 36.338 0.086 6.82 8.86 13.31
12/27/2020 11:00:00 AM 2.47 36.446 0.086 6.81 8.76 13.3
12/27/2020 11:15:00 AM 2.53 36.554 0.086 6.82 8.67 13.29
12/27/2020 11:30:00 AM 2.58 36.644 0.086 6.82 9.07 13.29
12/27/2020 11:45:00 AM 2.63 36.734 0.086 6.83 8.62 13.27
12/27/2020 12:00:00 PM 2.67 36.806 0.086 6.82 8.49 13.26
12/27/2020 12:15:00 PM 2.74 36.932 0.086 6.83 8.65 13.25
12/27/2020 12:30:00 PM 2.79 37.022 0.086 6.83 8.58 13.23
12/27/2020 12:45:00 PM 2.86 37.148 0.086 6.84 8.78 13.2
12/27/2020 1:00:00 PM 2.92 37.256 0.086 6.84 8.89 13.18
12/27/2020 1:15:00 PM 2.99 37.382 0.087 6.83 8.58 13.15
12/27/2020 1:30:00 PM 3.05 37.49 0.087 6.84 9.05 13.13
12/27/2020 1:45:00 PM 3.1 37.58 0.086 6.83 8.29 13.11
12/27/2020 2:00:00 PM 3.15 37.67 0.087 6.83 8.6 13.08
12/27/2020 2:15:00 PM 3.19 37.742 0.087 6.83 8.47 13.06
12/27/2020 2:30:00 PM 3.23 37.814 0.087 6.81 9.16 13.04
12/27/2020 2:45:00 PM 3.26 37.868 0.087 6.81 8.65 13.02
12/27/2020 3:00:00 PM 3.28 37.904 0.087 6.82 8.27 13
12/27/2020 3:15:00 PM 3.28 37.904 0.087 6.82 7.94 12.99
12/27/2020 3:30:00 PM 3.28 37.904 0.087 6.82 7.94 12.98
12/27/2020 3:45:00 PM 3.28 37.904 0.087 6.82 8.07 12.98
12/27/2020 4:00:00 PM 3.28 37.904 0.087 6.83 7.82 12.97
12/27/2020 4:15:00 PM 3.28 37.904 0.087 6.82 8.02 12.97
12/27/2020 4:30:00 PM 3.27 37.886 0.087 6.81 7.98 12.96
12/27/2020 4:45:00 PM 3.25 37.85 0.087 6.82 8.14 12.96
12/27/2020 5:00:00 PM 3.23 37.814 0.087 6.75 8.49 12.95
12/27/2020 5:15:00 PM 3.21 37.778 0.087 6.78 8.48 12.95
12/27/2020 5:30:00 PM 3.19 37.742 0.087 6.77 8.37 12.95
12/27/2020 5:45:00 PM 3.17 37.706 0.087 6.77 8.51 12.95
12/27/2020 6:00:00 PM 3.14 37.652 0.088 6.77 8.48 12.95
12/27/2020 6:15:00 PM 3.11 37.598 0.087 6.77 8.43 12.95
12/27/2020 6:30:00 PM 3.09 37.562 0.088 6.77 8.77 12.96
12/27/2020 6:45:00 PM 3.06 37.508 0.088 6.76 9.02 12.97
12/27/2020 7:00:00 PM 3.03 37.454 0.088 6.74 8.61 12.98
12/27/2020 7:15:00 PM 3 37.4 0.088 6.76 8.63 12.98
12/27/2020 7:30:00 PM 2.98 37.364 0.088 6.77 8.54 12.99
12/27/2020 7:45:00 PM 2.95 37.31 0.088 6.77 8.5 13
12/27/2020 8:00:00 PM 2.93 37.274 0.088 6.77 8.66 13.01
12/27/2020 8:15:00 PM 2.9 37.22 0.088 6.76 8.56 13.02
12/27/2020 8:30:00 PM 2.88 37.184 0.088 6.76 8.55 13.03
12/27/2020 8:45:00 PM 2.85 37.13 0.088 6.76 8.74 13.04
12/27/2020 9:00:00 PM 2.82 37.076 0.088 6.77 8.81 13.05
12/27/2020 9:15:00 PM 2.8 37.04 0.088 6.78 8.68 13.06
12/27/2020 9:30:00 PM 2.78 37.004 0.088 6.79 8.78 13.07
12/27/2020 9:45:00 PM 2.75 36.95 0.088 6.78 8.75 13.08
12/27/2020 10:00:00 PM 2.73 36.914 0.088 6.78 8.7 13.1
12/27/2020 10:15:00 PM 2.71 36.878 0.088 6.77 8.85 13.1
12/27/2020 10:30:00 PM 2.69 36.842 0.088 6.77 8.64 13.11
12/27/2020 10:45:00 PM 2.67 36.806 0.088 6.77 8.61 13.12
12/27/2020 11:00:00 PM 2.65 36.77 0.088 6.81 8.44 13.13
12/27/2020 11:15:00 PM 2.63 36.734 0.088 6.81 8.17 13.14
12/27/2020 11:30:00 PM 2.61 36.698 0.088 6.82 8.56 13.15
12/27/2020 11:45:00 PM 2.59 36.662 0.089 6.78 8.58 13.15
12/28/2020 12:00:00 AM 2.57 36.626 0.089 6.78 8.75 13.16
12/28/2020 12:15:00 AM 2.55 36.59 0.089 6.79 8.63 13.17
12/28/2020 12:30:00 AM 2.54 36.572 0.089 6.8 8.69 13.17
12/28/2020 12:45:00 AM 2.52 36.536 0.089 6.8 8.58 13.18
12/28/2020 1:00:00 AM 2.51 36.518 0.089 6.81 8.7 13.18
12/28/2020 1:15:00 AM 2.49 36.482 0.089 6.8 8.76 13.19
12/28/2020 1:30:00 AM 2.47 36.446 0.089 6.82 8.65 13.19
12/28/2020 1:45:00 AM 2.46 36.428 0.089 6.81 8.68 13.2
12/28/2020 2:00:00 AM 2.45 36.41 0.089 6.8 8.66 13.2
12/28/2020 2:15:00 AM 2.43 36.374 0.089 6.81 8.82 13.2
12/28/2020 2:30:00 AM 2.42 36.356 0.089 6.79 8.52 13.2
12/28/2020 2:45:00 AM 2.41 36.338 0.089 6.8 8.75 13.21
12/28/2020 3:00:00 AM 2.4 36.32 0.089 6.81 8.61 13.21
12/28/2020 3:15:00 AM 2.4 36.32 0.089 6.81 8.44 13.21
12/28/2020 3:30:00 AM 2.39 36.302 0.089 6.82 8.88 13.21
12/28/2020 3:45:00 AM 2.39 36.302 0.089 6.81 8.82 13.21
12/28/2020 4:00:00 AM 2.39 36.302 0.089 6.82 8.82 13.21
12/28/2020 4:15:00 AM 2.39 36.302 0.089 6.82 8.69 13.21
12/28/2020 4:30:00 AM 2.39 36.302 0.089 6.82 8.64 13.21
12/28/2020 4:45:00 AM 2.39 36.302 0.089 6.82 8.75 13.21
12/28/2020 5:00:00 AM 2.4 36.32 0.089 6.82 8.8 13.2
12/28/2020 5:15:00 AM 2.4 36.32 0.089 6.83 8.81 13.2
12/28/2020 5:30:00 AM 2.41 36.338 0.089 6.82 8.93 13.2
12/28/2020 5:45:00 AM 2.42 36.356 0.089 6.83 8.91 13.2
12/28/2020 6:00:00 AM 2.42 36.356 0.089 6.81 8.91 13.19
12/28/2020 6:15:00 AM 2.41 36.338 0.089 6.83 8.83 13.19
12/28/2020 6:30:00 AM 2.41 36.338 0.089 6.85 8.87 13.18
12/28/2020 6:45:00 AM 2.42 36.356 0.089 6.83 8.8 13.18
12/28/2020 7:00:00 AM 2.43 36.374 0.089 6.83 8.73 13.18
12/28/2020 7:15:00 AM 2.45 36.41 0.09 6.83 8.72 13.18
12/28/2020 7:30:00 AM 2.47 36.446 0.09 6.84 8.61 13.17
12/28/2020 7:45:00 AM 2.48 36.464 0.09 6.85 8.73 13.17
12/28/2020 8:00:00 AM 2.49 36.482 0.09 6.84 8.76 13.17
12/28/2020 8:15:00 AM 2.51 36.518 0.09 6.85 8.82 13.17
12/28/2020 8:30:00 AM 2.53 36.554 0.09 6.85 8.86 13.16
12/28/2020 8:45:00 AM 2.55 36.59 0.09 6.85 8.7 13.15
12/28/2020 9:00:00 AM 2.57 36.626 0.09 6.85 8.86 13.15